Provisional Data: Sangerfield River near Poolville, NY


Please select a monitoring station.
Please select start date.
Please select start date.

<
Toggle Unit: C/F Toggle Unit: C/F
Sample Time Temperature (C) Temperature (F) Specific Conductivity (mS/cm) pH   Turbidity (NTU+) DO (mg/L)
12/4/2020 12:00:00 AM 2.26 36.068 0.291 7.84 3.26 12.96
12/4/2020 12:15:00 AM 2.26 36.068 0.291 7.84 3.42 12.95
12/4/2020 12:30:00 AM 2.26 36.068 0.291 7.84 4.56 12.95
12/4/2020 12:45:00 AM 2.24 36.032 0.291 7.84 4.42 12.95
12/4/2020 1:00:00 AM 2.23 36.014 0.291 7.84 4.42 12.95
12/4/2020 1:15:00 AM 2.21 35.978 0.292 7.84 4.62 12.95
12/4/2020 1:30:00 AM 2.2 35.96 0.292 7.84 4.13 12.95
12/4/2020 1:45:00 AM 2.18 35.924 0.292 7.83 4.54 12.96
12/4/2020 2:00:00 AM 2.16 35.888 0.292 7.84 2.89 12.96
12/4/2020 2:15:00 AM 2.15 35.87 0.292 7.83 5.73 12.97
12/4/2020 2:30:00 AM 2.15 35.87 0.292 7.83 5.43 12.96
12/4/2020 2:45:00 AM 2.15 35.87 0.292 7.83 4.62 12.96
12/4/2020 3:00:00 AM 2.15 35.87 0.292 7.82 3.05 12.97
12/4/2020 3:15:00 AM 2.16 35.888 0.292 7.84 3.03 12.96
12/4/2020 3:30:00 AM 2.16 35.888 0.292 7.83 5.09 12.96
12/4/2020 3:45:00 AM 2.17 35.906 0.292 7.83 2.97 12.96
12/4/2020 4:00:00 AM 2.17 35.906 0.292 7.83 4.77 12.96
12/4/2020 4:15:00 AM 2.18 35.924 0.292 7.83 4.28 12.96
12/4/2020 4:30:00 AM 2.19 35.942 0.292 7.84 2.83 12.95
12/4/2020 4:45:00 AM 2.19 35.942 0.293 7.83 3.05 12.96
12/4/2020 5:00:00 AM 2.2 35.96 0.293 7.84 3.55 12.96
12/4/2020 5:15:00 AM 2.21 35.978 0.293 7.83 4.5 12.95
12/4/2020 5:30:00 AM 2.21 35.978 0.293 7.83 4.43 12.95
12/4/2020 5:45:00 AM 2.22 35.996 0.293 7.85 4.71 12.95
12/4/2020 6:00:00 AM 2.23 36.014 0.293 7.84 5.29 12.95
12/4/2020 6:15:00 AM 2.24 36.032 0.293 7.84 5.1 12.95
12/4/2020 6:30:00 AM 2.24 36.032 0.293 7.84 4.72 12.94
12/4/2020 6:45:00 AM 2.25 36.05 0.293 7.84 4.56 12.95
12/4/2020 7:00:00 AM 2.25 36.05 0.293 7.85 4.59 12.95
12/4/2020 7:15:00 AM 2.26 36.068 0.293 7.83 5.53 12.94
12/4/2020 7:30:00 AM 2.26 36.068 0.293 7.84 3.66 12.94
12/4/2020 7:45:00 AM 2.27 36.086 0.293 7.84 5.76 12.95
12/4/2020 8:00:00 AM 2.27 36.086 0.293 7.84 5.32 12.97
12/4/2020 8:15:00 AM 2.29 36.122 0.293 7.86 3.1 13.01
12/4/2020 8:30:00 AM 2.31 36.158 0.293 7.86 2.82 13.07
12/4/2020 8:45:00 AM 2.33 36.194 0.293 7.88 4.91 13.14
12/4/2020 9:00:00 AM 2.35 36.23 0.293 7.89 4.31 13.21
12/4/2020 9:15:00 AM 2.38 36.284 0.293 7.9 4.81 13.28
12/4/2020 9:30:00 AM 2.41 36.338 0.308 7.92 2.96 13.35
12/4/2020 9:45:00 AM 2.44 36.392 0.328 7.94 2.98 13.42
12/4/2020 10:00:00 AM 2.49 36.482 0.34 7.96 4.61 13.49
12/4/2020 10:15:00 AM 2.53 36.554 0.364 7.98 4.53 13.57
12/4/2020 10:30:00 AM 2.57 36.626 0.355 8 4.51 13.62
12/4/2020 10:45:00 AM 2.61 36.698 0.346 8.02 4.21 13.66
12/4/2020 11:00:00 AM 2.65 36.77 0.333 8.02 2.63 13.7
12/4/2020 11:15:00 AM 2.69 36.842 0.318 8.04 4.28 13.72
12/4/2020 11:30:00 AM 2.72 36.896 0.308 8.05 2.36 13.73
12/4/2020 11:45:00 AM 2.77 36.986 0.301 8.05 4.23 13.77
12/4/2020 12:00:00 PM 2.83 37.094 0.298 8.07 3.82 13.82
12/4/2020 12:15:00 PM 2.89 37.202 0.296 8.08 3.39 13.85
12/4/2020 12:30:00 PM 2.93 37.274 0.295 8.1 2.41 13.88
12/4/2020 12:45:00 PM 2.97 37.346 0.294 8.1 2.64 13.88
12/4/2020 1:00:00 PM 3 37.4 0.294 8.11 4.15 13.88
12/4/2020 1:15:00 PM 3.02 37.436 0.294 8.11 4.02 13.84
12/4/2020 1:30:00 PM 3.04 37.472 0.294 8.11 2.39 13.81
12/4/2020 1:45:00 PM 3.06 37.508 0.294 8.11 2.51 13.78
12/4/2020 2:00:00 PM 3.08 37.544 0.294 8.11 2.46 13.74
12/4/2020 2:15:00 PM 3.09 37.562 0.294 8.11 3.96 13.71
12/4/2020 2:30:00 PM 3.11 37.598 0.294 8.09 2.4 13.68
12/4/2020 2:45:00 PM 3.13 37.634 0.294 8.1 2.37 13.65
12/4/2020 3:00:00 PM 3.15 37.67 0.294 8.08 4.04 13.6
12/4/2020 3:15:00 PM 3.16 37.688 0.294 8.09 2.53 13.55
12/4/2020 3:30:00 PM 3.17 37.706 0.294 8.07 2.43 13.49
12/4/2020 3:45:00 PM 3.18 37.724 0.294 8.06 3.87 13.43
12/4/2020 4:00:00 PM 3.19 37.742 0.294 8.04 3.32 13.36
12/4/2020 4:15:00 PM 3.19 37.742 0.295 8.04 2.45 13.3
12/4/2020 4:30:00 PM 3.19 37.742 0.295 8.03 2.49 13.22
12/4/2020 4:45:00 PM 3.19 37.742 0.295 8 3.97 13.15
12/4/2020 5:00:00 PM 3.19 37.742 0.295 8 2.61 13.09
12/4/2020 5:15:00 PM 3.2 37.76 0.295 7.98 4.37 13.03
12/4/2020 5:30:00 PM 3.2 37.76 0.295 7.97 4.13 12.99
12/4/2020 5:45:00 PM 3.2 37.76 0.295 7.97 2.59 12.94
12/4/2020 6:00:00 PM 3.2 37.76 0.295 7.95 3.64 12.91
12/4/2020 6:15:00 PM 3.21 37.778 0.295 7.95 2.59 12.88
12/4/2020 6:30:00 PM 3.21 37.778 0.295 7.94 4.27 12.85
12/4/2020 6:45:00 PM 3.21 37.778 0.295 7.94 2.64 12.84
12/4/2020 7:00:00 PM 3.22 37.796 0.295 7.94 2.67 12.81
12/4/2020 7:15:00 PM 3.22 37.796 0.295 7.93 2.66 12.78
12/4/2020 7:30:00 PM 3.23 37.814 0.295 7.92 4.52 12.76
12/4/2020 7:45:00 PM 3.23 37.814 0.295 7.91 5.21 12.75
12/4/2020 8:00:00 PM 3.23 37.814 0.295 7.92 2.72 12.72
12/4/2020 8:15:00 PM 3.22 37.796 0.295 7.89 2.67 12.72
12/4/2020 8:30:00 PM 3.22 37.796 0.296 7.91 2.83 12.69
12/4/2020 8:45:00 PM 3.23 37.814 0.296 7.9 3.25 12.68
12/4/2020 9:00:00 PM 3.23 37.814 0.296 7.89 4.82 12.68
12/4/2020 9:15:00 PM 3.22 37.796 0.296 7.89 2.88 12.67
12/4/2020 9:30:00 PM 3.23 37.814 0.296 7.88 2.73 12.65
12/4/2020 9:45:00 PM 3.23 37.814 0.296 7.88 4.19 12.65
12/4/2020 10:00:00 PM 3.23 37.814 0.296 7.89 2.79 12.64
12/4/2020 10:15:00 PM 3.23 37.814 0.296 7.87 4.61 12.64
12/4/2020 10:30:00 PM 3.23 37.814 0.296 7.88 2.83 12.63
12/4/2020 10:45:00 PM 3.22 37.796 0.296 7.87 3.01 12.63
12/4/2020 11:00:00 PM 3.22 37.796 0.297 7.88 2.71 12.61
12/4/2020 11:15:00 PM 3.22 37.796 0.297 7.88 2.86 12.61
12/4/2020 11:30:00 PM 3.22 37.796 0.297 7.87 2.81 12.61
12/4/2020 11:45:00 PM 3.22 37.796 0.297 7.87 2.95 12.61
12/5/2020 12:00:00 AM 3.21 37.778 0.297 7.86 2.91 12.6
12/5/2020 12:15:00 AM 3.2 37.76 0.297 7.86 2.79 12.6
12/5/2020 12:30:00 AM 3.19 37.742 0.297 7.86 2.98 12.59
12/5/2020 12:45:00 AM 3.19 37.742 0.297 7.85 4.01 12.59
12/5/2020 1:00:00 AM 3.18 37.724 0.297 7.85 4.14 12.58
12/5/2020 1:15:00 AM 3.17 37.706 0.297 7.86 2.85 12.58
12/5/2020 1:30:00 AM 3.16 37.688 0.297 7.85 2.98 12.58
12/5/2020 1:45:00 AM 3.16 37.688 0.297 7.85 5.24 12.57
12/5/2020 2:00:00 AM 3.15 37.67 0.297 7.85 4.01 12.57
12/5/2020 2:15:00 AM 3.15 37.67 0.297 7.84 4.06 12.58
12/5/2020 2:30:00 AM 3.14 37.652 0.298 7.85 3.14 12.57
12/5/2020 2:45:00 AM 3.13 37.634 0.298 7.85 3.37 12.57
12/5/2020 3:00:00 AM 3.13 37.634 0.298 7.85 4.91 12.57
12/5/2020 3:15:00 AM 3.12 37.616 0.298 7.85 2.77 12.57
12/5/2020 3:30:00 AM 3.11 37.598 0.298 7.85 3.12 12.58
12/5/2020 3:45:00 AM 3.11 37.598 0.298 7.84 4.65 12.57
12/5/2020 4:00:00 AM 3.1 37.58 0.298 7.84 2.96 12.58
12/5/2020 4:15:00 AM 3.1 37.58 0.298 7.85 4.78 12.57
12/5/2020 4:30:00 AM 3.09 37.562 0.298 7.84 3.35 12.58
12/5/2020 4:45:00 AM 3.1 37.58 0.298 7.85 4.56 12.57
12/5/2020 5:00:00 AM 3.09 37.562 0.298 7.85 2.87 12.58
12/5/2020 5:15:00 AM 3.1 37.58 0.298 7.84 4.54 12.57
12/5/2020 5:30:00 AM 3.1 37.58 0.298 7.85 2.98 12.57
12/5/2020 5:45:00 AM 3.09 37.562 0.298 7.85 2.84 12.57
12/5/2020 6:00:00 AM 3.09 37.562 0.298 7.85 2.97 12.56
12/5/2020 6:15:00 AM 3.09 37.562 0.298 7.84 5.26 12.57
12/5/2020 6:30:00 AM 3.08 37.544 0.299 7.84 3.05 12.58
12/5/2020 6:45:00 AM 3.09 37.562 0.299 7.84 4.1 12.57
12/5/2020 7:00:00 AM 3.08 37.544 0.299 7.85 2.81 12.57
12/5/2020 7:15:00 AM 3.08 37.544 0.299 7.85 3.21 12.58
12/5/2020 7:30:00 AM 3.07 37.526 0.299 7.85 5.76 12.58
12/5/2020 7:45:00 AM 3.07 37.526 0.299 7.86 2.99 12.59
12/5/2020 8:00:00 AM 3.07 37.526 0.299 7.86 4.46 12.61
12/5/2020 8:15:00 AM 3.08 37.544 0.299 7.86 2.78 12.65
12/5/2020 8:30:00 AM 3.08 37.544 0.299 7.86 2.77 12.74
12/5/2020 8:45:00 AM 3.1 37.58 0.299 7.9 2.85 12.87
12/5/2020 9:00:00 AM 3.12 37.616 0.299 7.92 3.77 12.98
12/5/2020 9:15:00 AM 3.14 37.652 0.298 7.94 2.73 13.08
12/5/2020 9:30:00 AM 3.17 37.706 0.298 7.96 4.72 13.17
12/5/2020 9:45:00 AM 3.2 37.76 0.298 7.98 4.2 13.28
12/5/2020 10:00:00 AM 3.23 37.814 0.298 8 4.23 13.36
12/5/2020 10:15:00 AM 3.28 37.904 0.298 8.04 2.47 13.44
12/5/2020 10:30:00 AM 3.31 37.958 0.298 8.03 4.46 13.49
12/5/2020 10:45:00 AM 3.33 37.994 0.298 8.05 4.29 13.52
12/5/2020 11:00:00 AM 3.34 38.012 0.298 8.07 2.51 13.53
12/5/2020 11:15:00 AM 3.34 38.012 0.298 8.05 3.53 13.51
12/5/2020 11:30:00 AM 3.36 38.048 0.298 8.06 3.51 13.52
12/5/2020 11:45:00 AM 3.36 38.048 0.298 8.08 2.52 13.5
12/5/2020 12:00:00 PM 3.38 38.084 0.298 8.07 3.92 13.51
12/5/2020 12:15:00 PM 3.42 38.156 0.298 8.09 4.02 13.56
12/5/2020 12:30:00 PM 3.43 38.174 0.298 8.11 2.46 13.56
12/5/2020 12:45:00 PM 3.42 38.156 0.298 8.09 2.56 13.46
12/5/2020 1:00:00 PM 3.41 38.138 0.298 8.08 2.37 13.39
12/5/2020 1:15:00 PM 3.4 38.12 0.298 8.07 2.27 13.35
12/5/2020 1:30:00 PM 3.39 38.102 0.298 8.07 2.34 13.33
12/5/2020 1:45:00 PM 3.39 38.102 0.298 8.06 4.28 13.33
12/5/2020 2:00:00 PM 3.39 38.102 0.298 8.09 2.34 13.39
12/5/2020 2:15:00 PM 3.38 38.084 0.298 8.08 2.35 13.4
12/5/2020 2:30:00 PM 3.36 38.048 0.298 8.07 4.12 13.35
12/5/2020 2:45:00 PM 3.35 38.03 0.298 8.07 3.96 13.33
12/5/2020 3:00:00 PM 3.33 37.994 0.298 8.07 2.39 13.3
12/5/2020 3:15:00 PM 3.32 37.976 0.299 8.06 2.44 13.26
12/5/2020 3:30:00 PM 3.29 37.922 0.299 8.05 2.47 13.19
12/5/2020 3:45:00 PM 3.27 37.886 0.299 8.03 4.5 13.11
12/5/2020 4:00:00 PM 3.25 37.85 0.299 8.02 3.57 13.06
12/5/2020 4:15:00 PM 3.23 37.814 0.3 8.01 2.78 12.99
12/5/2020 4:30:00 PM 3.21 37.778 0.3 8 2.72 12.94
12/5/2020 4:45:00 PM 3.2 37.76 0.3 7.99 2.74 12.89
12/5/2020 5:00:00 PM 3.18 37.724 0.3 7.98 4.85 12.86
12/5/2020 5:15:00 PM 3.17 37.706 0.3 7.98 2.58 12.83
12/5/2020 5:30:00 PM 3.16 37.688 0.3 7.96 5.26 12.81
12/5/2020 5:45:00 PM 3.16 37.688 0.301 7.96 2.98 12.79
12/5/2020 6:00:00 PM 3.15 37.67 0.301 7.96 2.69 12.78
12/5/2020 6:15:00 PM 3.14 37.652 0.301 7.95 2.65 12.76
12/5/2020 6:30:00 PM 3.12 37.616 0.301 7.94 4.99 12.75
12/5/2020 6:45:00 PM 3.1 37.58 0.301 7.94 3.1 12.73
12/5/2020 7:00:00 PM 3.08 37.544 0.301 7.92 2.69 12.73
12/5/2020 7:15:00 PM 3.07 37.526 0.301 7.93 2.76 12.71
12/5/2020 7:30:00 PM 3.05 37.49 0.301 7.92 2.9 12.7
12/5/2020 7:45:00 PM 3.04 37.472 0.301 7.92 2.99 12.69
12/5/2020 8:00:00 PM 3.02 37.436 0.301 7.91 5.13 12.68
12/5/2020 8:15:00 PM 3.01 37.418 0.301 7.92 3.74 12.67
12/5/2020 8:30:00 PM 3 37.4 0.301 7.91 5.05 12.67
12/5/2020 8:45:00 PM 2.99 37.382 0.301 7.9 4.55 12.66
12/5/2020 9:00:00 PM 2.97 37.346 0.302 7.91 3.48 12.66
12/5/2020 9:15:00 PM 2.96 37.328 0.302 7.9 3.52 12.65
12/5/2020 9:30:00 PM 2.95 37.31 0.302 7.9 3.11 12.65
12/5/2020 9:45:00 PM 2.93 37.274 0.302 7.9 5.13 12.65
12/5/2020 10:00:00 PM 2.91 37.238 0.302 7.9 5.43 12.65
12/5/2020 10:15:00 PM 2.9 37.22 0.302 7.9 5.06 12.65
12/5/2020 10:30:00 PM 2.88 37.184 0.302 7.89 4.24 12.65
12/5/2020 10:45:00 PM 2.86 37.148 0.302 7.89 2.93 12.64
12/5/2020 11:00:00 PM 2.84 37.112 0.302 7.89 3.03 12.64
12/5/2020 11:15:00 PM 2.8 37.04 0.302 7.88 5.59 12.65
12/5/2020 11:30:00 PM 2.78 37.004 0.302 7.89 3.13 12.65
12/5/2020 11:45:00 PM 2.76 36.968 0.302 7.88 4.09 12.66
12/6/2020 12:00:00 AM 2.72 36.896 0.303 7.88 3.07 12.65
12/6/2020 12:15:00 AM 2.69 36.842 0.303 7.88 3.12 12.67
12/6/2020 12:30:00 AM 2.67 36.806 0.303 7.88 3 12.67
12/6/2020 12:45:00 AM 2.65 36.77 0.303 7.88 4.94 12.68
12/6/2020 1:00:00 AM 2.62 36.716 0.303 7.88 5.82 12.68
12/6/2020 1:15:00 AM 2.59 36.662 0.303 7.87 5.1 12.69
12/6/2020 1:30:00 AM 2.56 36.608 0.303 7.87 4.76 12.7
12/6/2020 1:45:00 AM 2.54 36.572 0.303 7.86 4.41 12.71
12/6/2020 2:00:00 AM 2.51 36.518 0.304 7.87 4.64 12.71
12/6/2020 2:15:00 AM 2.47 36.446 0.304 7.87 3.24 12.73
12/6/2020 2:30:00 AM 2.44 36.392 0.304 7.87 3.23 12.73
12/6/2020 2:45:00 AM 2.41 36.338 0.304 7.87 3.27 12.74
12/6/2020 3:00:00 AM 2.39 36.302 0.304 7.87 5.15 12.76
12/6/2020 3:15:00 AM 2.35 36.23 0.304 7.86 5.15 12.77
12/6/2020 3:30:00 AM 2.32 36.176 0.304 7.87 3.63 12.78
12/6/2020 3:45:00 AM 2.28 36.104 0.304 7.87 4.79 12.79
12/6/2020 4:00:00 AM 2.27 36.086 0.304 7.87 4.77 12.8
12/6/2020 4:15:00 AM 2.24 36.032 0.304 7.87 4.65 12.81
12/6/2020 4:30:00 AM 2.22 35.996 0.304 7.86 4.35 12.82
12/6/2020 4:45:00 AM 2.2 35.96 0.304 7.86 4.9 12.83
12/6/2020 5:00:00 AM 2.17 35.906 0.304 7.87 4.66 12.83
12/6/2020 5:15:00 AM 2.16 35.888 0.304 7.86 3.07 12.84
12/6/2020 5:30:00 AM 2.13 35.834 0.304 7.86 3.04 12.85
12/6/2020 5:45:00 AM 2.11 35.798 0.304 7.87 5.17 12.86
12/6/2020 6:00:00 AM 2.09 35.762 0.304 7.87 4.91 12.87
12/6/2020 6:15:00 AM 2.08 35.744 0.304 7.87 4.64 12.88
12/6/2020 6:30:00 AM 2.06 35.708 0.304 7.87 3.33 12.88
12/6/2020 6:45:00 AM 2.05 35.69 0.304 7.87 4.69 12.9
12/6/2020 7:00:00 AM 2.04 35.672 0.304 7.86 4.4 12.89
12/6/2020 7:15:00 AM 2.03 35.654 0.304 7.86 2.84 12.91
12/6/2020 7:30:00 AM 2.02 35.636 0.304 7.86 4.51 12.92
12/6/2020 7:45:00 AM 2.01 35.618 0.305 7.87 2.86 12.94
12/6/2020 8:00:00 AM 2 35.6 0.305 7.88 4.61 12.96
12/6/2020 8:15:00 AM 1.98 35.564 0.305 7.88 2.96 13
12/6/2020 8:30:00 AM 1.98 35.564 0.305 7.89 4.65 13.05
12/6/2020 8:45:00 AM 1.97 35.546 0.304 7.9 4.84 13.1
12/6/2020 9:00:00 AM 1.98 35.564 0.304 7.9 2.93 13.16
12/6/2020 9:15:00 AM 1.98 35.564 0.304 7.92 2.98 13.24
12/6/2020 9:30:00 AM 1.98 35.564 0.304 7.94 2.6 13.32
12/6/2020 9:45:00 AM 1.99 35.582 0.304 7.95 2.71 13.39
12/6/2020 10:00:00 AM 2 35.6 0.304 7.97 4.77 13.47
12/6/2020 10:15:00 AM 2.01 35.618 0.304 7.98 5.05 13.55
12/6/2020 10:30:00 AM 2.02 35.636 0.304 7.99 3.43 13.63
12/6/2020 10:45:00 AM 2.04 35.672 0.303 8.01 3.81 13.71
12/6/2020 11:00:00 AM 2.06 35.708 0.303 8.03 3.85 13.78
12/6/2020 11:15:00 AM 2.07 35.726 0.303 8.04 3.54 13.84
12/6/2020 11:30:00 AM 2.09 35.762 0.303 8.06 2.61 13.87
12/6/2020 11:45:00 AM 2.09 35.762 0.303 8.07 2.52 13.9
12/6/2020 12:00:00 PM 2.1 35.78 0.303 8.07 4.11 13.93
12/6/2020 12:15:00 PM 2.1 35.78 0.303 8.09 4.26 13.95
12/6/2020 12:30:00 PM 2.1 35.78 0.303 8.1 3.42 13.99
12/6/2020 12:45:00 PM 2.12 35.816 0.303 8.11 2.4 14.05
12/6/2020 1:00:00 PM 2.14 35.852 0.303 8.13 3.99 14.09
12/6/2020 1:15:00 PM 2.18 35.924 0.303 8.14 4.13 14.13
12/6/2020 1:30:00 PM 2.22 35.996 0.303 8.16 2.53 14.17
12/6/2020 1:45:00 PM 2.23 36.014 0.303 8.16 2.41 14.2
12/6/2020 2:00:00 PM 2.25 36.05 0.302 8.18 4.08 14.22
12/6/2020 2:15:00 PM 2.25 36.05 0.302 8.18 2.42 14.23
12/6/2020 2:30:00 PM 2.24 36.032 0.303 8.18 2.52 14.2
12/6/2020 2:45:00 PM 2.23 36.014 0.303 8.18 3.97 14.14
12/6/2020 3:00:00 PM 2.22 35.996 0.303 8.17 2.41 14.11
12/6/2020 3:15:00 PM 2.21 35.978 0.303 8.16 2.41 14.04
12/6/2020 3:30:00 PM 2.19 35.942 0.303 8.14 3.97 13.95
12/6/2020 3:45:00 PM 2.17 35.906 0.303 8.12 2.51 13.87
12/6/2020 4:00:00 PM 2.14 35.852 0.304 8.11 4.82 13.78
12/6/2020 4:15:00 PM 2.11 35.798 0.304 8.09 3.94 13.69
12/6/2020 4:30:00 PM 2.09 35.762 0.304 8.08 3.41 13.61
12/6/2020 4:45:00 PM 2.07 35.726 0.304 8.06 3.83 13.54
12/6/2020 5:00:00 PM 2.05 35.69 0.304 8.04 3.78 13.48
12/6/2020 5:15:00 PM 2.03 35.654 0.304 8.02 3.39 13.43
12/6/2020 5:30:00 PM 2.01 35.618 0.305 8.02 3.84 13.39
12/6/2020 5:45:00 PM 1.98 35.564 0.305 8.01 2.54 13.36
12/6/2020 6:00:00 PM 1.97 35.546 0.305 8 4.22 13.34
12/6/2020 6:15:00 PM 1.96 35.528 0.305 7.99 4.41 13.31
12/6/2020 6:30:00 PM 1.94 35.492 0.305 7.99 2.85 13.29
12/6/2020 6:45:00 PM 1.93 35.474 0.305 7.97 4.73 13.26
12/6/2020 7:00:00 PM 1.92 35.456 0.305 7.98 4.49 13.24
12/6/2020 7:15:00 PM 1.91 35.438 0.305 7.97 2.81 13.23
12/6/2020 7:30:00 PM 1.9 35.42 0.305 7.95 2.98 13.21
12/6/2020 7:45:00 PM 1.9 35.42 0.306 7.96 3.54 13.19
12/6/2020 8:00:00 PM 1.88 35.384 0.306 7.96 2.94 13.17
12/6/2020 8:15:00 PM 1.88 35.384 0.306 7.96 4.88 13.16
12/6/2020 8:30:00 PM 1.86 35.348 0.306 7.95 4.94 13.16
12/6/2020 8:45:00 PM 1.85 35.33 0.306 7.94 4.71 13.15
12/6/2020 9:00:00 PM 1.84 35.312 0.306 7.94 3.1 13.15
12/6/2020 9:15:00 PM 1.83 35.294 0.306 7.94 3.31 13.15
12/6/2020 9:30:00 PM 1.83 35.294 0.306 7.94 5.25 13.13
12/6/2020 9:45:00 PM 1.82 35.276 0.306 7.94 4.46 13.13
12/6/2020 10:00:00 PM 1.82 35.276 0.306 7.93 2.84 13.13
12/6/2020 10:15:00 PM 1.81 35.258 0.306 7.92 4.42 13.13
12/6/2020 10:30:00 PM 1.81 35.258 0.306 7.91 3.82 13.13
12/6/2020 10:45:00 PM 1.8 35.24 0.306 7.92 4.46 13.12
12/6/2020 11:00:00 PM 1.79 35.222 0.306 7.92 6.46 13.13
12/6/2020 11:15:00 PM 1.78 35.204 0.307 7.92 2.79 13.12
12/6/2020 11:30:00 PM 1.78 35.204 0.307 7.92 2.78 13.12
12/6/2020 11:45:00 PM 1.77 35.186 0.307 7.92 3.24 13.11
12/7/2020 12:00:00 AM 1.76 35.168 0.307 7.91 2.94 13.12
12/7/2020 12:15:00 AM 1.75 35.15 0.307 7.91 4.9 13.12
12/7/2020 12:30:00 AM 1.75 35.15 0.307 7.91 4.64 13.11
12/7/2020 12:45:00 AM 1.75 35.15 0.307 7.91 2.85 13.11
12/7/2020 1:00:00 AM 1.74 35.132 0.307 7.91 2.9 13.11
12/7/2020 1:15:00 AM 1.73 35.114 0.307 7.9 3.06 13.11
12/7/2020 1:30:00 AM 1.73 35.114 0.307 7.9 4.72 13.1
12/7/2020 1:45:00 AM 1.72 35.096 0.307 7.9 2.8 13.12
12/7/2020 2:00:00 AM 1.7 35.06 0.307 7.9 3.39 13.1
12/7/2020 2:15:00 AM 1.69 35.042 0.307 7.9 5.13 13.11
12/7/2020 2:30:00 AM 1.68 35.024 0.307 7.89 3.22 13.11
12/7/2020 2:45:00 AM 1.66 34.988 0.307 7.89 2.95 13.12
12/7/2020 3:00:00 AM 1.64 34.952 0.308 7.89 3.06 13.12
12/7/2020 3:15:00 AM 1.61 34.898 0.308 7.89 2.85 13.12
12/7/2020 3:30:00 AM 1.59 34.862 0.308 7.88 2.82 13.13
12/7/2020 3:45:00 AM 1.56 34.808 0.308 7.89 2.91 13.13
12/7/2020 4:00:00 AM 1.54 34.772 0.308 7.89 2.77 13.13
12/7/2020 4:15:00 AM 1.53 34.754 0.308 7.89 2.86 13.15
12/7/2020 4:30:00 AM 1.51 34.718 0.308 7.89 2.76 13.15
12/7/2020 4:45:00 AM 1.49 34.682 0.308 7.89 2.8 13.16
12/7/2020 5:00:00 AM 1.48 34.664 0.308 7.89 2.71 13.16
12/7/2020 5:15:00 AM 1.47 34.646 0.308 7.88 2.88 13.17
12/7/2020 5:30:00 AM 1.46 34.628 0.308 7.88 4.13 13.17
12/7/2020 5:45:00 AM 1.45 34.61 0.308 7.88 2.72 13.17
12/7/2020 6:00:00 AM 1.44 34.592 0.308 7.88 2.88 13.18
12/7/2020 6:15:00 AM 1.42 34.556 0.308 7.88 4.41 13.18
12/7/2020 6:30:00 AM 1.4 34.52 0.308 7.88 2.77 13.18
12/7/2020 6:45:00 AM 1.38 34.484 0.309 7.87 3.14 13.19
12/7/2020 7:00:00 AM 1.36 34.448 0.309 7.88 3.22 13.2
12/7/2020 7:15:00 AM 1.34 34.412 0.309 7.88 2.82 13.21
12/7/2020 7:30:00 AM 1.31 34.358 0.309 7.88 2.64 13.23
12/7/2020 7:45:00 AM 1.29 34.322 0.309 7.88 3.17 13.25
12/7/2020 8:00:00 AM 1.27 34.286 0.309 7.89 2.84 13.3
12/7/2020 8:15:00 AM 1.27 34.286 0.309 7.9 2.92 13.35
12/7/2020 8:30:00 AM 1.26 34.268 0.309 7.91 4.32 13.42
12/7/2020 8:45:00 AM 1.27 34.286 0.309 7.92 3.36 13.51
12/7/2020 9:00:00 AM 1.28 34.304 0.309 7.94 2.76 13.61
12/7/2020 9:15:00 AM 1.3 34.34 0.31 7.96 4.57 13.71
12/7/2020 9:30:00 AM 1.32 34.376 0.31 7.99 4.64 13.82
12/7/2020 9:45:00 AM 1.35 34.43 0.309 8.01 4.98 13.93
12/7/2020 10:00:00 AM 1.4 34.52 0.309 8.03 2.81 14.02
12/7/2020 10:15:00 AM 1.45 34.61 0.309 8.06 3 14.11
12/7/2020 10:30:00 AM 1.49 34.682 0.308 8.07 2.72 14.17
12/7/2020 10:45:00 AM 1.54 34.772 0.308 8.1 2.6 14.23
12/7/2020 11:00:00 AM 1.59 34.862 0.308 8.11 2.57 14.28
12/7/2020 11:15:00 AM 1.62 34.916 0.308 8.12 2.99 14.33
12/7/2020 11:30:00 AM 1.67 35.006 0.307 8.13 4.5 14.37
12/7/2020 11:45:00 AM 1.71 35.078 0.307 8.15 2.59 14.41
12/7/2020 12:00:00 PM 1.74 35.132 0.307 8.16 3.94 14.42
12/7/2020 12:15:00 PM 1.78 35.204 0.307 8.17 4.92 14.44
12/7/2020 12:30:00 PM 1.84 35.312 0.307 8.19 2.55 14.46
12/7/2020 12:45:00 PM 1.86 35.348 0.307 8.19 2.57 14.47
12/7/2020 1:00:00 PM 1.88 35.384 0.307 8.19 4.04 14.46
12/7/2020 1:15:00 PM 1.87 35.366 0.307 8.2 2.53 14.46
12/7/2020 1:30:00 PM 1.87 35.366 0.307 8.2 2.47 14.45
12/7/2020 1:45:00 PM 1.88 35.384 0.307 8.21 2.5 14.43
12/7/2020 2:00:00 PM 1.87 35.366 0.306 8.2 2.51 14.42
12/7/2020 2:15:00 PM 1.86 35.348 0.307 8.2 2.52 14.38
12/7/2020 2:30:00 PM 1.85 35.33 0.307 8.19 2.51 14.34
12/7/2020 2:45:00 PM 1.83 35.294 0.307 8.19 2.47 14.31
12/7/2020 3:00:00 PM 1.82 35.276 0.307 8.19 3.95 14.27
12/7/2020 3:15:00 PM 1.79 35.222 0.307 8.18 2.55 14.23
12/7/2020 3:30:00 PM 1.76 35.168 0.307 8.16 4.13 14.16
12/7/2020 3:45:00 PM 1.73 35.114 0.307 8.16 4.13 14.1
12/7/2020 4:00:00 PM 1.69 35.042 0.307 8.13 2.69 14.04
12/7/2020 4:15:00 PM 1.66 34.988 0.308 8.11 2.48 13.95
12/7/2020 4:30:00 PM 1.63 34.934 0.308 8.1 2.57 13.87
12/7/2020 4:45:00 PM 1.59 34.862 0.308 8.09 4.28 13.79
12/7/2020 5:00:00 PM 1.56 34.808 0.308 8.07 2.58 13.73
12/7/2020 5:15:00 PM 1.53 34.754 0.308 8.04 2.53 13.67
12/7/2020 5:30:00 PM 1.51 34.718 0.309 8.05 4.15 13.61
12/7/2020 5:45:00 PM 1.49 34.682 0.309 8.03 2.59 13.58
12/7/2020 6:00:00 PM 1.47 34.646 0.309 8.02 2.54 13.54
12/7/2020 6:15:00 PM 1.44 34.592 0.309 8.01 4.62 13.52
12/7/2020 6:30:00 PM 1.41 34.538 0.309 8 2.76 13.5
12/7/2020 6:45:00 PM 1.39 34.502 0.309 7.99 2.65 13.49
12/7/2020 7:00:00 PM 1.37 34.466 0.309 7.99 2.87 13.47
12/7/2020 7:15:00 PM 1.35 34.43 0.309 7.99 5.64 13.46
12/7/2020 7:30:00 PM 1.33 34.394 0.31 7.98 2.78 13.44
12/7/2020 7:45:00 PM 1.31 34.358 0.31 7.99 4.27 13.44
12/7/2020 8:00:00 PM 1.29 34.322 0.31 7.98 2.82 13.43
12/7/2020 8:15:00 PM 1.28 34.304 0.31 7.96 2.79 13.4
12/7/2020 8:30:00 PM 1.24 34.232 0.31 7.97 2.87 13.4
12/7/2020 8:45:00 PM 1.23 34.214 0.31 7.96 2.73 13.4
12/7/2020 9:00:00 PM 1.21 34.178 0.31 7.96 3.02 13.39
12/7/2020 9:15:00 PM 1.18 34.124 0.31 7.95 2.81 13.39
12/7/2020 9:30:00 PM 1.16 34.088 0.31 7.95 2.73 13.39
12/7/2020 9:45:00 PM 1.14 34.052 0.31 7.94 2.73 13.39
12/7/2020 10:00:00 PM 1.11 33.998 0.31 7.95 2.83 13.39
12/7/2020 10:15:00 PM 1.09 33.962 0.311 7.94 2.9 13.39
12/7/2020 10:30:00 PM 1.07 33.926 0.311 7.94 2.92 13.39
12/7/2020 10:45:00 PM 1.05 33.89 0.311 7.93 2.69 13.39
12/7/2020 11:00:00 PM 1.03 33.854 0.311 7.94 2.97 13.4
12/7/2020 11:15:00 PM 1.01 33.818 0.311 7.93 2.94 13.4
12/7/2020 11:30:00 PM 0.99 33.782 0.311 7.93 2.97 13.4
12/7/2020 11:45:00 PM 0.96 33.728 0.311 7.92 2.93 13.41
12/8/2020 12:00:00 AM 0.93 33.674 0.311 7.92 3.01 13.41
12/8/2020 12:15:00 AM 0.9 33.62 0.312 7.91 2.9 13.42
12/8/2020 12:30:00 AM 0.88 33.584 0.312 7.93 4.53 13.42
12/8/2020 12:45:00 AM 0.85 33.53 0.312 7.92 2.94 13.44
12/8/2020 1:00:00 AM 0.83 33.494 0.312 7.92 2.97 13.44
12/8/2020 1:15:00 AM 0.81 33.458 0.312 7.91 4.17 13.44
12/8/2020 1:30:00 AM 0.77 33.386 0.312 7.91 3.04 13.45
12/8/2020 1:45:00 AM 0.74 33.332 0.312 7.91 2.92 13.45
12/8/2020 2:00:00 AM 0.71 33.278 0.312 7.91 2.9 13.46
12/8/2020 2:15:00 AM 0.67 33.206 0.312 7.9 3.13 13.47
12/8/2020 2:30:00 AM 0.63 33.134 0.313 7.91 3.34 13.48
12/8/2020 2:45:00 AM 0.6 33.08 0.313 7.91 2.82 13.49
12/8/2020 3:00:00 AM 0.57 33.026 0.313 7.91 3.08 13.5
12/8/2020 3:15:00 AM 0.55 32.99 0.313 7.91 3.07 13.51
12/8/2020 3:30:00 AM 0.53 32.954 0.313 7.91 4.14 13.51
12/8/2020 3:45:00 AM 0.51 32.918 0.313 7.91 2.83 13.52
12/8/2020 4:00:00 AM 0.5 32.9 0.313 7.9 2.92 13.53
12/8/2020 4:15:00 AM 0.48 32.864 0.313 7.91 2.98 13.55
12/8/2020 4:30:00 AM 0.46 32.828 0.313 7.91 8.42 13.55
12/8/2020 4:45:00 AM 0.44 32.792 0.313 7.89 2.98 13.57
12/8/2020 5:00:00 AM 0.43 32.774 0.313 7.9 4.45 13.57
12/8/2020 5:15:00 AM 0.4 32.72 0.313 7.9 2.89 13.58
12/8/2020 5:30:00 AM 0.39 32.702 0.313 7.9 4.64 13.59
12/8/2020 5:45:00 AM 0.37 32.666 0.313 7.9 4.38 13.59
12/8/2020 6:00:00 AM 0.35 32.63 0.313 7.9 4.52 13.6
12/8/2020 6:15:00 AM 0.33 32.594 0.313 7.9 2.71 13.61
12/8/2020 6:30:00 AM 0.31 32.558 0.314 7.9 2.87 13.63
12/8/2020 6:45:00 AM 0.29 32.522 0.314 7.9 4.52 13.64
12/8/2020 7:00:00 AM 0.27 32.486 0.314 7.91 4.36 13.65
12/8/2020 7:15:00 AM 0.25 32.45 0.314 7.9 4.8 13.65
12/8/2020 7:30:00 AM 0.24 32.432 0.314 7.9 4.8 13.66
12/8/2020 7:45:00 AM 0.23 32.414 0.314 7.9 4.6 13.69
12/8/2020 8:00:00 AM 0.22 32.396 0.314 7.9 2.7 13.71
12/8/2020 8:15:00 AM 0.21 32.378 0.314 7.91 5.41 13.74
12/8/2020 8:30:00 AM 0.2 32.36 0.314 7.92 4.58 13.79
12/8/2020 8:45:00 AM 0.19 32.342 0.314 7.92 4.28 13.83
12/8/2020 9:00:00 AM 0.19 32.342 0.314 7.93 3.3 13.9
12/8/2020 9:15:00 AM 0.19 32.342 0.314 7.95 2.99 13.95
12/8/2020 9:30:00 AM 0.19 32.342 0.314 7.95 3.43 14.03
12/8/2020 9:45:00 AM 0.19 32.342 0.314 7.97 2.6 14.1
12/8/2020 10:00:00 AM 0.2 32.36 0.314 7.98 2.76 14.18
12/8/2020 10:15:00 AM 0.21 32.378 0.313 7.99 3.76 14.25
12/8/2020 10:30:00 AM 0.23 32.414 0.314 8.01 2.73 14.33
12/8/2020 10:45:00 AM 0.25 32.45 0.314 8.03 4.49 14.39
12/8/2020 11:00:00 AM 0.27 32.486 0.314 8.04 2.55 14.45
12/8/2020 11:15:00 AM 0.31 32.558 0.313 8.06 2.68 14.52
12/8/2020 11:30:00 AM 0.34 32.612 0.313 8.07 4.17 14.57
12/8/2020 11:45:00 AM 0.37 32.666 0.313 8.09 4.3 14.62
12/8/2020 12:00:00 PM 0.41 32.738 0.313 8.11 2.58 14.67
12/8/2020 12:15:00 PM 0.45 32.81 0.313 8.12 2.61 14.71
12/8/2020 12:30:00 PM 0.48 32.864 0.313 8.12 4.23 14.73
12/8/2020 12:45:00 PM 0.5 32.9 0.313 8.14 4.66 14.73
12/8/2020 1:00:00 PM 0.52 32.936 0.313 8.14 4.25 14.74
12/8/2020 1:15:00 PM 0.53 32.954 0.313 8.14 4.22 14.75
12/8/2020 1:30:00 PM 0.55 32.99 0.313 8.15 2.69 14.77
12/8/2020 1:45:00 PM 0.58 33.044 0.313 8.15 4.15 14.79
12/8/2020 2:00:00 PM 0.6 33.08 0.313 8.16 2.6 14.8
12/8/2020 2:15:00 PM 0.63 33.134 0.313 8.17 4.19 14.81
12/8/2020 2:30:00 PM 0.65 33.17 0.313 8.18 2.6 14.83
12/8/2020 2:45:00 PM 0.67 33.206 0.313 8.18 2.6 14.81
12/8/2020 3:00:00 PM 0.67 33.206 0.313 8.17 2.75 14.78
12/8/2020 3:15:00 PM 0.68 33.224 0.313 8.18 2.59 14.76
12/8/2020 3:30:00 PM 0.67 33.206 0.313 8.18 2.66 14.73
12/8/2020 3:45:00 PM 0.66 33.188 0.314 8.17 2.7 14.7
12/8/2020 4:00:00 PM 0.65 33.17 0.314 8.16 4.51 14.66
12/8/2020 4:15:00 PM 0.62 33.116 0.314 8.15 2.84 14.59
12/8/2020 4:30:00 PM 0.57 33.026 0.314 8.13 3.03 14.48
12/8/2020 4:45:00 PM 0.52 32.936 0.315 8.11 2.61 14.38
12/8/2020 5:00:00 PM 0.47 32.846 0.315 8.09 3.72 14.3
12/8/2020 5:15:00 PM 0.43 32.774 0.315 8.08 5.35 14.23
12/8/2020 5:30:00 PM 0.37 32.666 0.315 8.05 3.04 14.17
12/8/2020 5:45:00 PM 0.32 32.576 0.316 8.04 4.83 14.12
12/8/2020 6:00:00 PM 0.27 32.486 0.316 8.03 2.88 14.08
12/8/2020 6:15:00 PM 0.22 32.396 0.316 8.02 4.78 14.06
12/8/2020 6:30:00 PM 0.18 32.324 0.316 8 3.15 14.04
12/8/2020 6:45:00 PM 0.13 32.234 0.316 8 2.85 14.04
12/8/2020 7:00:00 PM 0.09 32.162 0.316 8 4.77 14.03
12/8/2020 7:15:00 PM 0.05 32.09 0.317 7.99 3 14.03
12/8/2020 7:30:00 PM 0.02 32.036 0.317 8 5.38 14.02
12/8/2020 7:45:00 PM 0 32 0.317 7.99 4.11 14.01
12/8/2020 8:00:00 PM -0.03 31.946 0.317 7.98 4.35 14.01
12/8/2020 8:15:00 PM -0.05 31.91 0.317 7.99 3.67 14
12/8/2020 8:30:00 PM -0.07 31.874 0.317 7.97 3.02 13.99
12/8/2020 8:45:00 PM -0.09 31.838 0.317 7.98 4.95 13.98
12/8/2020 9:00:00 PM -0.09 31.838 0.318 7.97 2.96 13.97
12/8/2020 9:15:00 PM -0.1 31.82 0.318 7.97 4.3 13.96
12/8/2020 9:30:00 PM -0.12 31.784 0.318 7.96 3.62 13.96
12/8/2020 9:45:00 PM -0.12 31.784 0.318 7.96 3.34 13.95
12/8/2020 10:00:00 PM -0.13 31.766 0.318 7.96 2.97 13.94
12/8/2020 10:15:00 PM -0.12 31.784 0.318 7.96 2.92 13.94
12/8/2020 10:30:00 PM -0.11 31.802 0.319 7.97 4.5 13.94
12/8/2020 10:45:00 PM -0.1 31.82 0.319 7.97 2.83 13.92
12/8/2020 11:00:00 PM -0.1 31.82 0.319 7.97 4.68 13.94
12/8/2020 11:15:00 PM -0.1 31.82 0.319 7.97 2.99 13.92
12/8/2020 11:30:00 PM -0.09 31.838 0.319 7.97 2.8 13.91
12/8/2020 11:45:00 PM -0.09 31.838 0.32 7.96 4.4 13.91
12/9/2020 12:00:00 AM -0.09 31.838 0.32 7.96 3.46 13.89
12/9/2020 12:15:00 AM -0.08 31.856 0.32 7.95 2.66 13.86
12/9/2020 12:30:00 AM -0.08 31.856 0.32 7.97 2.73 13.82
12/9/2020 12:45:00 AM -0.08 31.856 0.321 7.96 2.68 13.81
12/9/2020 1:00:00 AM -0.08 31.856 0.321 7.96 4.36 13.85
12/9/2020 1:15:00 AM -0.08 31.856 0.321 7.96 2.72 13.78
12/9/2020 1:30:00 AM -0.07 31.874 0.321 7.94 4.44 13.73
12/9/2020 1:45:00 AM -0.07 31.874 0.321 7.94 4.48 13.83
12/9/2020 2:00:00 AM -0.07 31.874 0.321 7.95 4.19 13.81
12/9/2020 2:15:00 AM -0.06 31.892 0.321 7.95 2.7 13.73
12/9/2020 2:30:00 AM -0.05 31.91 0.321 7.94 4.47 13.72
12/9/2020 2:45:00 AM -0.05 31.91 0.321 7.94 3 13.69
12/9/2020 3:00:00 AM -0.04 31.928 0.322 7.93 2.88 13.52
12/9/2020 3:15:00 AM -0.04 31.928 0.322 7.93 2.72 13.57
12/9/2020 3:30:00 AM -0.03 31.946 0.322 7.92 4.24 13.61
12/9/2020 3:45:00 AM -0.03 31.946 0.322 7.93 2.87 13.63
12/9/2020 4:00:00 AM -0.03 31.946 0.322 7.93 2.72 13.5
12/9/2020 4:15:00 AM -0.03 31.946 0.323 7.93 2.94 13.51
12/9/2020 4:30:00 AM -0.04 31.928 0.323 7.94 4.3 13.57
12/9/2020 4:45:00 AM -0.05 31.91 0.324 7.94 4.42 13.65
12/9/2020 5:00:00 AM -0.05 31.91 0.325 7.94 2.9 13.57
12/9/2020 5:15:00 AM -0.05 31.91 0.325 7.94 3.07 13.7
12/9/2020 5:30:00 AM -0.04 31.928 0.325 7.93 2.83 13.6
12/9/2020 5:45:00 AM -0.05 31.91 0.325 7.93 4.65 13.57
12/9/2020 6:00:00 AM -0.05 31.91 0.325 7.92 3.68 13.65
12/9/2020 6:15:00 AM -0.05 31.91 0.324 7.93 4.01 13.6
12/9/2020 6:30:00 AM -0.07 31.874 0.323 7.93 4.2 13.76
12/9/2020 6:45:00 AM -0.07 31.874 0.323 7.93 4.18 13.78
12/9/2020 7:00:00 AM -0.08 31.856 0.324 7.93 3 13.77
12/9/2020 7:15:00 AM -0.08 31.856 0.324 7.93 4.6 13.78
12/9/2020 7:30:00 AM -0.08 31.856 0.323 7.92 4.68 13.79
12/9/2020 7:45:00 AM -0.08 31.856 0.323 7.92 3.96 13.8
12/9/2020 8:00:00 AM -0.08 31.856 0.323 7.93 3.02 13.81
12/9/2020 8:15:00 AM -0.07 31.874 0.322 7.94 4.56 13.81
12/9/2020 8:30:00 AM -0.07 31.874 0.322 7.93 4.46 13.85
12/9/2020 8:45:00 AM -0.07 31.874 0.322 7.94 3.04 13.86
12/9/2020 9:00:00 AM -0.07 31.874 0.322 7.95 3.01 13.94
12/9/2020 9:15:00 AM -0.06 31.892 0.322 7.96 3.1 14.02
12/9/2020 9:30:00 AM -0.05 31.91 0.322 7.98 3.3 14.08
12/9/2020 9:45:00 AM -0.04 31.928 0.321 7.99 4.51 14.19
12/9/2020 10:00:00 AM -0.03 31.946 0.321 8.01 3.07 14.23
12/9/2020 10:15:00 AM -0.01 31.982 0.32 8.02 4.69 14.31
12/9/2020 10:30:00 AM 0.02 32.036 0.32 8.02 4.69 14.31
12/9/2020 10:45:00 AM 0.01 32.018 0.319 8.03 2.85 14.25
12/9/2020 11:00:00 AM -0.01 31.982 0.319 8.06 4.97 14.51
12/9/2020 11:15:00 AM -0.01 31.982 0.318 8.08 4 14.58
12/9/2020 11:30:00 AM 0.01 32.018 0.318 8.09 4.29 14.66
12/9/2020 11:45:00 AM 0.07 32.126 0.318 8.12 4.69 14.72
12/9/2020 12:00:00 PM 0.15 32.27 0.318 8.14 4.47 14.74
12/9/2020 12:15:00 PM 0.22 32.396 0.319 8.15 2.71 14.75
12/9/2020 12:30:00 PM 0.29 32.522 0.319 8.15 4.33 14.75
12/9/2020 12:45:00 PM 0.32 32.576 0.319 8.17 2.66 14.72
12/9/2020 1:00:00 PM 0.38 32.684 0.319 8.18 2.85 14.73
12/9/2020 1:15:00 PM 0.42 32.756 0.319 8.17 2.5 14.73
12/9/2020 1:30:00 PM 0.45 32.81 0.319 8.17 2.65 14.69
12/9/2020 1:45:00 PM 0.49 32.882 0.319 8.17 4.25 14.7
12/9/2020 2:00:00 PM 0.51 32.918 0.319 8.18 2.59 14.69
12/9/2020 2:15:00 PM 0.52 32.936 0.319 8.16 4.43 14.63
12/9/2020 2:30:00 PM 0.53 32.954 0.319 8.16 2.61 14.56
12/9/2020 2:45:00 PM 0.55 32.99 0.319 8.15 2.56 14.48
12/9/2020 3:00:00 PM 0.57 33.026 0.319 8.14 2.67 14.44
12/9/2020 3:15:00 PM 0.59 33.062 0.319 8.14 2.61 14.36
12/9/2020 3:30:00 PM 0.61 33.098 0.319 8.12 2.75 14.28
12/9/2020 3:45:00 PM 0.63 33.134 0.32 8.12 2.81 14.21
12/9/2020 4:00:00 PM 0.64 33.152 0.32 8.1 2.7 14.14
12/9/2020 4:15:00 PM 0.65 33.17 0.32 8.09 2.89 14.08
12/9/2020 4:30:00 PM 0.65 33.17 0.32 8.07 5.56 14.02
12/9/2020 4:45:00 PM 0.65 33.17 0.32 8.06 2.8 13.97
12/9/2020 5:00:00 PM 0.65 33.17 0.32 8.05 2.86 13.92
12/9/2020 5:15:00 PM 0.65 33.17 0.321 8.04 2.79 13.88
12/9/2020 5:30:00 PM 0.65 33.17 0.321 8.03 3.08 13.82
12/9/2020 5:45:00 PM 0.65 33.17 0.321 8.03 2.86 13.81
12/9/2020 6:00:00 PM 0.64 33.152 0.321 8.02 2.87 13.79
12/9/2020 6:15:00 PM 0.64 33.152 0.321 8.01 2.81 13.77
12/9/2020 6:30:00 PM 0.64 33.152 0.321 8.01 2.74 13.74
12/9/2020 6:45:00 PM 0.64 33.152 0.321 8.01 2.66 13.72
12/9/2020 7:00:00 PM 0.63 33.134 0.321 8 2.68 13.71
12/9/2020 7:15:00 PM 0.63 33.134 0.321 8 2.75 13.69
12/9/2020 7:30:00 PM 0.62 33.116 0.321 7.99 2.66 13.68
12/9/2020 7:45:00 PM 0.62 33.116 0.321 7.99 2.62 13.66
12/9/2020 8:00:00 PM 0.61 33.098 0.321 7.98 3.97 13.64
12/9/2020 8:15:00 PM 0.63 33.134 0.321 7.99 2.73 13.64
12/9/2020 8:30:00 PM 0.65 33.17 0.322 7.99 2.9 13.62
12/9/2020 8:45:00 PM 0.66 33.188 0.322 7.98 2.62 13.61
12/9/2020 9:00:00 PM 0.68 33.224 0.322 7.98 2.71 13.6
12/9/2020 9:15:00 PM 0.72 33.296 0.322 7.97 4.26 13.59
12/9/2020 9:30:00 PM 0.75 33.35 0.322 7.98 2.6 13.57
12/9/2020 9:45:00 PM 0.78 33.404 0.322 7.97 2.88 13.56
12/9/2020 10:00:00 PM 0.81 33.458 0.322 7.97 2.83 13.53
12/9/2020 10:15:00 PM 0.84 33.512 0.322 7.97 2.77 13.53
12/9/2020 10:30:00 PM 0.87 33.566 0.322 7.96 2.84 13.51
12/9/2020 10:45:00 PM 0.9 33.62 0.322 7.96 3.92 13.5
12/9/2020 11:00:00 PM 0.92 33.656 0.322 7.96 2.78 13.48
12/9/2020 11:15:00 PM 0.94 33.692 0.322 7.96 2.85 13.48
12/9/2020 11:30:00 PM 0.95 33.71 0.322 7.96 2.75 13.48
12/9/2020 11:45:00 PM 0.97 33.746 0.322 7.96 2.7 13.46
12/10/2020 12:00:00 AM 0.99 33.782 0.322 7.96 2.8 13.47
12/10/2020 12:15:00 AM 1 33.8 0.322 7.95 2.81 13.44
12/10/2020 12:30:00 AM 1.01 33.818 0.322 7.96 2.88 13.42
12/10/2020 12:45:00 AM 1.02 33.836 0.322 7.95 2.94 13.43
12/10/2020 1:00:00 AM 1.02 33.836 0.321 7.95 2.82 13.42
12/10/2020 1:15:00 AM 1.03 33.854 0.321 7.93 4.43 13.42
12/10/2020 1:30:00 AM 1.04 33.872 0.322 7.95 2.88 13.4
12/10/2020 1:45:00 AM 1.06 33.908 0.322 7.95 2.91 13.39
12/10/2020 2:00:00 AM 1.08 33.944 0.322 7.95 2.84 13.38
12/10/2020 2:15:00 AM 1.09 33.962 0.322 7.95 2.68 13.38
12/10/2020 2:30:00 AM 1.11 33.998 0.322 7.94 3.19 13.38
12/10/2020 2:45:00 AM 1.13 34.034 0.322 7.95 2.9 13.37
12/10/2020 3:00:00 AM 1.15 34.07 0.322 7.95 3.02 13.37
12/10/2020 3:15:00 AM 1.13 34.034 0.322 7.93 3.19 13.36
12/10/2020 3:30:00 AM 1.14 34.052 0.322 7.93 4.47 13.36
12/10/2020 3:45:00 AM 1.15 34.07 0.323 7.94 3.24 13.35
12/10/2020 4:00:00 AM 1.16 34.088 0.323 7.93 4.97 13.36
12/10/2020 4:15:00 AM 1.17 34.106 0.323 7.92 5.09 13.37
12/10/2020 4:30:00 AM 1.18 34.124 0.323 7.93 2.88 13.36
12/10/2020 4:45:00 AM 1.2 34.16 0.323 7.93 2.82 13.36
12/10/2020 5:00:00 AM 1.21 34.178 0.323 7.92 3.93 13.36
12/10/2020 5:15:00 AM 1.22 34.196 0.323 7.93 2.83 13.36
12/10/2020 5:30:00 AM 1.23 34.214 0.324 7.92 4.48 13.35
12/10/2020 5:45:00 AM 1.23 34.214 0.324 7.93 2.75 13.35
12/10/2020 6:00:00 AM 1.24 34.232 0.324 7.92 4.3 13.35
12/10/2020 6:15:00 AM 1.25 34.25 0.324 7.92 4.76 13.35
12/10/2020 6:30:00 AM 1.26 34.268 0.324 7.92 4.6 13.34
12/10/2020 6:45:00 AM 1.26 34.268 0.324 7.92 4.42 13.35
12/10/2020 7:00:00 AM 1.27 34.286 0.324 7.92 4.72 13.35
12/10/2020 7:15:00 AM 1.27 34.286 0.324 7.93 3.07 13.35
12/10/2020 7:30:00 AM 1.27 34.286 0.324 7.93 2.81 13.36
12/10/2020 7:45:00 AM 1.28 34.304 0.325 7.92 4.27 13.38
12/10/2020 8:00:00 AM 1.29 34.322 0.326 7.92 4.57 13.43
12/10/2020 8:15:00 AM 1.31 34.358 0.326 7.94 4.6 13.49
12/10/2020 8:30:00 AM 1.33 34.394 0.326 7.95 4.52 13.57
12/10/2020 8:45:00 AM 1.37 34.466 0.326 7.96 4.39 13.66
12/10/2020 9:00:00 AM 1.4 34.52 0.325 7.98 4.33 13.76
12/10/2020 9:15:00 AM 1.45 34.61 0.325 8.01 2.67 13.85
12/10/2020 9:30:00 AM 1.5 34.7 0.324 8.02 4.33 13.95
12/10/2020 9:45:00 AM 1.56 34.808 0.324 8.05 4.04 14.04
12/10/2020 10:00:00 AM 1.63 34.934 0.323 8.05 4.45 14.14
12/10/2020 10:15:00 AM 1.7 35.06 0.323 8.09 4.23 14.21
12/10/2020 10:30:00 AM 1.77 35.186 0.323 8.1 4.28 14.28
12/10/2020 10:45:00 AM 1.83 35.294 0.322 8.12 4.22 14.33
12/10/2020 11:00:00 AM 1.88 35.384 0.322 8.13 3.98 14.37
12/10/2020 11:15:00 AM 1.95 35.51 0.322 8.14 4.1 14.4
12/10/2020 11:30:00 AM 1.99 35.582 0.322 8.15 4.31 14.41
12/10/2020 11:45:00 AM 2.05 35.69 0.322 8.17 2.51 14.44
12/10/2020 12:00:00 PM 2.1 35.78 0.322 8.18 2.93 14.44
12/10/2020 12:15:00 PM 2.13 35.834 0.322 8.17 4.1 14.44
12/10/2020 12:30:00 PM 2.18 35.924 0.321 8.17 4.32 14.43
12/10/2020 12:45:00 PM 2.21 35.978 0.321 8.2 2.68 14.43
12/10/2020 1:00:00 PM 2.29 36.122 0.321 8.2 4.28 14.45
12/10/2020 1:15:00 PM 2.35 36.23 0.321 8.21 4.19 14.47
12/10/2020 1:30:00 PM 2.38 36.284 0.321 8.21 4.26 14.47
12/10/2020 1:45:00 PM 2.41 36.338 0.321 8.21 4.56 14.43
12/10/2020 2:00:00 PM 2.44 36.392 0.321 8.22 2.64 14.42
12/10/2020 2:15:00 PM 2.46 36.428 0.321 8.21 4.21 14.39
12/10/2020 2:30:00 PM 2.48 36.464 0.321 8.21 4.14 14.37
12/10/2020 2:45:00 PM 2.49 36.482 0.321 8.21 4.2 14.31
12/10/2020 3:00:00 PM 2.49 36.482 0.321 8.21 2.51 14.27
12/10/2020 3:15:00 PM 2.49 36.482 0.321 8.2 2.65 14.22
12/10/2020 3:30:00 PM 2.49 36.482 0.321 8.19 2.67 14.15
12/10/2020 3:45:00 PM 2.47 36.446 0.322 8.17 2.72 14.04
12/10/2020 4:00:00 PM 2.45 36.41 0.322 8.15 2.61 13.93
12/10/2020 4:15:00 PM 2.44 36.392 0.322 8.13 4.23 13.84
12/10/2020 4:30:00 PM 2.41 36.338 0.322 8.11 2.68 13.74
12/10/2020 4:45:00 PM 2.39 36.302 0.322 8.09 3.74 13.65
12/10/2020 5:00:00 PM 2.37 36.266 0.323 8.08 4.5 13.58
12/10/2020 5:15:00 PM 2.35 36.23 0.323 8.06 4.52 13.52
12/10/2020 5:30:00 PM 2.33 36.194 0.323 8.05 4.62 13.47
12/10/2020 5:45:00 PM 2.31 36.158 0.323 8.03 4.54 13.42
12/10/2020 6:00:00 PM 2.3 36.14 0.324 8.03 2.97 13.38
12/10/2020 6:15:00 PM 2.28 36.104 0.324 8.02 2.94 13.37
12/10/2020 6:30:00 PM 2.27 36.086 0.324 8.02 3.19 13.34
12/10/2020 6:45:00 PM 2.25 36.05 0.324 8.01 3.2 13.33
12/10/2020 7:00:00 PM 2.24 36.032 0.324 8 3.36 13.31
12/10/2020 7:15:00 PM 2.23 36.014 0.324 7.99 4.59 13.29
12/10/2020 7:30:00 PM 2.21 35.978 0.324 7.99 5.22 13.27
12/10/2020 7:45:00 PM 2.18 35.924 0.324 7.98 3.27 13.27
12/10/2020 8:00:00 PM 2.15 35.87 0.324 7.97 3.24 13.24
12/10/2020 8:15:00 PM 2.11 35.798 0.324 7.96 4.72 13.24
12/10/2020 8:30:00 PM 2.07 35.726 0.324 7.95 4.88 13.24
12/10/2020 8:45:00 PM 2.04 35.672 0.324 7.95 4.72 13.23
12/10/2020 9:00:00 PM 2.01 35.618 0.324 7.94 5.07 13.22
12/10/2020 9:15:00 PM 1.97 35.546 0.325 7.94 3.75 13.22
12/10/2020 9:30:00 PM 1.93 35.474 0.325 7.95 5.14 13.23
12/10/2020 9:45:00 PM 1.9 35.42 0.325 7.94 4.85 13.23
12/10/2020 10:00:00 PM 1.86 35.348 0.325 7.94 3.36 13.24
12/10/2020 10:15:00 PM 1.82 35.276 0.325 7.93 3.14 13.24
12/10/2020 10:30:00 PM 1.78 35.204 0.325 7.94 5.12 13.24
12/10/2020 10:45:00 PM 1.73 35.114 0.325 7.93 3.08 13.25
12/10/2020 11:00:00 PM 1.69 35.042 0.325 7.93 3.05 13.26
12/10/2020 11:15:00 PM 1.65 34.97 0.325 7.93 4.72 13.28
12/10/2020 11:30:00 PM 1.61 34.898 0.325 7.93 3.08 13.29
12/10/2020 11:45:00 PM 1.57 34.826 0.325 7.92 3.13 13.28
12/11/2020 12:00:00 AM 1.53 34.754 0.325 7.92 5.04 13.31
12/11/2020 12:15:00 AM 1.48 34.664 0.325 7.91 3.12 13.32
12/11/2020 12:30:00 AM 1.44 34.592 0.325 7.91 3.22 13.31
12/11/2020 12:45:00 AM 1.4 34.52 0.325 7.91 4.93 13.33
12/11/2020 1:00:00 AM 1.36 34.448 0.325 7.91 3.06 13.34
12/11/2020 1:15:00 AM 1.32 34.376 0.325 7.91 3.58 13.35
12/11/2020 1:30:00 AM 1.29 34.322 0.324 7.92 4.88 13.37
12/11/2020 1:45:00 AM 1.25 34.25 0.325 7.91 3.29 13.38
12/11/2020 2:00:00 AM 1.21 34.178 0.324 7.91 3.1 13.39
12/11/2020 2:15:00 AM 1.18 34.124 0.324 7.91 3.23 13.4
12/11/2020 2:30:00 AM 1.16 34.088 0.324 7.91 5.13 13.41
12/11/2020 2:45:00 AM 1.14 34.052 0.324 7.91 3.77 13.41
12/11/2020 3:00:00 AM 1.12 34.016 0.324 7.91 3.2 13.43
12/11/2020 3:15:00 AM 1.1 33.98 0.324 7.91 5.09 13.44
12/11/2020 3:30:00 AM 1.08 33.944 0.324 7.9 3.33 13.45
12/11/2020 3:45:00 AM 1.06 33.908 0.324 7.9 3.63 13.46
12/11/2020 4:00:00 AM 1.04 33.872 0.323 7.9 3.28 13.46
12/11/2020 4:15:00 AM 1.01 33.818 0.323 7.89 3.29 13.47
12/11/2020 4:30:00 AM 0.98 33.764 0.323 7.9 3.48 13.48
12/11/2020 4:45:00 AM 0.95 33.71 0.323 7.89 3.17 13.49
12/11/2020 5:00:00 AM 0.93 33.674 0.323 7.89 4.44 13.51
12/11/2020 5:15:00 AM 0.9 33.62 0.323 7.9 4.97 13.52
12/11/2020 5:30:00 AM 0.88 33.584 0.323 7.9 3.21 13.53
12/11/2020 5:45:00 AM 0.85 33.53 0.323 7.9 3.23 13.53
12/11/2020 6:00:00 AM 0.83 33.494 0.323 7.9 3.53 13.55
12/11/2020 6:15:00 AM 0.8 33.44 0.323 7.9 3.45 13.55
12/11/2020 6:30:00 AM 0.78 33.404 0.323 7.89 3.14 13.56
12/11/2020 6:45:00 AM 0.76 33.368 0.323 7.89 3.2 13.58
12/11/2020 7:00:00 AM 0.74 33.332 0.323 7.89 3.43 13.59
12/11/2020 7:15:00 AM 0.72 33.296 0.323 7.89 3.75 13.6
12/11/2020 7:30:00 AM 0.71 33.278 0.323 7.9 3.2 13.62
12/11/2020 7:45:00 AM 0.7 33.26 0.323 7.9 3.02 13.66
12/11/2020 8:00:00 AM 0.69 33.242 0.322 7.91 3.26 13.71
12/11/2020 8:15:00 AM 0.7 33.26 0.322 7.92 3.34 13.8
12/11/2020 8:30:00 AM 0.72 33.296 0.322 7.93 3.08 13.89
12/11/2020 8:45:00 AM 0.75 33.35 0.322 7.95 3.01 14
12/11/2020 9:00:00 AM 0.78 33.404 0.321 7.98 4.63 14.08
12/11/2020 9:15:00 AM 0.81 33.458 0.321 7.98 2.9 14.16
12/11/2020 9:30:00 AM 0.84 33.512 0.321 8.01 2.94 14.24
12/11/2020 9:45:00 AM 0.88 33.584 0.32 8.02 3.03 14.31
12/11/2020 10:00:00 AM 0.92 33.656 0.32 8.03 3.11 14.36
12/11/2020 10:15:00 AM 0.99 33.782 0.32 8.05 3.21 14.4
12/11/2020 10:30:00 AM 1.02 33.836 0.319 8.06 2.89 14.43
12/11/2020 10:45:00 AM 1.09 33.962 0.319 8.07 2.92 14.46
12/11/2020 11:00:00 AM 1.17 34.106 0.319 8.09 2.88 14.49
12/11/2020 11:15:00 AM 1.23 34.214 0.319 8.1 2.94 14.51
12/11/2020 11:30:00 AM 1.31 34.358 0.319 8.1 2.78 14.54
12/11/2020 11:45:00 AM 1.35 34.43 0.318 8.11 2.9 14.56
12/11/2020 12:00:00 PM 1.37 34.466 0.318 8.11 4.59 14.58
12/11/2020 12:15:00 PM 1.4 34.52 0.318 8.12 2.88 14.59
12/11/2020 12:30:00 PM 1.49 34.682 0.318 8.13 4.29 14.6
12/11/2020 12:45:00 PM 1.62 34.916 0.318 8.15 4.47 14.6
12/11/2020 1:00:00 PM 1.74 35.132 0.318 8.16 5.34 14.6
12/11/2020 1:15:00 PM 1.84 35.312 0.318 8.15 4.35 14.58
12/11/2020 1:30:00 PM 1.92 35.456 0.318 8.17 4.87 14.56
12/11/2020 1:45:00 PM 1.99 35.582 0.318 8.18 3.14 14.55
12/11/2020 2:00:00 PM 2.04 35.672 0.318 8.16 4.01 14.51
12/11/2020 2:15:00 PM 2.08 35.744 0.318 8.16 3.79 14.49
12/11/2020 2:30:00 PM 2.11 35.798 0.318 8.16 4.14 14.46
12/11/2020 2:45:00 PM 2.14 35.852 0.318 8.17 4.5 14.44
12/11/2020 3:00:00 PM 2.15 35.87 0.318 8.17 4.57 14.4
12/11/2020 3:15:00 PM 2.16 35.888 0.318 8.16 4.46 14.35
12/11/2020 3:30:00 PM 2.17 35.906 0.318 8.16 3 14.28
12/11/2020 3:45:00 PM 2.18 35.924 0.318 8.16 3.04 14.23
12/11/2020 4:00:00 PM 2.2 35.96 0.318 8.15 2.97 14.15
12/11/2020 4:15:00 PM 2.2 35.96 0.319 8.14 3.12 14.06
12/11/2020 4:30:00 PM 2.21 35.978 0.319 8.13 3.06 13.95
12/11/2020 4:45:00 PM 2.21 35.978 0.319 8.1 3.01 13.84
12/11/2020 5:00:00 PM 2.21 35.978 0.319 8.07 3.92 13.74
12/11/2020 5:15:00 PM 2.21 35.978 0.319 8.05 3.83 13.65
12/11/2020 5:30:00 PM 2.21 35.978 0.32 8.06 3.09 13.57
12/11/2020 5:45:00 PM 2.21 35.978 0.32 8.03 5.01 13.51
12/11/2020 6:00:00 PM 2.19 35.942 0.32 8.01 4.67 13.47
12/11/2020 6:15:00 PM 2.17 35.906 0.32 8.01 3.22 13.43
12/11/2020 6:30:00 PM 2.14 35.852 0.32 8 3.12 13.39
12/11/2020 6:45:00 PM 2.11 35.798 0.32 8 4.96 13.38
12/11/2020 7:00:00 PM 2.08 35.744 0.32 7.99 3.11 13.36
12/11/2020 7:15:00 PM 2.05 35.69 0.32 7.98 3.21 13.35
12/11/2020 7:30:00 PM 2.03 35.654 0.32 7.98 4.82 13.33
12/11/2020 7:45:00 PM 2 35.6 0.32 7.98 4.79 13.32
12/11/2020 8:00:00 PM 1.98 35.564 0.32 7.97 3.23 13.31
12/11/2020 8:15:00 PM 1.97 35.546 0.32 7.96 5.56 13.29
12/11/2020 8:30:00 PM 1.96 35.528 0.32 7.96 4.93 13.28
12/11/2020 8:45:00 PM 1.95 35.51 0.32 7.96 3.48 13.26
12/11/2020 9:00:00 PM 1.95 35.51 0.32 7.95 3.5 13.25
12/11/2020 9:15:00 PM 1.95 35.51 0.32 7.94 4.97 13.24
12/11/2020 9:30:00 PM 1.94 35.492 0.32 7.95 3.53 13.23
12/11/2020 9:45:00 PM 1.94 35.492 0.321 7.93 3.43 13.22
12/11/2020 10:00:00 PM 1.93 35.474 0.321 7.94 3.55 13.22
12/11/2020 10:15:00 PM 1.92 35.456 0.321 7.93 3.15 13.2
12/11/2020 10:30:00 PM 1.91 35.438 0.321 7.93 3.57 13.21
12/11/2020 10:45:00 PM 1.91 35.438 0.321 7.93 4.91 13.21
12/11/2020 11:00:00 PM 1.9 35.42 0.321 7.91 5.01 13.19
12/11/2020 11:15:00 PM 1.89 35.402 0.321 7.92 5.58 13.19
12/11/2020 11:30:00 PM 1.88 35.384 0.321 7.92 5.27 13.19
12/11/2020 11:45:00 PM 1.87 35.366 0.321 7.92 4.95 13.19
12/12/2020 12:00:00 AM 1.87 35.366 0.321 7.92 3.27 13.18
12/12/2020 12:15:00 AM 1.87 35.366 0.321 7.92 3.36 13.18
12/12/2020 12:30:00 AM 1.86 35.348 0.321 7.91 3.21 13.18
12/12/2020 12:45:00 AM 1.86 35.348 0.321 7.91 3.15 13.17
12/12/2020 1:00:00 AM 1.85 35.33 0.321 7.91 3.29 13.17
12/12/2020 1:15:00 AM 1.84 35.312 0.321 7.91 5.28 13.17
12/12/2020 1:30:00 AM 1.82 35.276 0.321 7.9 3.26 13.17
12/12/2020 1:45:00 AM 1.8 35.24 0.32 7.9 3.21 13.17
12/12/2020 2:00:00 AM 1.79 35.222 0.32 7.9 4.84 13.18
12/12/2020 2:15:00 AM 1.77 35.186 0.32 7.89 4.99 13.18
12/12/2020 2:30:00 AM 1.75 35.15 0.32 7.89 5.03 13.18
12/12/2020 2:45:00 AM 1.73 35.114 0.32 7.89 5.07 13.19
12/12/2020 3:00:00 AM 1.7 35.06 0.32 7.89 4.91 13.2
12/12/2020 3:15:00 AM 1.68 35.024 0.32 7.89 4.88 13.21
12/12/2020 3:30:00 AM 1.66 34.988 0.32 7.88 5.14 13.21
12/12/2020 3:45:00 AM 1.62 34.916 0.32 7.88 3.39 13.22
12/12/2020 4:00:00 AM 1.59 34.862 0.32 7.88 3.08 13.24
12/12/2020 4:15:00 AM 1.57 34.826 0.32 7.88 4.86 13.24
12/12/2020 4:30:00 AM 1.55 34.79 0.32 7.88 3.26 13.25
12/12/2020 4:45:00 AM 1.53 34.754 0.319 7.87 13.49 13.25
12/12/2020 5:00:00 AM 1.52 34.736 0.319 7.87 6.2 13.26
12/12/2020 5:15:00 AM 1.5 34.7 0.319 7.88 3.3 13.27
12/12/2020 5:30:00 AM 1.49 34.682 0.319 7.87 6.7 13.28
12/12/2020 5:45:00 AM 1.47 34.646 0.319 7.87 5.1 13.28
12/12/2020 6:00:00 AM 1.45 34.61 0.319 7.87 5.76 13.29
12/12/2020 6:15:00 AM 1.43 34.574 0.318 7.87 4.99 13.3
12/12/2020 6:30:00 AM 1.42 34.556 0.318 7.87 5.67 13.3
12/12/2020 6:45:00 AM 1.41 34.538 0.318 7.87 3.28 13.31
12/12/2020 7:00:00 AM 1.4 34.52 0.318 7.87 3.55 13.31
12/12/2020 7:15:00 AM 1.4 34.52 0.318 7.87 7.82 13.32
12/12/2020 7:30:00 AM 1.39 34.502 0.318 7.87 3.47 13.32
12/12/2020 7:45:00 AM 1.38 34.484 0.318 7.86 5.01 13.34
12/12/2020 8:00:00 AM 1.39 34.502 0.318 7.87 3.48 13.36
12/12/2020 8:15:00 AM 1.4 34.52 0.317 7.88 3.61 13.39
12/12/2020 8:30:00 AM 1.41 34.538 0.317 7.89 6.16 13.42
12/12/2020 8:45:00 AM 1.43 34.574 0.317 7.9 3.32 13.47
12/12/2020 9:00:00 AM 1.45 34.61 0.317 7.9 5.12 13.53
12/12/2020 9:15:00 AM 1.48 34.664 0.317 7.91 5.59 13.62
12/12/2020 9:30:00 AM 1.51 34.718 0.316 7.93 4.05 13.68
12/12/2020 9:45:00 AM 1.54 34.772 0.316 7.95 2.99 13.75
12/12/2020 10:00:00 AM 1.57 34.826 0.316 7.96 2.84 13.8
12/12/2020 10:15:00 AM 1.62 34.916 0.316 7.98 4.34 13.87
12/12/2020 10:30:00 AM 1.67 35.006 0.316 8 3.01 13.95
12/12/2020 10:45:00 AM 1.71 35.078 0.315 8 3.6 14
12/12/2020 11:00:00 AM 1.76 35.168 0.315 8.03 3.39 14.04
12/12/2020 11:15:00 AM 1.8 35.24 0.315 8.03 3.13 14.04
12/12/2020 11:30:00 AM 1.84 35.312 0.315 8.04 6.46 14.06
12/12/2020 11:45:00 AM 1.9 35.42 0.315 8.05 4.19 14.09
12/12/2020 12:00:00 PM 1.96 35.528 0.315 8.06 4.57 14.13
12/12/2020 12:15:00 PM 2.03 35.654 0.315 8.08 3.19 14.16
12/12/2020 12:30:00 PM 2.12 35.816 0.315 8.1 3.39 14.21
12/12/2020 12:45:00 PM 2.18 35.924 0.314 8.1 5.12 14.23
12/12/2020 1:00:00 PM 2.24 36.032 0.314 8.1 5.42 14.23
12/12/2020 1:15:00 PM 2.3 36.14 0.314 8.12 2.74 14.24
12/12/2020 1:30:00 PM 2.37 36.266 0.314 8.14 2.8 14.24
12/12/2020 1:45:00 PM 2.44 36.392 0.314 8.15 2.72 14.22
12/12/2020 2:00:00 PM 2.51 36.518 0.314 8.15 2.68 14.19
12/12/2020 2:15:00 PM 2.58 36.644 0.314 8.16 2.75 14.17
12/12/2020 2:30:00 PM 2.65 36.77 0.314 8.15 3.6 14.16
12/12/2020 2:45:00 PM 2.68 36.824 0.314 8.16 2.7 14.1
12/12/2020 3:00:00 PM 2.72 36.896 0.314 8.15 2.78 14.01
12/12/2020 3:15:00 PM 2.77 36.986 0.314 8.15 2.68 13.94
12/12/2020 3:30:00 PM 2.82 37.076 0.314 8.14 2.69 13.84
12/12/2020 3:45:00 PM 2.86 37.148 0.314 8.11 4.7 13.74
12/12/2020 4:00:00 PM 2.9 37.22 0.315 8.11 2.7 13.63
12/12/2020 4:15:00 PM 2.93 37.274 0.315 8.09 2.76 13.52
12/12/2020 4:30:00 PM 2.96 37.328 0.315 8.08 3.02 13.44
12/12/2020 4:45:00 PM 2.98 37.364 0.315 8.06 3.78 13.34
12/12/2020 5:00:00 PM 3.01 37.418 0.315 8.06 2.98 13.25
12/12/2020 5:15:00 PM 3.04 37.472 0.316 8.04 4.9 13.17
12/12/2020 5:30:00 PM 3.07 37.526 0.316 8.04 3.25 13.12
12/12/2020 5:45:00 PM 3.1 37.58 0.316 8.01 6.5 13.07
12/12/2020 6:00:00 PM 3.13 37.634 0.316 8.02 2.94 13.01
12/12/2020 6:15:00 PM 3.16 37.688 0.316 8.01 5.42 12.97
12/12/2020 6:30:00 PM 3.18 37.724 0.316 8.01 3.24 12.93
12/12/2020 6:45:00 PM 3.2 37.76 0.316 7.98 4.71 12.9
12/12/2020 7:00:00 PM 3.22 37.796 0.316 7.99 3.02 12.87
12/12/2020 7:15:00 PM 3.24 37.832 0.317 7.98 2.96 12.84
12/12/2020 7:30:00 PM 3.27 37.886 0.317 7.97 4.7 12.8
12/12/2020 7:45:00 PM 3.31 37.958 0.316 7.98 3.64 12.75
12/12/2020 8:00:00 PM 3.33 37.994 0.316 7.96 4.79 12.74
12/12/2020 8:15:00 PM 3.36 38.048 0.316 7.96 4.63 12.71
12/12/2020 8:30:00 PM 3.37 38.066 0.316 7.95 5.72 12.68
12/12/2020 8:45:00 PM 3.38 38.084 0.316 7.95 4.94 12.67
12/12/2020 9:00:00 PM 3.4 38.12 0.316 7.95 3.17 12.64
12/12/2020 9:15:00 PM 3.41 38.138 0.316 7.95 3.68 12.61
12/12/2020 9:30:00 PM 3.43 38.174 0.316 7.94 5.07 12.6
12/12/2020 9:45:00 PM 3.46 38.228 0.316 7.93 14.54 12.58
12/12/2020 10:00:00 PM 3.48 38.264 0.316 7.93 9.58 12.56
12/12/2020 10:15:00 PM 3.49 38.282 0.316 7.92 5.67 12.55
12/12/2020 10:30:00 PM 3.5 38.3 0.316 7.92 3.19 12.55
12/12/2020 10:45:00 PM 3.51 38.318 0.316 7.9 6.58 12.53
12/12/2020 11:00:00 PM 3.51 38.318 0.316 7.92 4.68 12.51
12/12/2020 11:15:00 PM 3.5 38.3 0.316 7.92 3.88 12.49
12/12/2020 11:30:00 PM 3.49 38.282 0.316 7.91 12.31 12.49
12/12/2020 11:45:00 PM 3.48 38.264 0.316 7.91 7.02 12.48
12/13/2020 12:00:00 AM 3.47 38.246 0.316 7.92 3.17 12.46
12/13/2020 12:15:00 AM 3.46 38.228 0.316 7.91 3.81 12.46
12/13/2020 12:30:00 AM 3.45 38.21 0.316 7.9 5.66 12.46
12/13/2020 12:45:00 AM 3.45 38.21 0.316 7.91 3.36 12.45
12/13/2020 1:00:00 AM 3.44 38.192 0.316 7.89 6.9 12.46
12/13/2020 1:15:00 AM 3.43 38.174 0.316 7.9 3.23 12.44
12/13/2020 1:30:00 AM 3.43 38.174 0.316 7.89 6.02 12.45
12/13/2020 1:45:00 AM 3.43 38.174 0.316 7.89 4.94 12.44
12/13/2020 2:00:00 AM 3.43 38.174 0.316 7.9 3.36 12.43
12/13/2020 2:15:00 AM 3.41 38.138 0.316 7.89 3.3 12.44
12/13/2020 2:30:00 AM 3.4 38.12 0.316 7.88 5.49 12.44
12/13/2020 2:45:00 AM 3.42 38.156 0.316 7.9 3.14 12.43
12/13/2020 3:00:00 AM 3.43 38.174 0.316 7.89 5.18 12.42
12/13/2020 3:15:00 AM 3.45 38.21 0.315 7.88 5.01 12.42
12/13/2020 3:30:00 AM 3.47 38.246 0.316 7.89 3.1 12.4
12/13/2020 3:45:00 AM 3.49 38.282 0.315 7.89 4.11 12.4
12/13/2020 4:00:00 AM 3.49 38.282 0.315 7.89 4.08 12.4
12/13/2020 4:15:00 AM 3.48 38.264 0.315 7.88 3.62 12.39
12/13/2020 4:30:00 AM 3.48 38.264 0.315 7.88 6.55 12.39
12/13/2020 4:45:00 AM 3.49 38.282 0.315 7.87 6.11 12.4
12/13/2020 5:00:00 AM 3.48 38.264 0.315 7.87 5.51 12.39
12/13/2020 5:15:00 AM 3.47 38.246 0.315 7.88 4.34 12.38
12/13/2020 5:30:00 AM 3.46 38.228 0.315 7.87 3.74 12.4
12/13/2020 5:45:00 AM 3.45 38.21 0.315 7.86 7.21 12.4
12/13/2020 6:00:00 AM 3.44 38.192 0.315 7.87 3.34 12.4
12/13/2020 6:15:00 AM 3.44 38.192 0.315 7.86 3.33 12.4
12/13/2020 6:30:00 AM 3.44 38.192 0.315 7.87 3.23 12.41
12/13/2020 6:45:00 AM 3.44 38.192 0.314 7.86 6.65 12.41
12/13/2020 7:00:00 AM 3.45 38.21 0.314 7.86 5.07 12.42
12/13/2020 7:15:00 AM 3.46 38.228 0.314 7.87 3.11 12.42
12/13/2020 7:30:00 AM 3.48 38.264 0.314 7.88 3.19 12.42
12/13/2020 7:45:00 AM 3.49 38.282 0.314 7.87 3.56 12.42
12/13/2020 8:00:00 AM 3.49 38.282 0.314 7.87 5.34 12.43
12/13/2020 8:15:00 AM 3.5 38.3 0.314 7.88 2.92 12.44
12/13/2020 8:30:00 AM 3.5 38.3 0.314 7.88 3.65 12.48
12/13/2020 8:45:00 AM 3.52 38.336 0.314 7.89 3.08 12.55
12/13/2020 9:00:00 AM 3.53 38.354 0.314 7.9 4.72 12.62
12/13/2020 9:15:00 AM 3.54 38.372 0.314 7.91 2.81 12.67
12/13/2020 9:30:00 AM 3.54 38.372 0.314 7.92 2.88 12.68
12/13/2020 9:45:00 AM 3.55 38.39 0.314 7.92 2.83 12.71
12/13/2020 10:00:00 AM 3.56 38.408 0.314 7.93 3.19 12.73
12/13/2020 10:15:00 AM 3.59 38.462 0.314 7.95 2.73 12.83
12/13/2020 10:30:00 AM 3.62 38.516 0.314 7.97 2.73 12.92
12/13/2020 10:45:00 AM 3.63 38.534 0.314 7.97 2.81 12.94
12/13/2020 11:00:00 AM 3.65 38.57 0.314 7.98 2.77 13
12/13/2020 11:15:00 AM 3.67 38.606 0.314 7.99 5.5 13.08
12/13/2020 11:30:00 AM 3.69 38.642 0.314 8.01 5.31 13.14
12/13/2020 11:45:00 AM 3.71 38.678 0.314 8.01 5.89 13.19
12/13/2020 12:00:00 PM 3.73 38.714 0.315 8.05 2.94 13.24
12/13/2020 12:15:00 PM 3.73 38.714 0.315 8.05 5.24 13.26
12/13/2020 12:30:00 PM 3.74 38.732 0.315 8.05 6.23 13.28
12/13/2020 12:45:00 PM 3.77 38.786 0.315 8.08 5.51 13.36
12/13/2020 1:00:00 PM 3.79 38.822 0.315 8.09 2.72 13.4
12/13/2020 1:15:00 PM 3.84 38.912 0.315 8.11 3.04 13.45
12/13/2020 1:30:00 PM 3.9 39.02 0.315 8.14 2.99 13.54
12/13/2020 1:45:00 PM 3.94 39.092 0.315 8.16 2.82 13.61
12/13/2020 2:00:00 PM 3.96 39.128 0.315 8.16 2.77 13.65
12/13/2020 2:15:00 PM 3.96 39.128 0.315 8.17 2.75 13.61
12/13/2020 2:30:00 PM 3.95 39.11 0.315 8.16 2.81 13.58
12/13/2020 2:45:00 PM 3.95 39.11 0.315 8.16 2.65 13.55
12/13/2020 3:00:00 PM 3.93 39.074 0.315 8.14 5.39 13.5
12/13/2020 3:15:00 PM 3.9 39.02 0.316 8.14 2.64 13.42
12/13/2020 3:30:00 PM 3.88 38.984 0.316 8.12 4.57 13.34
12/13/2020 3:45:00 PM 3.85 38.93 0.316 8.11 3.07 13.26
12/13/2020 4:00:00 PM 3.82 38.876 0.317 8.1 2.63 13.18
12/13/2020 4:15:00 PM 3.79 38.822 0.317 8.08 3.75 13.1
12/13/2020 4:30:00 PM 3.77 38.786 0.317 8.06 9.28 13.01
12/13/2020 4:45:00 PM 3.75 38.75 0.317 8.04 26.28 12.95
12/13/2020 5:00:00 PM 3.72 38.696 0.317 8.03 10.94 12.89
12/13/2020 5:15:00 PM 3.7 38.66 0.317 8.02 3.34 12.85
12/13/2020 5:30:00 PM 3.68 38.624 0.317 8.01 3.07 12.81
12/13/2020 5:45:00 PM 3.66 38.588 0.317 8 4.15 12.76
12/13/2020 6:00:00 PM 3.64 38.552 0.317 8 3.12 12.73
12/13/2020 6:15:00 PM 3.62 38.516 0.317 7.98 11.25 12.72
12/13/2020 6:30:00 PM 3.6 38.48 0.317 7.98 6.06 12.71
12/13/2020 6:45:00 PM 3.58 38.444 0.317 7.98 3.21 12.69
12/13/2020 7:00:00 PM 3.56 38.408 0.317 7.97 3.1 12.67
12/13/2020 7:15:00 PM 3.55 38.39 0.317 7.96 5.43 12.65
12/13/2020 7:30:00 PM 3.53 38.354 0.317 7.96 5.21 12.65
12/13/2020 7:45:00 PM 3.51 38.318 0.317 7.96 3.06 12.63
12/13/2020 8:00:00 PM 3.49 38.282 0.317 7.95 5.29 12.62
12/13/2020 8:15:00 PM 3.48 38.264 0.317 7.95 2.95 12.62
12/13/2020 8:30:00 PM 3.46 38.228 0.316 7.94 5.48 12.61
12/13/2020 8:45:00 PM 3.44 38.192 0.316 7.94 5.81 12.61
12/13/2020 9:00:00 PM 3.43 38.174 0.316 7.94 4.64 12.59
12/13/2020 9:15:00 PM 3.41 38.138 0.316 7.94 5.63 12.6
12/13/2020 9:30:00 PM 3.4 38.12 0.316 7.94 3.2 12.6
12/13/2020 9:45:00 PM 3.38 38.084 0.316 7.94 5.09 12.59
12/13/2020 10:00:00 PM 3.36 38.048 0.316 7.94 4.97 12.59
12/13/2020 10:15:00 PM 3.34 38.012 0.316 7.93 3.16 12.59
12/13/2020 10:30:00 PM 3.32 37.976 0.316 7.93 5.74 12.59
12/13/2020 10:45:00 PM 3.31 37.958 0.316 7.92 5.01 12.59
12/13/2020 11:00:00 PM 3.29 37.922 0.316 7.93 2.81 12.59
12/13/2020 11:15:00 PM 3.28 37.904 0.315 7.92 4.69 12.6
12/13/2020 11:30:00 PM 3.26 37.868 0.315 7.93 2.96 12.6
12/13/2020 11:45:00 PM 3.24 37.832 0.315 7.93 3.09 12.6
12/14/2020 12:00:00 AM 3.23 37.814 0.315 7.93 4.93 12.6
12/14/2020 12:15:00 AM 3.21 37.778 0.315 7.92 3.1 12.6
12/14/2020 12:30:00 AM 3.19 37.742 0.315 7.91 5.16 12.6
12/14/2020 12:45:00 AM 3.17 37.706 0.315 7.91 3.21 12.6
12/14/2020 1:00:00 AM 3.14 37.652 0.315 7.91 5.09 12.6
12/14/2020 1:15:00 AM 3.12 37.616 0.315 7.91 2.95 12.61
12/14/2020 1:30:00 AM 3.1 37.58 0.315 7.91 5.61 12.6
12/14/2020 1:45:00 AM 3.07 37.526 0.315 7.91 5.54 12.6
12/14/2020 2:00:00 AM 3.05 37.49 0.315 7.91 7.4 12.61
12/14/2020 2:15:00 AM 3.04 37.472 0.315 7.91 5.1 12.62
12/14/2020 2:30:00 AM 3.02 37.436 0.315 7.91 3.78 12.62
12/14/2020 2:45:00 AM 3 37.4 0.315 7.9 4.51 12.63
12/14/2020 3:00:00 AM 2.99 37.382 0.315 7.91 4.47 12.62
12/14/2020 3:15:00 AM 2.97 37.346 0.314 7.9 7.45 12.63
12/14/2020 3:30:00 AM 2.96 37.328 0.314 7.9 4.44 12.63
12/14/2020 3:45:00 AM 2.94 37.292 0.314 7.9 3.56 12.64
12/14/2020 4:00:00 AM 2.93 37.274 0.314 7.9 3.29 12.63
12/14/2020 4:15:00 AM 2.91 37.238 0.314 7.9 3.02 12.65
12/14/2020 4:30:00 AM 2.9 37.22 0.314 7.89 3.07 12.65
12/14/2020 4:45:00 AM 2.88 37.184 0.314 7.9 3.15 12.66
12/14/2020 5:00:00 AM 2.87 37.166 0.314 7.89 2.89 12.66
12/14/2020 5:15:00 AM 2.86 37.148 0.314 7.89 5.77 12.66
12/14/2020 5:30:00 AM 2.84 37.112 0.314 7.89 3 12.67
12/14/2020 5:45:00 AM 2.83 37.094 0.314 7.89 3.3 12.67
12/14/2020 6:00:00 AM 2.81 37.058 0.314 7.89 3.2 12.67
12/14/2020 6:15:00 AM 2.8 37.04 0.314 7.89 4.78 12.67
12/14/2020 6:30:00 AM 2.79 37.022 0.313 7.89 2.97 12.69
12/14/2020 6:45:00 AM 2.78 37.004 0.313 7.89 2.94 12.69
12/14/2020 7:00:00 AM 2.77 36.986 0.313 7.89 5.18 12.69
12/14/2020 7:15:00 AM 2.75 36.95 0.313 7.89 3.33 12.7
12/14/2020 7:30:00 AM 2.75 36.95 0.313 7.89 6.28 12.69
12/14/2020 7:45:00 AM 2.74 36.932 0.313 7.89 4.7 12.7
12/14/2020 8:00:00 AM 2.73 36.914 0.313 7.9 3.08 12.72
12/14/2020 8:15:00 AM 2.72 36.896 0.313 7.9 2.89 12.76
12/14/2020 8:30:00 AM 2.71 36.878 0.313 7.9 5.14 12.78
12/14/2020 8:45:00 AM 2.69 36.842 0.312 7.91 10.84 12.82
12/14/2020 9:00:00 AM 2.68 36.824 0.312 7.92 6.39 12.89
12/14/2020 9:15:00 AM 2.69 36.842 0.312 7.94 3.16 12.97
12/14/2020 9:30:00 AM 2.69 36.842 0.312 7.95 2.82 13.06
12/14/2020 9:45:00 AM 2.69 36.842 0.312 7.97 2.76 13.13
12/14/2020 10:00:00 AM 2.7 36.86 0.312 7.98 2.73 13.21
12/14/2020 10:15:00 AM 2.73 36.914 0.311 8.01 2.77 13.3
12/14/2020 10:30:00 AM 2.75 36.95 0.311 8.03 7.1 13.4
12/14/2020 10:45:00 AM 2.78 37.004 0.311 8.05 2.46 13.49
12/14/2020 11:00:00 AM 2.83 37.094 0.311 8.07 2.38 13.58
12/14/2020 11:15:00 AM 2.87 37.166 0.31 8.1 2.42 13.66
12/14/2020 11:30:00 AM 2.92 37.256 0.31 8.12 2.4 13.73
12/14/2020 11:45:00 AM 2.95 37.31 0.31 8.13 2.43 13.77
12/14/2020 12:00:00 PM 2.96 37.328 0.31 8.12 2.51 13.78
12/14/2020 12:15:00 PM 2.97 37.346 0.31 8.13 2.6 13.75
12/14/2020 12:30:00 PM 2.97 37.346 0.31 8.12 4.1 13.69
12/14/2020 12:45:00 PM 2.97 37.346 0.31 8.12 4.15 13.65
12/14/2020 1:00:00 PM 2.98 37.364 0.31 8.11 3.86 13.63
12/14/2020 1:15:00 PM 2.98 37.364 0.31 8.12 2.55 13.61
12/14/2020 1:30:00 PM 2.99 37.382 0.31 8.11 4.2 13.59
12/14/2020 1:45:00 PM 3 37.4 0.31 8.12 4.18 13.61
12/14/2020 2:00:00 PM 3.01 37.418 0.31 8.12 4.53 13.61
12/14/2020 2:15:00 PM 3.04 37.472 0.31 8.13 3.85 13.65
12/14/2020 2:30:00 PM 3.05 37.49 0.31 8.15 2.46 13.67
12/14/2020 2:45:00 PM 3.08 37.544 0.306 8.15 3.56 13.7
12/14/2020 3:00:00 PM 3.11 37.598 0.31 8.17 2.72 13.71
12/14/2020 3:15:00 PM 3.12 37.616 0.31 8.17 5.47 13.73
12/14/2020 3:30:00 PM 3.12 37.616 0.31 8.16 4.4 13.68
12/14/2020 3:45:00 PM 3.12 37.616 0.31 8.15 4.23 13.59
12/14/2020 4:00:00 PM 3.09 37.562 0.31 8.12 4.17 13.47
12/14/2020 4:15:00 PM 3.04 37.472 0.31 8.11 2.62 13.37
12/14/2020 4:30:00 PM 3.02 37.436 0.311 8.09 4.18 13.27
12/14/2020 4:45:00 PM 2.99 37.382 0.311 8.07 4.3 13.17
12/14/2020 5:00:00 PM 2.93 37.274 0.311 8.05 4.22 13.1
12/14/2020 5:15:00 PM 2.86 37.148 0.311 8.03 2.51 13.04
12/14/2020 5:30:00 PM 2.83 37.094 0.311 8.02 2.66 13.02
12/14/2020 5:45:00 PM 2.8 37.04 0.311 8.01 2.84 12.98
12/14/2020 6:00:00 PM 2.79 37.022 0.311 8.01 2.59 12.96
12/14/2020 6:15:00 PM 2.78 37.004 0.311 8 2.94 12.94
12/14/2020 6:30:00 PM 2.74 36.932 0.312 7.99 2.77 12.94
12/14/2020 6:45:00 PM 2.72 36.896 0.312 7.99 4.51 12.92
12/14/2020 7:00:00 PM 2.71 36.878 0.312 7.99 3.38 12.91
12/14/2020 7:15:00 PM 2.68 36.824 0.312 7.98 2.69 12.9
12/14/2020 7:30:00 PM 2.64 36.752 0.312 7.98 4.75 12.9
12/14/2020 7:45:00 PM 2.6 36.68 0.312 7.97 2.78 12.89
12/14/2020 8:00:00 PM 2.57 36.626 0.312 7.97 2.7 12.89
12/14/2020 8:15:00 PM 2.54 36.572 0.312 7.96 4.15 12.88
12/14/2020 8:30:00 PM 2.51 36.518 0.312 7.96 4.88 12.88
12/14/2020 8:45:00 PM 2.47 36.446 0.312 7.96 2.93 12.88
12/14/2020 9:00:00 PM 2.45 36.41 0.312 7.95 2.96 12.87
12/14/2020 9:15:00 PM 2.41 36.338 0.312 7.95 3.06 12.88
12/14/2020 9:30:00 PM 2.38 36.284 0.312 7.95 2.68 12.87
12/14/2020 9:45:00 PM 2.37 36.266 0.312 7.95 4.27 12.88
12/14/2020 10:00:00 PM 2.35 36.23 0.312 7.94 4.57 12.88
12/14/2020 10:15:00 PM 2.3 36.14 0.312 7.95 4.26 12.89
12/14/2020 10:30:00 PM 2.26 36.068 0.312 7.94 2.78 12.91
12/14/2020 10:45:00 PM 2.24 36.032 0.312 7.94 3.19 12.91
12/14/2020 11:00:00 PM 2.22 35.996 0.312 7.93 2.78 12.92
12/14/2020 11:15:00 PM 2.19 35.942 0.312 7.94 4.5 12.92
12/14/2020 11:30:00 PM 2.16 35.888 0.312 7.93 2.9 12.93
12/14/2020 11:45:00 PM 2.05 35.69 0.312 7.92 4.47 12.93
12/15/2020 12:00:00 AM 1.94 35.492 0.311 7.92 4.64 12.94
12/15/2020 12:15:00 AM 1.89 35.402 0.311 7.92 4.48 12.96
12/15/2020 12:30:00 AM 1.86 35.348 0.311 7.92 4.52 12.98
12/15/2020 12:45:00 AM 1.84 35.312 0.311 7.92 4.55 13
12/15/2020 1:00:00 AM 1.8 35.24 0.311 7.92 2.81 13.01
12/15/2020 1:15:00 AM 1.79 35.222 0.311 7.92 4.61 13.02
12/15/2020 1:30:00 AM 1.8 35.24 0.311 7.93 4.33 13.03
12/15/2020 1:45:00 AM 1.8 35.24 0.311 7.92 2.89 13.03
12/15/2020 2:00:00 AM 1.81 35.258 0.311 7.92 4.48 13.03
12/15/2020 2:15:00 AM 1.81 35.258 0.312 7.92 3.04 13.04
12/15/2020 2:30:00 AM 1.81 35.258 0.312 7.92 4.98 13.05
12/15/2020 2:45:00 AM 1.8 35.24 0.312 7.92 2.9 13.04
12/15/2020 3:00:00 AM 1.77 35.186 0.312 7.92 2.94 13.07
12/15/2020 3:15:00 AM 1.75 35.15 0.312 7.91 2.86 13.07
12/15/2020 3:30:00 AM 1.73 35.114 0.312 7.92 4.45 13.09
12/15/2020 3:45:00 AM 1.71 35.078 0.312 7.92 4.62 13.09
12/15/2020 4:00:00 AM 1.69 35.042 0.312 7.92 2.72 13.11
12/15/2020 4:15:00 AM 1.67 35.006 0.312 7.92 2.72 13.11
12/15/2020 4:30:00 AM 1.65 34.97 0.312 7.91 4.28 13.13
12/15/2020 4:45:00 AM 1.62 34.916 0.312 7.91 4.32 13.15
12/15/2020 5:00:00 AM 1.6 34.88 0.312 7.91 4.11 13.15
12/15/2020 5:15:00 AM 1.59 34.862 0.312 7.91 4.38 13.17
12/15/2020 5:30:00 AM 1.55 34.79 0.312 7.91 2.81 13.18
12/15/2020 5:45:00 AM 1.52 34.736 0.312 7.91 4.97 13.19
12/15/2020 6:00:00 AM 1.49 34.682 0.312 7.91 5.27 13.2
12/15/2020 6:15:00 AM 1.47 34.646 0.312 7.91 4.94 13.22
12/15/2020 6:30:00 AM 1.43 34.574 0.312 7.9 2.92 13.23
12/15/2020 6:45:00 AM 1.4 34.52 0.312 7.91 4.53 13.25
12/15/2020 7:00:00 AM 1.37 34.466 0.312 7.9 2.86 13.27
12/15/2020 7:15:00 AM 1.34 34.412 0.311 7.9 4.91 13.28
12/15/2020 7:30:00 AM 1.31 34.358 0.311 7.9 4.28 13.31
12/15/2020 7:45:00 AM 1.27 34.286 0.312 7.9 3.98 13.34
12/15/2020 8:00:00 AM 1.23 34.214 0.311 7.91 4.91 13.39
12/15/2020 8:15:00 AM 1.2 34.16 0.312 7.92 4.38 13.47
12/15/2020 8:30:00 AM 1.2 34.16 0.311 7.93 5.87 13.57
12/15/2020 8:45:00 AM 1.18 34.124 0.311 7.96 4.95 13.69
12/15/2020 9:00:00 AM 1.17 34.106 0.311 7.97 4.46 13.8
12/15/2020 9:15:00 AM 1.16 34.088 0.311 7.99 2.87 13.89
12/15/2020 9:30:00 AM 1.16 34.088 0.311 8.01 4.4 14.02
12/15/2020 9:45:00 AM 1.16 34.088 0.311 8.03 4.5 14.15
12/15/2020 10:00:00 AM 1.19 34.142 0.31 8.05 4.46 14.24
12/15/2020 10:15:00 AM 1.24 34.232 0.31 8.08 2.9 14.33
12/15/2020 10:30:00 AM 1.27 34.286 0.31 8.09 4.23 14.4
12/15/2020 10:45:00 AM 1.28 34.304 0.31 8.1 10.17 14.47
12/15/2020 11:00:00 AM 1.3 34.34 0.31 8.12 4.31 14.53
12/15/2020 11:15:00 AM 1.38 34.484 0.31 8.14 4.23 14.57
12/15/2020 11:30:00 AM 1.42 34.556 0.31 8.15 2.66 14.62
12/15/2020 11:45:00 AM 1.42 34.556 0.31 8.15 2.66 14.62
12/15/2020 12:00:00 PM 1.52 34.736 0.305 8.41 8.04 14.56
12/15/2020 12:15:00 PM 1.61 34.898 0.306 8.41 4.77 14.62
12/15/2020 12:30:00 PM 1.66 34.988 0.306 8.43 4.42 14.67
12/15/2020 12:45:00 PM 1.68 35.024 0.305 8.45 4.39 14.69
12/15/2020 1:00:00 PM 1.68 35.024 0.305 8.47 4.8 14.7
12/15/2020 1:15:00 PM 1.7 35.06 0.305 8.48 4.74 14.72
12/15/2020 1:30:00 PM 1.71 35.078 0.305 8.5 5.01 14.74
12/15/2020 1:45:00 PM 1.7 35.06 0.304 8.51 4.29 14.75
12/15/2020 2:00:00 PM 1.68 35.024 0.304 8.52 4.58 14.74
12/15/2020 2:15:00 PM 1.64 34.952 0.304 8.52 4.35 14.73
12/15/2020 2:30:00 PM 1.6 34.88 0.303 8.53 4.67 14.71
12/15/2020 2:45:00 PM 1.56 34.808 0.303 8.53 4.22 14.68
12/15/2020 3:00:00 PM 1.53 34.754 0.303 8.53 4.31 14.67
12/15/2020 3:15:00 PM 1.49 34.682 0.303 8.53 4.45 14.64
12/15/2020 3:30:00 PM 1.45 34.61 0.303 8.53 4.38 14.62
12/15/2020 3:45:00 PM 1.41 34.538 0.304 8.52 4.32 14.58
12/15/2020 4:00:00 PM 1.36 34.448 0.303 8.52 4.64 14.52
12/15/2020 4:15:00 PM 1.31 34.358 0.304 8.51 4.38 14.46
12/15/2020 4:30:00 PM 1.27 34.286 0.304 8.49 4.45 14.36
12/15/2020 4:45:00 PM 1.22 34.196 0.304 8.47 4.36 14.26
12/15/2020 5:00:00 PM 1.18 34.124 0.305 8.45 4.32 14.17
12/15/2020 5:15:00 PM 1.13 34.034 0.305 8.44 4.3 14.09
12/15/2020 5:30:00 PM 1.08 33.944 0.305 8.42 4.48 14.03
12/15/2020 5:45:00 PM 1.03 33.854 0.305 8.41 4.44 13.97
12/15/2020 6:00:00 PM 0.99 33.782 0.305 8.4 5.12 13.92
12/15/2020 6:15:00 PM 0.94 33.692 0.306 8.39 4.78 13.9
12/15/2020 6:30:00 PM 0.9 33.62 0.306 8.38 6.3 13.87
12/15/2020 6:45:00 PM 0.84 33.512 0.306 8.37 4.57 13.87
12/15/2020 7:00:00 PM 0.79 33.422 0.306 8.37 4.59 13.86
12/15/2020 7:15:00 PM 0.73 33.314 0.306 8.36 4.61 13.86
12/15/2020 7:30:00 PM 0.69 33.242 0.306 8.36 4.43 13.86
12/15/2020 7:45:00 PM 0.65 33.17 0.307 8.35 4.31 13.85
12/15/2020 8:00:00 PM 0.6 33.08 0.307 8.35 7.74 13.84
12/15/2020 8:15:00 PM 0.56 33.008 0.307 8.34 4.95 13.85
12/15/2020 8:30:00 PM 0.51 32.918 0.307 8.34 5.36 13.85
12/15/2020 8:45:00 PM 0.46 32.828 0.307 8.33 7.91 13.84
12/15/2020 9:00:00 PM 0.42 32.756 0.307 8.33 4.99 13.84
12/15/2020 9:15:00 PM 0.38 32.684 0.307 8.32 4.47 13.85
12/15/2020 9:30:00 PM 0.34 32.612 0.308 8.32 4.89 13.84
12/15/2020 9:45:00 PM 0.3 32.54 0.308 8.32 5 13.86
12/15/2020 10:00:00 PM 0.26 32.468 0.308 8.31 4.97 13.85
12/15/2020 10:15:00 PM 0.23 32.414 0.308 8.31 4.57 13.87
12/15/2020 10:30:00 PM 0.19 32.342 0.308 8.31 4.41 13.88
12/15/2020 10:45:00 PM 0.15 32.27 0.308 8.31 4.67 13.88
12/15/2020 11:00:00 PM 0.12 32.216 0.308 8.3 4.63 13.88
12/15/2020 11:15:00 PM 0.08 32.144 0.308 8.3 6.43 13.91
12/15/2020 11:30:00 PM 0.04 32.072 0.308 8.3 4.69 13.91
12/15/2020 11:45:00 PM 0 32 0.309 8.3 4.45 13.92
12/16/2020 12:00:00 AM -0.04 31.928 0.309 8.3 4.41 13.94
12/16/2020 12:15:00 AM -0.07 31.874 0.309 8.3 4.69 13.94
12/16/2020 12:30:00 AM -0.09 31.838 0.309 8.3 4.52 13.96
12/16/2020 12:45:00 AM -0.11 31.802 0.31 8.29 4.36 13.97
12/16/2020 1:00:00 AM -0.09 31.838 0.31 8.29 4.61 13.99
12/16/2020 1:15:00 AM -0.07 31.874 0.31 8.29 4.66 13.99
12/16/2020 1:30:00 AM -0.07 31.874 0.31 8.29 4.54 14.01
12/16/2020 1:45:00 AM -0.07 31.874 0.311 8.29 4.66 14
12/16/2020 2:00:00 AM -0.06 31.892 0.311 8.29 4.47 14.01
12/16/2020 2:15:00 AM -0.06 31.892 0.311 8.29 4.31 14.02
12/16/2020 2:30:00 AM -0.06 31.892 0.312 8.29 4.35 14.03
12/16/2020 2:45:00 AM -0.06 31.892 0.312 8.29 4.32 14.02
12/16/2020 3:00:00 AM -0.05 31.91 0.313 8.29 4.39 14.02
12/16/2020 3:15:00 AM -0.04 31.928 0.313 8.28 5.6 14.01
12/16/2020 3:30:00 AM -0.04 31.928 0.313 8.28 4.27 14.02
12/16/2020 3:45:00 AM -0.05 31.91 0.313 8.28 4.29 14.05
12/16/2020 4:00:00 AM -0.04 31.928 0.314 8.28 4.16 14.04
12/16/2020 4:15:00 AM -0.04 31.928 0.314 8.28 4.3 14.06
12/16/2020 4:30:00 AM -0.04 31.928 0.314 8.28 4.24 14.07
12/16/2020 4:45:00 AM -0.03 31.946 0.315 8.28 4.06 14.07
12/16/2020 5:00:00 AM -0.04 31.928 0.315 8.29 4.18 14.09
12/16/2020 5:15:00 AM -0.04 31.928 0.316 8.29 4.22 14.1
12/16/2020 5:30:00 AM -0.04 31.928 0.316 8.29 4.37 14.1
12/16/2020 5:45:00 AM -0.05 31.91 0.317 8.29 4.27 14.1
12/16/2020 6:00:00 AM -0.05 31.91 0.318 8.29 4.13 14.12
12/16/2020 6:15:00 AM -0.05 31.91 0.318 8.3 4.14 14.12
12/16/2020 6:30:00 AM -0.05 31.91 0.319 8.3 4.26 14.12
12/16/2020 6:45:00 AM -0.05 31.91 0.32 8.29 4.21 14.13
12/16/2020 7:00:00 AM -0.05 31.91 0.321 8.29 4.24 14.14
12/16/2020 7:15:00 AM -0.06 31.892 0.322 8.29 4.18 14.13
12/16/2020 7:30:00 AM -0.05 31.91 0.322 8.29 4.31 14.15
12/16/2020 7:45:00 AM -0.05 31.91 0.323 8.29 4.28 14.15
12/16/2020 8:00:00 AM -0.05 31.91 0.324 8.29 4.25 14.16
12/16/2020 8:15:00 AM -0.05 31.91 0.324 8.29 4.18 14.19
12/16/2020 8:30:00 AM -0.04 31.928 0.324 8.3 4.19 14.24
12/16/2020 8:45:00 AM -0.04 31.928 0.324 8.3 4.55 14.31
12/16/2020 9:00:00 AM -0.04 31.928 0.324 8.31 4.46 14.33
12/16/2020 9:15:00 AM -0.04 31.928 0.324 8.32 4.79 14.4
12/16/2020 9:30:00 AM -0.03 31.946 0.323 8.32 4.38 14.45
12/16/2020 9:45:00 AM -0.02 31.964 0.323 8.33 4.29 14.55
12/16/2020 10:00:00 AM -0.02 31.964 0.322 8.35 4.32 14.6
12/16/2020 10:15:00 AM -0.01 31.982 0.322 8.36 4.43 14.69
12/16/2020 10:30:00 AM -0.01 31.982 0.321 8.37 4.3 14.76
12/16/2020 10:45:00 AM 0 32 0.321 8.38 4.38 14.81
12/16/2020 11:00:00 AM 0.01 32.018 0.32 8.39 4.47 14.84
12/16/2020 11:15:00 AM 0.04 32.072 0.32 8.39 4.36 14.86
12/16/2020 11:30:00 AM 0.05 32.09 0.32 8.4 4.45 14.91
12/16/2020 11:45:00 AM 0.05 32.09 0.319 8.41 4.46 14.97
12/16/2020 12:00:00 PM 0.02 32.036 0.319 8.42 4.67 14.98
12/16/2020 12:15:00 PM 0.04 32.072 0.318 8.43 4.71 15.02
12/16/2020 12:30:00 PM 0.03 32.054 0.318 8.43 4.8 15
12/16/2020 12:45:00 PM 0 32 0.318 8.43 4.94 15
12/16/2020 1:00:00 PM -0.02 31.964 0.317 8.43 5.07 14.97
12/16/2020 1:15:00 PM -0.02 31.964 0.317 8.43 5.08 14.95
12/16/2020 1:30:00 PM -0.04 31.928 0.316 8.43 4.9 14.91
12/16/2020 1:45:00 PM -0.04 31.928 0.316 8.43 4.95 14.9
12/16/2020 2:00:00 PM -0.03 31.946 0.316 8.43 4.92 14.88
12/16/2020 2:15:00 PM -0.03 31.946 0.316 8.44 4.95 14.87
12/16/2020 2:30:00 PM -0.04 31.928 0.315 8.44 4.96 14.85
12/16/2020 2:45:00 PM -0.04 31.928 0.315 8.44 4.79 14.84
12/16/2020 3:00:00 PM -0.04 31.928 0.315 8.44 4.78 14.81
12/16/2020 3:15:00 PM -0.05 31.91 0.315 8.44 4.77 14.78
12/16/2020 3:30:00 PM -0.05 31.91 0.315 8.43 4.88 14.76
12/16/2020 3:45:00 PM -0.05 31.91 0.316 8.43 5.03 14.71
12/16/2020 4:00:00 PM -0.05 31.91 0.316 8.42 4.74 14.67
12/16/2020 4:15:00 PM -0.05 31.91 0.316 8.42 4.78 14.61
12/16/2020 4:30:00 PM -0.05 31.91 0.317 8.41 4.9 14.55
12/16/2020 4:45:00 PM -0.05 31.91 0.317 8.41 4.89 14.49
12/16/2020 5:00:00 PM -0.05 31.91 0.318 8.4 4.72 14.44
12/16/2020 5:15:00 PM -0.05 31.91 0.318 8.39 4.89 14.4
12/16/2020 5:30:00 PM -0.05 31.91 0.318 8.38 4.82 14.35
12/16/2020 5:45:00 PM -0.05 31.91 0.319 8.38 5.02 14.3
12/16/2020 6:00:00 PM -0.05 31.91 0.319 8.37 4.68 14.26
12/16/2020 6:15:00 PM -0.05 31.91 0.32 8.36 4.92 14.24
12/16/2020 6:30:00 PM -0.05 31.91 0.32 8.36 4.9 14.21
12/16/2020 6:45:00 PM -0.05 31.91 0.321 8.35 5.08 14.19
12/16/2020 7:00:00 PM -0.05 31.91 0.321 8.34 5.75 14.16
12/16/2020 7:15:00 PM -0.05 31.91 0.321 8.34 5.57 14.15
12/16/2020 7:30:00 PM -0.05 31.91 0.322 8.34 6.06 14.15
12/16/2020 7:45:00 PM -0.05 31.91 0.322 8.33 6.31 14.13
12/16/2020 8:00:00 PM -0.05 31.91 0.322 8.33 8.02 14.13
12/16/2020 8:15:00 PM -0.05 31.91 0.322 8.32 9.45 14.1
12/16/2020 8:30:00 PM -0.05 31.91 0.322 8.32 9.05 14.09
12/16/2020 8:45:00 PM -0.06 31.892 0.322 8.31 10.29 14.07
12/16/2020 9:00:00 PM -0.06 31.892 0.322 8.31 10.2 14.08
12/16/2020 9:15:00 PM -0.06 31.892 0.322 8.3 9.12 14.07
12/16/2020 9:30:00 PM -0.06 31.892 0.322 8.3 14.27 14.05
12/16/2020 9:45:00 PM -0.06 31.892 0.322 8.29 22.68 14.04
12/16/2020 10:00:00 PM -0.06 31.892 0.322 8.29 18.17 14.02
12/16/2020 10:15:00 PM -0.06 31.892 0.322 8.29 12.61 14.02
12/16/2020 10:30:00 PM -0.06 31.892 0.321 8.29 9.81 14
12/16/2020 10:45:00 PM -0.06 31.892 0.321 8.27 12.14 13.96
12/16/2020 11:00:00 PM -0.06 31.892 0.321 8.28 8.83 13.96
12/16/2020 11:15:00 PM -0.06 31.892 0.321 8.27 9.88 13.94
12/16/2020 11:30:00 PM -0.06 31.892 0.322 8.27 8.37 13.9
12/16/2020 11:45:00 PM -0.06 31.892 0.322 8.27 10.27 13.93
12/17/2020 12:00:00 AM -0.06 31.892 0.322 8.27 10.75 13.94
12/17/2020 12:15:00 AM -0.06 31.892 0.322 8.27 7.65 13.96
12/17/2020 12:30:00 AM -0.06 31.892 0.322 8.27 8.91 13.94
12/17/2020 12:45:00 AM -0.06 31.892 0.322 8.27 9.08 13.94
12/17/2020 1:00:00 AM -0.06 31.892 0.323 8.26 9 13.92
12/17/2020 1:15:00 AM -0.06 31.892 0.323 8.26 8.01 13.92
12/17/2020 1:30:00 AM -0.06 31.892 0.324 8.26 12.58 13.92
12/17/2020 1:45:00 AM -0.06 31.892 0.324 8.26 11.22 13.9
12/17/2020 2:00:00 AM -0.06 31.892 0.324 8.26 9.24 13.89
12/17/2020 2:15:00 AM -0.06 31.892 0.324 8.25 8.2 13.86
12/17/2020 2:30:00 AM -0.06 31.892 0.324 8.25 6.77 13.87
12/17/2020 2:45:00 AM -0.06 31.892 0.325 8.25 5.83 13.85
12/17/2020 3:00:00 AM -0.06 31.892 0.325 8.25 6.32 13.84
12/17/2020 3:15:00 AM -0.06 31.892 0.325 8.24 5.7 13.83
12/17/2020 3:30:00 AM -0.06 31.892 0.325 8.24 5.38 13.82
12/17/2020 3:45:00 AM -0.06 31.892 0.325 8.24 5.93 13.8
12/17/2020 4:00:00 AM -0.06 31.892 0.325 8.24 5.13 13.78
12/17/2020 4:15:00 AM -0.06 31.892 0.325 8.23 5.07 13.76
12/17/2020 4:30:00 AM -0.06 31.892 0.325 8.23 5.18 13.73
12/17/2020 4:45:00 AM -0.06 31.892 0.326 8.23 5.11 13.72
12/17/2020 5:00:00 AM -0.06 31.892 0.326 8.22 5 13.7
12/17/2020 5:15:00 AM -0.06 31.892 0.326 8.22 4.9 13.68
12/17/2020 5:30:00 AM -0.06 31.892 0.326 8.22 4.73 13.66
12/17/2020 5:45:00 AM -0.06 31.892 0.326 8.21 4.86 13.64
12/17/2020 6:00:00 AM -0.06 31.892 0.326 8.21 4.95 13.61
12/17/2020 6:15:00 AM -0.06 31.892 0.326 8.21 4.88 13.58
12/17/2020 6:30:00 AM -0.06 31.892 0.327 8.2 4.81 13.55
12/17/2020 6:45:00 AM -0.06 31.892 0.327 8.2 4.99 13.54
12/17/2020 7:00:00 AM -0.06 31.892 0.327 8.19 5.47 13.5
12/17/2020 7:15:00 AM -0.06 31.892 0.327 8.19 5.12 13.49
12/17/2020 7:30:00 AM -0.06 31.892 0.328 8.19 5.3 13.48
12/17/2020 7:45:00 AM -0.06 31.892 0.328 8.18 5.22 13.45
12/17/2020 8:00:00 AM -0.06 31.892 0.328 8.18 5.43 13.44
12/17/2020 8:15:00 AM -0.06 31.892 0.329 8.18 5.36 13.43
12/17/2020 8:30:00 AM -0.06 31.892 0.329 8.18 5.25 13.4
12/17/2020 8:45:00 AM -0.06 31.892 0.329 8.17 5.21 13.39
12/17/2020 9:00:00 AM -0.06 31.892 0.33 8.17 5.21 13.4
12/17/2020 9:15:00 AM -0.06 31.892 0.33 8.17 5.24 13.38
12/17/2020 9:30:00 AM -0.06 31.892 0.33 8.17 5.65 13.37
12/17/2020 9:45:00 AM -0.06 31.892 0.331 8.17 4.92 13.37
12/17/2020 10:00:00 AM -0.06 31.892 0.331 8.16 5.43 13.38
12/17/2020 10:15:00 AM -0.06 31.892 0.332 8.17 5.17 13.38
12/17/2020 10:30:00 AM -0.06 31.892 0.332 8.16 5.2 13.39
12/17/2020 10:45:00 AM -0.06 31.892 0.332 8.16 5.15 13.41
12/17/2020 11:00:00 AM -0.06 31.892 0.332 8.16 5.29 13.41
12/17/2020 11:15:00 AM -0.06 31.892 0.333 8.16 5.7 13.43
12/17/2020 11:30:00 AM -0.06 31.892 0.334 8.16 5.6 13.44
12/17/2020 11:45:00 AM -0.06 31.892 0.334 8.16 5.75 13.46
12/17/2020 12:00:00 PM -0.06 31.892 0.335 8.16 5.66 13.49
12/17/2020 12:15:00 PM -0.06 31.892 0.335 8.16 5.58 13.52
12/17/2020 12:30:00 PM -0.06 31.892 0.335 8.16 5.8 13.55
12/17/2020 12:45:00 PM -0.06 31.892 0.334 8.16 5.7 13.57
12/17/2020 1:00:00 PM -0.06 31.892 0.334 8.17 5.88 13.62
12/17/2020 1:15:00 PM -0.06 31.892 0.334 8.17 6.23 13.64
12/17/2020 1:30:00 PM -0.06 31.892 0.334 8.18 7.5 13.67
12/17/2020 1:45:00 PM -0.06 31.892 0.333 8.18 5.74 13.7
12/17/2020 2:00:00 PM -0.06 31.892 0.333 8.18 6.64 13.72
12/17/2020 2:15:00 PM -0.06 31.892 0.333 8.19 6.32 13.74
12/17/2020 2:30:00 PM -0.06 31.892 0.332 8.19 6.1 13.76
12/17/2020 2:45:00 PM -0.06 31.892 0.332 8.19 6.3 13.77
12/17/2020 3:00:00 PM -0.06 31.892 0.332 8.19 6.25 13.78
12/17/2020 3:15:00 PM -0.06 31.892 0.332 8.2 6.77 13.78
12/17/2020 3:30:00 PM -0.06 31.892 0.332 8.2 6.26 13.8
12/17/2020 3:45:00 PM -0.06 31.892 0.332 8.2 6.03 13.8
12/17/2020 4:00:00 PM -0.06 31.892 0.331 8.2 6.27 13.79
12/17/2020 4:15:00 PM -0.06 31.892 0.331 8.2 5.95 13.77
12/17/2020 4:30:00 PM -0.06 31.892 0.33 8.19 5.76 13.76
12/17/2020 4:45:00 PM -0.06 31.892 0.33 8.19 6.64 13.75
12/17/2020 5:00:00 PM -0.06 31.892 0.329 8.19 6.16 13.72
12/17/2020 5:15:00 PM -0.06 31.892 0.329 8.19 6.03 13.71
12/17/2020 5:30:00 PM -0.06 31.892 0.329 8.19 6.74 13.69
12/17/2020 5:45:00 PM -0.06 31.892 0.329 8.19 6.23 13.67
12/17/2020 6:00:00 PM -0.06 31.892 0.328 8.18 5.91 13.65
12/17/2020 6:15:00 PM -0.06 31.892 0.328 8.18 6.04 13.65
12/17/2020 6:30:00 PM -0.06 31.892 0.328 8.18 5.87 13.62
12/17/2020 6:45:00 PM -0.06 31.892 0.328 8.17 6.05 13.62
12/17/2020 7:00:00 PM -0.06 31.892 0.328 8.17 5.84 13.6
12/17/2020 7:15:00 PM -0.06 31.892 0.328 8.17 6.01 13.58
12/17/2020 7:30:00 PM -0.06 31.892 0.328 8.16 5.8 13.57
12/17/2020 7:45:00 PM -0.06 31.892 0.328 8.16 6.02 13.54
12/17/2020 8:00:00 PM -0.06 31.892 0.328 8.16 5.46 13.52
12/17/2020 8:15:00 PM -0.06 31.892 0.328 8.15 5.85 13.49
12/17/2020 8:30:00 PM -0.06 31.892 0.328 8.15 6.12 13.48
12/17/2020 8:45:00 PM -0.06 31.892 0.328 8.15 5.46 13.45
12/17/2020 9:00:00 PM -0.06 31.892 0.328 8.14 5.81 13.45
12/17/2020 9:15:00 PM -0.06 31.892 0.328 8.14 5.75 13.41
12/17/2020 9:30:00 PM -0.06 31.892 0.328 8.13 5.38 13.41
12/17/2020 9:45:00 PM -0.06 31.892 0.329 8.13 5.64 13.39
12/17/2020 10:00:00 PM -0.06 31.892 0.329 8.13 5.54 13.38
12/17/2020 10:15:00 PM -0.06 31.892 0.329 8.13 5.81 13.36
12/17/2020 10:30:00 PM -0.06 31.892 0.329 8.12 5.76 13.34
12/17/2020 10:45:00 PM -0.06 31.892 0.33 8.12 5.65 13.33
12/17/2020 11:00:00 PM -0.06 31.892 0.33 8.12 5.57 13.31
12/17/2020 11:15:00 PM -0.06 31.892 0.33 8.11 5.51 13.29
12/17/2020 11:30:00 PM -0.06 31.892 0.33 8.11 5.52 13.28
12/17/2020 11:45:00 PM -0.06 31.892 0.33 8.11 5.27 13.25
12/18/2020 12:00:00 AM -0.06 31.892 0.33 8.1 5.52 13.24
12/18/2020 12:15:00 AM -0.06 31.892 0.33 8.1 5.34 13.21
12/18/2020 12:30:00 AM -0.06 31.892 0.33 8.1 5.4 13.19
12/18/2020 12:45:00 AM -0.06 31.892 0.33 8.09 5.42 13.19
12/18/2020 1:00:00 AM -0.06 31.892 0.33 8.09 5.2 13.17
12/18/2020 1:15:00 AM -0.06 31.892 0.329 8.08 5.22 13.16
12/18/2020 1:30:00 AM -0.06 31.892 0.329 8.08 5.49 13.13
12/18/2020 1:45:00 AM -0.06 31.892 0.329 8.08 5.5 13.13
12/18/2020 2:00:00 AM -0.06 31.892 0.329 8.08 5.27 13.12
12/18/2020 2:15:00 AM -0.06 31.892 0.328 8.07 5.25 13.1
12/18/2020 2:30:00 AM -0.06 31.892 0.328 8.07 5.36 13.1
12/18/2020 2:45:00 AM -0.06 31.892 0.328 8.07 5.39 13.08
12/18/2020 3:00:00 AM -0.06 31.892 0.328 8.06 5.4 13.07
12/18/2020 3:15:00 AM -0.06 31.892 0.327 8.06 5.2 13.07
12/18/2020 3:30:00 AM -0.06 31.892 0.327 8.06 5.25 13.05
12/18/2020 3:45:00 AM -0.06 31.892 0.327 8.06 5.07 13.05
12/18/2020 4:00:00 AM -0.06 31.892 0.326 8.06 5.49 13.05
12/18/2020 4:15:00 AM -0.06 31.892 0.326 8.06 5.24 13.05
12/18/2020 4:30:00 AM -0.06 31.892 0.326 8.05 5.16 13.04
12/18/2020 4:45:00 AM -0.06 31.892 0.326 8.05 5.08 13.03
12/18/2020 5:00:00 AM -0.06 31.892 0.326 8.05 5.08 13.04
12/18/2020 5:15:00 AM -0.06 31.892 0.326 8.05 5.28 13.02
12/18/2020 5:30:00 AM -0.06 31.892 0.326 8.05 5.21 13.03
12/18/2020 5:45:00 AM -0.06 31.892 0.326 8.05 5.28 13.02
12/18/2020 6:00:00 AM -0.06 31.892 0.326 8.05 5.38 13.03
12/18/2020 6:15:00 AM -0.06 31.892 0.326 8.05 5.71 13.03
12/18/2020 6:30:00 AM -0.06 31.892 0.326 8.05 5.19 13.01
12/18/2020 6:45:00 AM -0.06 31.892 0.326 8.04 5.14 13.02
12/18/2020 7:00:00 AM -0.06 31.892 0.326 8.04 5.18 13.02
12/18/2020 7:15:00 AM -0.06 31.892 0.326 8.04 5.28 13.01
12/18/2020 7:30:00 AM -0.06 31.892 0.326 8.04 5.26 13.01
12/18/2020 7:45:00 AM -0.06 31.892 0.326 8.04 5.16 13
12/18/2020 8:00:00 AM -0.06 31.892 0.326 8.04 5.33 13
12/18/2020 8:15:00 AM -0.06 31.892 0.326 8.04 5.33 13.01
12/18/2020 8:30:00 AM -0.06 31.892 0.326 8.04 5.22 13.01
12/18/2020 8:45:00 AM -0.06 31.892 0.325 8.04 5.25 13.02
12/18/2020 9:00:00 AM -0.06 31.892 0.325 8.04 5.05 13.03
12/18/2020 9:15:00 AM -0.06 31.892 0.325 8.04 5.16 13.03
12/18/2020 9:30:00 AM -0.06 31.892 0.324 8.04 5.07 13.05
12/18/2020 9:45:00 AM -0.06 31.892 0.324 8.04 5.27 13.07
12/18/2020 10:00:00 AM -0.06 31.892 0.324 8.04 5.39 13.07
12/18/2020 10:15:00 AM -0.06 31.892 0.324 8.04 5.58 13.1
12/18/2020 10:30:00 AM -0.06 31.892 0.323 8.05 5.49 13.13
12/18/2020 10:45:00 AM -0.06 31.892 0.323 8.05 5.59 13.15
12/18/2020 11:00:00 AM -0.06 31.892 0.322 8.05 5.53 13.17
12/18/2020 11:15:00 AM -0.06 31.892 0.322 8.05 5.62 13.19
12/18/2020 11:30:00 AM -0.06 31.892 0.321 8.06 5.16 13.22
12/18/2020 11:45:00 AM -0.06 31.892 0.321 8.06 5.47 13.26
12/18/2020 12:00:00 PM -0.06 31.892 0.32 8.07 5.64 13.29
12/18/2020 12:15:00 PM -0.06 31.892 0.319 8.07 5.57 13.33
12/18/2020 12:30:00 PM -0.06 31.892 0.319 8.07 5.24 13.36
12/18/2020 12:45:00 PM -0.06 31.892 0.318 8.08 5.56 13.4
12/18/2020 1:00:00 PM -0.06 31.892 0.318 8.08 5.93 13.43
12/18/2020 1:15:00 PM -0.06 31.892 0.317 8.09 5.25 13.48
12/18/2020 1:30:00 PM -0.06 31.892 0.316 8.09 5.45 13.51
12/18/2020 1:45:00 PM -0.06 31.892 0.316 8.09 5.72 13.54
12/18/2020 2:00:00 PM -0.06 31.892 0.316 8.1 5.88 13.57
12/18/2020 2:15:00 PM -0.06 31.892 0.315 8.1 5.97 13.61
12/18/2020 2:30:00 PM -0.06 31.892 0.315 8.11 5.57 13.63
12/18/2020 2:45:00 PM -0.06 31.892 0.315 8.11 5.28 13.66
12/18/2020 3:00:00 PM -0.06 31.892 0.315 8.11 5.48 13.69
12/18/2020 3:15:00 PM -0.06 31.892 0.315 8.11 6.23 13.69
12/18/2020 3:30:00 PM -0.06 31.892 0.315 8.11 5.58 13.7
12/18/2020 3:45:00 PM -0.06 31.892 0.315 8.11 5.51 13.7
12/18/2020 4:00:00 PM -0.06 31.892 0.315 8.11 5.16 13.69
12/18/2020 4:15:00 PM -0.06 31.892 0.315 8.11 5.32 13.7
12/18/2020 4:30:00 PM -0.06 31.892 0.315 8.11 5.57 13.69
12/18/2020 4:45:00 PM -0.06 31.892 0.315 8.11 5.42 13.68
12/18/2020 5:00:00 PM -0.06 31.892 0.315 8.11 5.62 13.67
12/18/2020 5:15:00 PM -0.06 31.892 0.315 8.1 5.18 13.67
12/18/2020 5:30:00 PM -0.06 31.892 0.315 8.1 5.22 13.65
12/18/2020 5:45:00 PM -0.06 31.892 0.315 8.1 5.27 13.63
12/18/2020 6:00:00 PM -0.06 31.892 0.315 8.1 5.08 13.62
12/18/2020 6:15:00 PM -0.06 31.892 0.315 8.1 5.22 13.61
12/18/2020 6:30:00 PM -0.06 31.892 0.315 8.1 5.3 13.6
12/18/2020 6:45:00 PM -0.06 31.892 0.315 8.09 5.24 13.59
12/18/2020 7:00:00 PM -0.06 31.892 0.315 8.09 5.16 13.59
12/18/2020 7:15:00 PM -0.06 31.892 0.315 8.09 5 13.57
12/18/2020 7:30:00 PM -0.06 31.892 0.316 8.09 5.21 13.57
12/18/2020 7:45:00 PM -0.06 31.892 0.316 8.09 5.34 13.56
12/18/2020 8:00:00 PM -0.06 31.892 0.316 8.08 5.17 13.54
12/18/2020 8:15:00 PM -0.06 31.892 0.317 8.08 4.91 13.53
12/18/2020 8:30:00 PM -0.06 31.892 0.317 8.08 5.03 13.51
12/18/2020 8:45:00 PM -0.06 31.892 0.318 8.07 5.04 13.5
12/18/2020 9:00:00 PM -0.06 31.892 0.318 8.07 4.92 13.49
12/18/2020 9:15:00 PM -0.06 31.892 0.318 8.07 4.84 13.47
12/18/2020 9:30:00 PM -0.06 31.892 0.319 8.07 4.92 13.46
12/18/2020 9:45:00 PM -0.06 31.892 0.319 8.06 4.89 13.43
12/18/2020 10:00:00 PM -0.06 31.892 0.319 8.06 4.94 13.42
12/18/2020 10:15:00 PM -0.06 31.892 0.32 8.06 4.74 13.42
12/18/2020 10:30:00 PM -0.06 31.892 0.32 8.06 4.88 13.4
12/18/2020 10:45:00 PM -0.06 31.892 0.321 8.05 4.83 13.38
12/18/2020 11:00:00 PM -0.06 31.892 0.321 8.05 5.07 13.37
12/18/2020 11:15:00 PM -0.06 31.892 0.321 8.05 4.99 13.36
12/18/2020 11:30:00 PM -0.06 31.892 0.322 8.05 4.82 13.35
12/18/2020 11:45:00 PM -0.06 31.892 0.322 8.04 4.8 13.35
12/19/2020 12:00:00 AM -0.06 31.892 0.322 8.04 6.52 13.34
12/19/2020 12:15:00 AM -0.06 31.892 0.323 8.04 5.21 13.34
12/19/2020 12:30:00 AM -0.06 31.892 0.323 8.04 4.85 13.33
12/19/2020 12:45:00 AM -0.06 31.892 0.323 8.04 4.97 13.31
12/19/2020 1:00:00 AM -0.06 31.892 0.324 8.03 4.92 13.31
12/19/2020 1:15:00 AM -0.06 31.892 0.324 8.03 4.79 13.31
12/19/2020 1:30:00 AM -0.06 31.892 0.324 8.03 4.93 13.3
12/19/2020 1:45:00 AM -0.06 31.892 0.325 8.03 5.3 13.3
12/19/2020 2:00:00 AM -0.06 31.892 0.325 8.03 4.85 13.29
12/19/2020 2:15:00 AM -0.06 31.892 0.325 8.03 5.08 13.3
12/19/2020 2:30:00 AM -0.06 31.892 0.326 8.03 4.78 13.29
12/19/2020 2:45:00 AM -0.06 31.892 0.326 8.02 4.94 13.29
12/19/2020 3:00:00 AM -0.06 31.892 0.326 8.02 4.94 13.28
12/19/2020 3:15:00 AM -0.06 31.892 0.327 8.02 4.9 13.28
12/19/2020 3:30:00 AM -0.06 31.892 0.327 8.02 5.22 13.27
12/19/2020 3:45:00 AM -0.06 31.892 0.327 8.02 5.1 13.27
12/19/2020 4:00:00 AM -0.06 31.892 0.328 8.02 4.89 13.26
12/19/2020 4:15:00 AM -0.06 31.892 0.328 8.02 4.9 13.26
12/19/2020 4:30:00 AM -0.06 31.892 0.329 8.01 4.99 13.25
12/19/2020 4:45:00 AM -0.06 31.892 0.329 8.01 4.96 13.24
12/19/2020 5:00:00 AM -0.06 31.892 0.33 8.01 5.22 13.25
12/19/2020 5:15:00 AM -0.06 31.892 0.33 8.01 5.2 13.23
12/19/2020 5:30:00 AM -0.06 31.892 0.33 8.01 5.27 13.24
12/19/2020 5:45:00 AM -0.06 31.892 0.331 8.01 5.09 13.22
12/19/2020 6:00:00 AM -0.06 31.892 0.331 8 5.13 13.22
12/19/2020 6:15:00 AM -0.06 31.892 0.332 8 5.23 13.21
12/19/2020 6:30:00 AM -0.06 31.892 0.332 8 5.26 13.2
12/19/2020 6:45:00 AM -0.06 31.892 0.333 8 5.19 13.19
12/19/2020 7:00:00 AM -0.06 31.892 0.333 8 5.25 13.19
12/19/2020 7:15:00 AM -0.06 31.892 0.333 8 5.17 13.17
12/19/2020 7:30:00 AM -0.06 31.892 0.333 7.99 5.23 13.16
12/19/2020 7:45:00 AM -0.06 31.892 0.334 7.99 4.82 13.16
12/19/2020 8:00:00 AM -0.06 31.892 0.334 7.99 4.89 13.14
12/19/2020 8:15:00 AM -0.06 31.892 0.335 7.99 4.97 13.14
12/19/2020 8:30:00 AM -0.06 31.892 0.335 7.99 5.09 13.13
12/19/2020 8:45:00 AM -0.06 31.892 0.335 7.99 5.17 13.12
12/19/2020 9:00:00 AM -0.06 31.892 0.335 7.99 5.14 13.13
12/19/2020 9:15:00 AM -0.06 31.892 0.336 7.99 4.89 13.13
12/19/2020 9:30:00 AM -0.06 31.892 0.336 7.99 5.24 13.14
12/19/2020 9:45:00 AM -0.06 31.892 0.336 7.99 4.98 13.16
12/19/2020 10:00:00 AM -0.06 31.892 0.336 7.99 5.15 13.17
12/19/2020 10:15:00 AM -0.06 31.892 0.337 7.99 5.04 13.18
12/19/2020 10:30:00 AM -0.06 31.892 0.337 7.99 5.71 13.19
12/19/2020 10:45:00 AM -0.06 31.892 0.337 7.99 5.27 13.21
12/19/2020 11:00:00 AM -0.06 31.892 0.337 7.99 6.06 13.23
12/19/2020 11:15:00 AM -0.06 31.892 0.337 7.99 5.62 13.25
12/19/2020 11:30:00 AM -0.06 31.892 0.337 7.99 6.01 13.27
12/19/2020 11:45:00 AM -0.06 31.892 0.337 8 5.52 13.29
12/19/2020 12:00:00 PM -0.06 31.892 0.337 8 5.88 13.32
12/19/2020 12:15:00 PM -0.06 31.892 0.336 8 5.64 13.36
12/19/2020 12:30:00 PM -0.06 31.892 0.336 8.01 6.22 13.38
12/19/2020 12:45:00 PM -0.06 31.892 0.336 8.01 5.91 13.42
12/19/2020 1:00:00 PM -0.06 31.892 0.335 8.01 5.68 13.45
12/19/2020 1:15:00 PM -0.06 31.892 0.335 8.02 6 13.49
12/19/2020 1:30:00 PM -0.06 31.892 0.335 8.02 5.59 13.51
12/19/2020 1:45:00 PM -0.06 31.892 0.334 8.03 6.08 13.56
12/19/2020 2:00:00 PM -0.06 31.892 0.333 8.03 5.85 13.58
12/19/2020 2:15:00 PM -0.06 31.892 0.333 8.03 5.69 13.6
12/19/2020 2:30:00 PM -0.06 31.892 0.332 8.04 5.85 13.63
12/19/2020 2:45:00 PM -0.06 31.892 0.332 8.04 5.93 13.65
12/19/2020 3:00:00 PM -0.06 31.892 0.331 8.04 5.87 13.66
12/19/2020 3:15:00 PM -0.06 31.892 0.331 8.04 6.16 13.69
12/19/2020 3:30:00 PM -0.06 31.892 0.33 8.05 5.53 13.69
12/19/2020 3:45:00 PM -0.06 31.892 0.33 8.05 6.15 13.69
12/19/2020 4:00:00 PM -0.06 31.892 0.33 8.04 5.52 13.67
12/19/2020 4:15:00 PM -0.06 31.892 0.329 8.05 5.99 13.66
12/19/2020 4:30:00 PM -0.06 31.892 0.329 8.05 5.69 13.65
12/19/2020 4:45:00 PM -0.06 31.892 0.329 8.04 6 13.62
12/19/2020 5:00:00 PM -0.06 31.892 0.329 8.04 5.46 13.58
12/19/2020 5:15:00 PM -0.06 31.892 0.329 8.04 5.44 13.56
12/19/2020 5:30:00 PM -0.06 31.892 0.329 8.03 5.59 13.51
12/19/2020 5:45:00 PM -0.06 31.892 0.329 8.03 5.56 13.49
12/19/2020 6:00:00 PM -0.06 31.892 0.329 8.03 6.11 13.45
12/19/2020 6:15:00 PM -0.06 31.892 0.329 8.03 5.57 13.42
12/19/2020 6:30:00 PM -0.06 31.892 0.329 8.03 6.06 13.39
12/19/2020 6:45:00 PM -0.06 31.892 0.328 8.02 5.91 13.36
12/19/2020 7:00:00 PM -0.06 31.892 0.329 8.02 5.63 13.33
12/19/2020 7:15:00 PM -0.06 31.892 0.329 8.01 5.47 13.3
12/19/2020 7:30:00 PM -0.06 31.892 0.329 8.01 5.77 13.27
12/19/2020 7:45:00 PM -0.06 31.892 0.329 8.01 5.49 13.23
12/19/2020 8:00:00 PM -0.06 31.892 0.329 8.01 5.45 13.2
12/19/2020 8:15:00 PM -0.06 31.892 0.329 8.01 5.57 13.18
12/19/2020 8:30:00 PM -0.06 31.892 0.329 8 5.48 13.14
12/19/2020 8:45:00 PM -0.06 31.892 0.329 8 5.96 13.11
12/19/2020 9:00:00 PM -0.06 31.892 0.329 8 5.54 13.09
12/19/2020 9:15:00 PM -0.06 31.892 0.329 7.99 5.38 13.05
12/19/2020 9:30:00 PM -0.06 31.892 0.329 7.99 5.39 13.03
12/19/2020 9:45:00 PM -0.06 31.892 0.329 7.99 5.66 13
12/19/2020 10:00:00 PM -0.06 31.892 0.329 7.99 5.69 12.98
12/19/2020 10:15:00 PM -0.06 31.892 0.329 7.99 5.4 12.96
12/19/2020 10:30:00 PM -0.06 31.892 0.329 7.98 5.88 12.94
12/19/2020 10:45:00 PM -0.06 31.892 0.329 7.98 5.4 12.92
12/19/2020 11:00:00 PM -0.06 31.892 0.329 7.98 5.69 12.9
12/19/2020 11:15:00 PM -0.06 31.892 0.329 7.98 5.37 12.89
12/19/2020 11:30:00 PM -0.06 31.892 0.329 7.98 5.35 12.87
12/19/2020 11:45:00 PM -0.06 31.892 0.329 7.97 5.39 12.87
12/20/2020 12:00:00 AM -0.06 31.892 0.329 7.97 5.57 12.85
12/20/2020 12:15:00 AM -0.06 31.892 0.329 7.97 5.82 12.84
12/20/2020 12:30:00 AM -0.06 31.892 0.329 7.98 5.32 12.83
12/20/2020 12:45:00 AM -0.06 31.892 0.328 7.97 5.51 12.83
12/20/2020 1:00:00 AM -0.06 31.892 0.328 7.97 5.72 12.82
12/20/2020 1:15:00 AM -0.06 31.892 0.328 7.97 5.43 12.81
12/20/2020 1:30:00 AM -0.06 31.892 0.328 7.97 5.64 12.81
12/20/2020 1:45:00 AM -0.06 31.892 0.328 7.97 5.33 12.8
12/20/2020 2:00:00 AM -0.06 31.892 0.328 7.97 5.33 12.79
12/20/2020 2:15:00 AM -0.06 31.892 0.328 7.97 5.44 12.79
12/20/2020 2:30:00 AM -0.06 31.892 0.328 7.97 6.79 12.79
12/20/2020 2:45:00 AM -0.06 31.892 0.328 7.97 5.69 12.79
12/20/2020 3:00:00 AM -0.06 31.892 0.328 7.97 5.61 12.79
12/20/2020 3:15:00 AM -0.06 31.892 0.328 7.97 5.62 12.78
12/20/2020 3:30:00 AM -0.06 31.892 0.327 7.97 5.68 12.78
12/20/2020 3:45:00 AM -0.06 31.892 0.327 7.97 5.82 12.77
12/20/2020 4:00:00 AM -0.06 31.892 0.327 7.97 5.54 12.77
12/20/2020 4:15:00 AM -0.06 31.892 0.327 7.97 5.69 12.77
12/20/2020 4:30:00 AM -0.06 31.892 0.327 7.97 5.75 12.76
12/20/2020 4:45:00 AM -0.06 31.892 0.327 7.97 5.42 12.75
12/20/2020 5:00:00 AM -0.06 31.892 0.327 7.97 5.94 12.76
12/20/2020 5:15:00 AM -0.06 31.892 0.327 7.97 5.82 12.74
12/20/2020 5:30:00 AM -0.06 31.892 0.327 7.97 5.41 12.75
12/20/2020 5:45:00 AM -0.06 31.892 0.327 7.97 5.46 12.73
12/20/2020 6:00:00 AM -0.06 31.892 0.326 7.97 5.72 12.72
12/20/2020 6:15:00 AM -0.06 31.892 0.326 7.97 5.76 12.72
12/20/2020 6:30:00 AM -0.06 31.892 0.326 7.97 5.6 12.73
12/20/2020 6:45:00 AM -0.06 31.892 0.327 7.97 5.63 12.72
12/20/2020 7:00:00 AM -0.06 31.892 0.327 7.97 5.61 12.72
12/20/2020 7:15:00 AM -0.06 31.892 0.327 7.97 5.45 12.72
12/20/2020 7:30:00 AM -0.06 31.892 0.327 7.97 5.85 12.71
12/20/2020 7:45:00 AM -0.06 31.892 0.327 7.97 6.11 12.71
12/20/2020 8:00:00 AM -0.06 31.892 0.327 7.97 5.54 12.7
12/20/2020 8:15:00 AM -0.06 31.892 0.327 7.97 5.7 12.71
12/20/2020 8:30:00 AM -0.06 31.892 0.327 7.97 5.5 12.71
12/20/2020 8:45:00 AM -0.06 31.892 0.327 7.97 5.84 12.71
12/20/2020 9:00:00 AM -0.06 31.892 0.327 7.97 5.27 12.73
12/20/2020 9:15:00 AM -0.06 31.892 0.327 7.97 5.46 12.74
12/20/2020 9:30:00 AM -0.06 31.892 0.327 7.98 5.49 12.78
12/20/2020 9:45:00 AM -0.06 31.892 0.327 7.98 5.64 12.8
12/20/2020 10:00:00 AM -0.06 31.892 0.327 7.98 5.69 12.83
12/20/2020 10:15:00 AM -0.06 31.892 0.327 7.98 6.05 12.87
12/20/2020 10:30:00 AM -0.06 31.892 0.327 7.99 5.54 12.89
12/20/2020 10:45:00 AM -0.06 31.892 0.327 7.99 5.63 12.92
12/20/2020 11:00:00 AM -0.06 31.892 0.327 8 5.67 12.97
12/20/2020 11:15:00 AM -0.06 31.892 0.327 8 6.01 13
12/20/2020 11:30:00 AM -0.06 31.892 0.327 8.01 6.08 13.03
12/20/2020 11:45:00 AM -0.06 31.892 0.327 8.01 5.83 13.07
12/20/2020 12:00:00 PM -0.06 31.892 0.327 8.01 5.95 13.1
12/20/2020 12:15:00 PM -0.06 31.892 0.326 8.02 5.66 13.13
12/20/2020 12:30:00 PM -0.06 31.892 0.327 8.02 6.36 13.15
12/20/2020 12:45:00 PM -0.06 31.892 0.326 8.02 6.14 13.16
12/20/2020 1:00:00 PM -0.06 31.892 0.326 8.03 5.94 13.18
12/20/2020 1:15:00 PM -0.06 31.892 0.326 8.03 6.54 13.2
12/20/2020 1:30:00 PM -0.06 31.892 0.326 8.03 5.59 13.22
12/20/2020 1:45:00 PM -0.06 31.892 0.326 8.04 5.59 13.25
12/20/2020 2:00:00 PM -0.06 31.892 0.326 8.04 5.5 13.26
12/20/2020 2:15:00 PM -0.06 31.892 0.326 8.04 5.57 13.29
12/20/2020 2:30:00 PM -0.06 31.892 0.326 8.04 5.77 13.31
12/20/2020 2:45:00 PM -0.06 31.892 0.326 8.05 5.82 13.33
12/20/2020 3:00:00 PM -0.06 31.892 0.326 8.05 5.59 13.35
12/20/2020 3:15:00 PM -0.06 31.892 0.326 8.06 5.67 13.36
12/20/2020 3:30:00 PM -0.06 31.892 0.326 8.06 5.94 13.38
12/20/2020 3:45:00 PM -0.06 31.892 0.326 8.06 7.51 13.37
12/20/2020 4:00:00 PM -0.06 31.892 0.326 8.06 5.92 13.37
12/20/2020 4:15:00 PM -0.06 31.892 0.327 8.06 5.62 13.36
12/20/2020 4:30:00 PM -0.06 31.892 0.327 8.06 6.15 13.35
12/20/2020 4:45:00 PM -0.06 31.892 0.327 8.06 5.9 13.33
12/20/2020 5:00:00 PM -0.06 31.892 0.327 8.06 6.05 13.3
12/20/2020 5:15:00 PM -0.06 31.892 0.327 8.05 5.78 13.28
12/20/2020 5:30:00 PM -0.06 31.892 0.327 8.06 5.75 13.26
12/20/2020 5:45:00 PM -0.06 31.892 0.327 8.05 6.14 13.23
12/20/2020 6:00:00 PM -0.06 31.892 0.328 8.05 6.75 13.21
12/20/2020 6:15:00 PM -0.06 31.892 0.328 8.05 5.73 13.19
12/20/2020 6:30:00 PM -0.06 31.892 0.328 8.05 5.99 13.18
12/20/2020 6:45:00 PM -0.06 31.892 0.328 8.05 6.8 13.15
12/20/2020 7:00:00 PM -0.06 31.892 0.328 8.05 6.38 13.13
12/20/2020 7:15:00 PM -0.06 31.892 0.328 8.04 7.28 13.12
12/20/2020 7:30:00 PM -0.06 31.892 0.328 8.04 6.02 13.1
12/20/2020 7:45:00 PM -0.06 31.892 0.328 8.04 5.91 13.1
12/20/2020 8:00:00 PM -0.06 31.892 0.328 8.04 6.62 13.07
12/20/2020 8:15:00 PM -0.06 31.892 0.328 8.04 6.23 13.05
12/20/2020 8:30:00 PM -0.06 31.892 0.329 8.04 6.61 13.04
12/20/2020 8:45:00 PM -0.06 31.892 0.329 8.04 6.84 13.02
12/20/2020 9:00:00 PM -0.06 31.892 0.329 8.04 6.19 13.01
12/20/2020 9:15:00 PM -0.06 31.892 0.329 8.03 6.4 12.98
12/20/2020 9:30:00 PM -0.06 31.892 0.329 8.03 7.04 12.97
12/20/2020 9:45:00 PM -0.06 31.892 0.329 8.03 5.86 12.96
12/20/2020 10:00:00 PM -0.06 31.892 0.329 8.03 6.41 12.94
12/20/2020 10:15:00 PM -0.06 31.892 0.329 8.03 6.1 12.93
12/20/2020 10:30:00 PM -0.06 31.892 0.329 8.03 6.44 12.93
12/20/2020 10:45:00 PM -0.06 31.892 0.329 8.03 6.79 12.92
12/20/2020 11:00:00 PM -0.06 31.892 0.329 8.03 6.04 12.91
12/20/2020 11:15:00 PM -0.06 31.892 0.329 8.03 6.36 12.92
12/20/2020 11:30:00 PM -0.06 31.892 0.329 8.03 6.55 12.92
12/20/2020 11:45:00 PM -0.06 31.892 0.329 8.03 6.93 12.91
12/21/2020 12:00:00 AM -0.06 31.892 0.329 8.03 6.32 12.92
12/21/2020 12:15:00 AM -0.06 31.892 0.328 8.02 6.89 12.91
12/21/2020 12:30:00 AM -0.06 31.892 0.328 8.03 6.78 12.91
12/21/2020 12:45:00 AM -0.06 31.892 0.328 8.03 6.54 12.92
12/21/2020 1:00:00 AM -0.06 31.892 0.328 8.03 6.66 12.91
12/21/2020 1:15:00 AM -0.06 31.892 0.328 8.03 6.97 12.92
12/21/2020 1:30:00 AM -0.06 31.892 0.328 8.03 6.79 12.91
12/21/2020 1:45:00 AM -0.06 31.892 0.328 8.03 6.38 12.9
12/21/2020 2:00:00 AM -0.06 31.892 0.328 8.03 6.16 12.9
12/21/2020 2:15:00 AM -0.06 31.892 0.328 8.03 6.53 12.9
12/21/2020 2:30:00 AM -0.06 31.892 0.328 8.03 7.27 12.91
12/21/2020 2:45:00 AM -0.06 31.892 0.328 8.03 7.16 12.91
12/21/2020 3:00:00 AM -0.06 31.892 0.328 8.03 6.61 12.9
12/21/2020 3:15:00 AM -0.06 31.892 0.328 8.03 6.31 12.89
12/21/2020 3:30:00 AM -0.06 31.892 0.328 8.03 6.84 12.89
12/21/2020 3:45:00 AM -0.06 31.892 0.328 8.03 6.17 12.89
12/21/2020 4:00:00 AM -0.06 31.892 0.328 8.03 7.28 12.89
12/21/2020 4:15:00 AM -0.06 31.892 0.327 8.03 6.29 12.9
12/21/2020 4:30:00 AM -0.06 31.892 0.327 8.03 6.52 12.9
12/21/2020 4:45:00 AM -0.06 31.892 0.327 8.03 6.46 12.89
12/21/2020 5:00:00 AM -0.06 31.892 0.327 8.03 7.03 12.89
12/21/2020 5:15:00 AM -0.06 31.892 0.327 8.03 7.13 12.9
12/21/2020 5:30:00 AM -0.06 31.892 0.327 8.03 6.82 12.89
12/21/2020 5:45:00 AM -0.06 31.892 0.327 8.03 6.71 12.89
12/21/2020 6:00:00 AM -0.06 31.892 0.327 8.03 6.03 12.88
12/21/2020 6:15:00 AM -0.06 31.892 0.327 8.03 7 12.89
12/21/2020 6:30:00 AM -0.06 31.892 0.327 8.03 6.48 12.89
12/21/2020 6:45:00 AM -0.06 31.892 0.327 8.03 6.67 12.89
12/21/2020 7:00:00 AM -0.06 31.892 0.327 8.03 6.73 12.89
12/21/2020 7:15:00 AM -0.06 31.892 0.327 8.03 6.86 12.89
12/21/2020 7:30:00 AM -0.06 31.892 0.327 8.03 6.67 12.89
12/21/2020 7:45:00 AM -0.06 31.892 0.327 8.03 6.37 12.89
12/21/2020 8:00:00 AM -0.06 31.892 0.327 8.03 6.74 12.89
12/21/2020 8:15:00 AM -0.06 31.892 0.328 8.03 6.52 12.89
12/21/2020 8:30:00 AM -0.06 31.892 0.328 8.03 6.25 12.91
12/21/2020 8:45:00 AM -0.06 31.892 0.329 8.03 6.67 12.92
12/21/2020 9:00:00 AM -0.06 31.892 0.329 8.04 6.41 12.94
12/21/2020 9:15:00 AM -0.06 31.892 0.328 8.04 6.64 12.97
12/21/2020 9:30:00 AM -0.06 31.892 0.328 8.04 6.95 13.01
12/21/2020 9:45:00 AM -0.06 31.892 0.327 8.05 7.22 13.05
12/21/2020 10:00:00 AM -0.06 31.892 0.327 8.05 6.79 13.09
12/21/2020 10:15:00 AM -0.06 31.892 0.327 8.05 7.33 13.13
12/21/2020 10:30:00 AM -0.06 31.892 0.326 8.06 7.59 13.18
12/21/2020 10:45:00 AM -0.06 31.892 0.326 8.07 7.78 13.22
12/21/2020 11:00:00 AM -0.06 31.892 0.326 8.07 7.79 13.27
12/21/2020 11:15:00 AM -0.06 31.892 0.326 8.08 7.17 13.31
12/21/2020 11:30:00 AM -0.06 31.892 0.327 8.09 7.95 13.36
12/21/2020 11:45:00 AM -0.06 31.892 0.326 8.09 7.57 13.4
12/21/2020 12:00:00 PM -0.06 31.892 0.326 8.1 9.4 13.43
12/21/2020 12:15:00 PM -0.06 31.892 0.326 8.1 9.31 13.48
12/21/2020 12:30:00 PM -0.06 31.892 0.325 8.11 9.19 13.52
12/21/2020 12:45:00 PM -0.06 31.892 0.325 8.12 9.73 13.56
12/21/2020 1:00:00 PM -0.06 31.892 0.324 8.13 8.34 13.61
12/21/2020 1:15:00 PM -0.06 31.892 0.323 8.13 9.27 13.64
12/21/2020 1:30:00 PM -0.06 31.892 0.323 8.14 7.84 13.67
12/21/2020 1:45:00 PM -0.06 31.892 0.322 8.14 9.86 13.71
12/21/2020 2:00:00 PM -0.06 31.892 0.321 8.15 8.73 13.74
12/21/2020 2:15:00 PM -0.06 31.892 0.321 8.16 9.54 13.76
12/21/2020 2:30:00 PM -0.06 31.892 0.32 8.16 9.12 13.79
12/21/2020 2:45:00 PM -0.06 31.892 0.32 8.17 9.14 13.8
12/21/2020 3:00:00 PM -0.06 31.892 0.32 8.17 7.41 13.82
12/21/2020 3:15:00 PM -0.06 31.892 0.32 8.17 8.41 13.82
12/21/2020 3:30:00 PM -0.06 31.892 0.32 8.18 7.73 13.81
12/21/2020 3:45:00 PM -0.06 31.892 0.319 8.18 9.73 13.8
12/21/2020 4:00:00 PM -0.06 31.892 0.319 8.17 7.06 13.77
12/21/2020 4:15:00 PM -0.06 31.892 0.319 8.17 7.63 13.74
12/21/2020 4:30:00 PM -0.06 31.892 0.319 8.17 7.36 13.7
12/21/2020 4:45:00 PM -0.06 31.892 0.319 8.17 7.52 13.68
12/21/2020 5:00:00 PM -0.06 31.892 0.319 8.16 6.65 13.64
12/21/2020 5:15:00 PM -0.06 31.892 0.319 8.16 7.43 13.6
12/21/2020 5:30:00 PM -0.06 31.892 0.319 8.16 6.87 13.57
12/21/2020 5:45:00 PM -0.06 31.892 0.319 8.15 7 13.54
12/21/2020 6:00:00 PM -0.06 31.892 0.319 8.15 7.9 13.51
12/21/2020 6:15:00 PM -0.06 31.892 0.319 8.15 7.75 13.48
12/21/2020 6:30:00 PM -0.06 31.892 0.32 8.14 6.73 13.46
12/21/2020 6:45:00 PM -0.06 31.892 0.319 8.14 7.33 13.44
12/21/2020 7:00:00 PM -0.06 31.892 0.319 8.14 6.89 13.41
12/21/2020 7:15:00 PM -0.06 31.892 0.32 8.14 6.99 13.39
12/21/2020 7:30:00 PM -0.06 31.892 0.32 8.13 6.86 13.38
12/21/2020 7:45:00 PM -0.06 31.892 0.32 8.13 6.14 13.36
12/21/2020 8:00:00 PM -0.06 31.892 0.32 8.13 6.13 13.35
12/21/2020 8:15:00 PM -0.06 31.892 0.32 8.13 6.93 13.33
12/21/2020 8:30:00 PM -0.06 31.892 0.32 8.12 6.9 13.31
12/21/2020 8:45:00 PM -0.06 31.892 0.32 8.12 6.77 13.3
12/21/2020 9:00:00 PM -0.06 31.892 0.32 8.12 7.12 13.27
12/21/2020 9:15:00 PM -0.06 31.892 0.32 8.12 9.31 13.26
12/21/2020 9:30:00 PM -0.06 31.892 0.32 8.11 6.39 13.26
12/21/2020 9:45:00 PM -0.06 31.892 0.32 8.11 6.5 13.24
12/21/2020 10:00:00 PM -0.06 31.892 0.32 8.11 7.65 13.24
12/21/2020 10:15:00 PM -0.06 31.892 0.32 8.11 6.6 13.24
12/21/2020 10:30:00 PM -0.06 31.892 0.319 8.11 7.68 13.22
12/21/2020 10:45:00 PM -0.06 31.892 0.319 8.11 6.79 13.22
12/21/2020 11:00:00 PM -0.06 31.892 0.319 8.11 7.36 13.22
12/21/2020 11:15:00 PM -0.06 31.892 0.319 8.11 7.25 13.22
12/21/2020 11:30:00 PM -0.06 31.892 0.319 8.1 8.25 13.22
12/21/2020 11:45:00 PM -0.06 31.892 0.319 8.1 6.92 13.21
12/22/2020 12:00:00 AM -0.06 31.892 0.319 8.1 8.08 13.21
12/22/2020 12:15:00 AM -0.06 31.892 0.319 8.1 7.56 13.22
12/22/2020 12:30:00 AM -0.06 31.892 0.319 8.1 7.77 13.21
12/22/2020 12:45:00 AM -0.06 31.892 0.319 8.11 7.44 13.2
12/22/2020 1:00:00 AM -0.06 31.892 0.319 8.1 7.39 13.21
12/22/2020 1:15:00 AM -0.06 31.892 0.319 8.1 7.36 13.2
12/22/2020 1:30:00 AM -0.06 31.892 0.319 8.1 7.07 13.2
12/22/2020 1:45:00 AM -0.06 31.892 0.319 8.1 7.12 13.21
12/22/2020 2:00:00 AM -0.06 31.892 0.319 8.1 8.06 13.2
12/22/2020 2:15:00 AM -0.06 31.892 0.319 8.1 7.35 13.21
12/22/2020 2:30:00 AM -0.06 31.892 0.319 8.1 7.89 13.21
12/22/2020 2:45:00 AM -0.06 31.892 0.318 8.1 8.54 13.2
12/22/2020 3:00:00 AM -0.06 31.892 0.318 8.1 7.08 13.19
12/22/2020 3:15:00 AM -0.05 31.91 0.318 8.1 7.19 13.19
12/22/2020 3:30:00 AM -0.05 31.91 0.318 8.1 8.17 13.19
12/22/2020 3:45:00 AM -0.05 31.91 0.318 8.1 7.47 13.19
12/22/2020 4:00:00 AM -0.05 31.91 0.318 8.1 6.92 13.18
12/22/2020 4:15:00 AM -0.05 31.91 0.318 8.1 7.04 13.18
12/22/2020 4:30:00 AM -0.05 31.91 0.318 8.1 7.51 13.18
12/22/2020 4:45:00 AM -0.05 31.91 0.318 8.1 7.11 13.17
12/22/2020 5:00:00 AM -0.05 31.91 0.318 8.1 7.67 13.18
12/22/2020 5:15:00 AM -0.05 31.91 0.318 8.1 8.93 13.18
12/22/2020 5:30:00 AM -0.05 31.91 0.318 8.1 8.48 13.17
12/22/2020 5:45:00 AM -0.05 31.91 0.318 8.1 8.61 13.17
12/22/2020 6:00:00 AM -0.05 31.91 0.318 8.1 7.57 13.16
12/22/2020 6:15:00 AM -0.05 31.91 0.318 8.1 8.73 13.17
12/22/2020 6:30:00 AM -0.05 31.91 0.318 8.1 8.34 13.16
12/22/2020 6:45:00 AM -0.05 31.91 0.318 8.1 8.72 13.16
12/22/2020 7:00:00 AM -0.05 31.91 0.318 8.1 7.26 13.16
12/22/2020 7:15:00 AM -0.05 31.91 0.318 8.1 8.66 13.16
12/22/2020 7:30:00 AM -0.05 31.91 0.318 8.1 8.9 13.17
12/22/2020 7:45:00 AM -0.05 31.91 0.318 8.1 8.02 13.17
12/22/2020 8:00:00 AM -0.05 31.91 0.318 8.1 8.48 13.18
12/22/2020 8:15:00 AM -0.05 31.91 0.318 8.1 9.1 13.19
12/22/2020 8:30:00 AM -0.05 31.91 0.318 8.11 7.7 13.22
12/22/2020 8:45:00 AM -0.05 31.91 0.318 8.11 10.76 13.25
12/22/2020 9:00:00 AM -0.05 31.91 0.318 8.11 8.4 13.26
12/22/2020 9:15:00 AM -0.05 31.91 0.318 8.11 8.69 13.29
12/22/2020 9:30:00 AM -0.04 31.928 0.317 8.12 8.23 13.32
12/22/2020 9:45:00 AM -0.04 31.928 0.317 8.13 12.4 13.37
12/22/2020 10:00:00 AM -0.04 31.928 0.317 8.14 8.5 13.44
12/22/2020 10:15:00 AM -0.04 31.928 0.317 8.14 10.55 13.46
12/22/2020 10:30:00 AM -0.04 31.928 0.317 8.15 8.34 13.49
12/22/2020 10:45:00 AM -0.04 31.928 0.317 8.15 9.53 13.5
12/22/2020 11:00:00 AM -0.04 31.928 0.316 8.16 9.29 13.52
12/22/2020 11:15:00 AM -0.04 31.928 0.316 8.16 8.67 13.58
12/22/2020 11:30:00 AM -0.03 31.946 0.316 8.17 8.97 13.63
12/22/2020 11:45:00 AM -0.03 31.946 0.315 8.18 9.58 13.67
12/22/2020 12:00:00 PM -0.03 31.946 0.315 8.18 9.03 13.7
12/22/2020 12:15:00 PM -0.03 31.946 0.315 8.19 10.34 13.73
12/22/2020 12:30:00 PM -0.03 31.946 0.315 8.2 8.94 13.75
12/22/2020 12:45:00 PM -0.03 31.946 0.316 8.2 10.47 13.77
12/22/2020 1:00:00 PM -0.03 31.946 0.316 8.2 9.22 13.79
12/22/2020 1:15:00 PM -0.03 31.946 0.316 8.21 8.85 13.82
12/22/2020 1:30:00 PM -0.03 31.946 0.316 8.22 7.66 13.85
12/22/2020 1:45:00 PM -0.03 31.946 0.315 8.22 8.27 13.85
12/22/2020 2:00:00 PM -0.04 31.928 0.315 8.21 7.79 13.84
12/22/2020 2:15:00 PM -0.03 31.946 0.315 8.22 7.59 13.85
12/22/2020 2:30:00 PM -0.03 31.946 0.315 8.23 6.8 13.87
12/22/2020 2:45:00 PM -0.03 31.946 0.314 8.23 6.61 13.89
12/22/2020 3:00:00 PM -0.03 31.946 0.314 8.23 6.94 13.89
12/22/2020 3:15:00 PM -0.03 31.946 0.314 8.24 7.04 13.89
12/22/2020 3:30:00 PM -0.03 31.946 0.314 8.24 6.62 13.9
12/22/2020 3:45:00 PM -0.04 31.928 0.313 8.24 7.05 13.89
12/22/2020 4:00:00 PM -0.04 31.928 0.313 8.24 7.45 13.88
12/22/2020 4:15:00 PM -0.04 31.928 0.313 8.23 8.48 13.87
12/22/2020 4:30:00 PM -0.04 31.928 0.313 8.23 9.13 13.85
12/22/2020 4:45:00 PM -0.04 31.928 0.313 8.23 7.22 13.82
12/22/2020 5:00:00 PM -0.04 31.928 0.313 8.23 6.58 13.8
12/22/2020 5:15:00 PM -0.04 31.928 0.313 8.22 7.45 13.77
12/22/2020 5:30:00 PM -0.04 31.928 0.313 8.22 7.23 13.74
12/22/2020 5:45:00 PM -0.04 31.928 0.312 8.21 7.54 13.72
12/22/2020 6:00:00 PM -0.04 31.928 0.312 8.21 6.88 13.68
12/22/2020 6:15:00 PM -0.04 31.928 0.312 8.21 7.93 13.67
12/22/2020 6:30:00 PM -0.04 31.928 0.312 8.2 7.58 13.67
12/22/2020 6:45:00 PM -0.04 31.928 0.312 8.2 8.01 13.66
12/22/2020 7:00:00 PM -0.05 31.91 0.312 8.2 7.25 13.64
12/22/2020 7:15:00 PM -0.04 31.928 0.312 8.2 6.02 13.64
12/22/2020 7:30:00 PM -0.04 31.928 0.312 8.2 6.45 13.63
12/22/2020 7:45:00 PM -0.04 31.928 0.312 8.2 7.21 13.63
12/22/2020 8:00:00 PM -0.04 31.928 0.312 8.19 7.09 13.62
12/22/2020 8:15:00 PM -0.04 31.928 0.312 8.19 6.35 13.61
12/22/2020 8:30:00 PM -0.04 31.928 0.312 8.19 6.55 13.61
12/22/2020 8:45:00 PM -0.04 31.928 0.312 8.19 6.91 13.6
12/22/2020 9:00:00 PM -0.04 31.928 0.312 8.19 6.23 13.59
12/22/2020 9:15:00 PM -0.04 31.928 0.311 8.19 6.83 13.6
12/22/2020 9:30:00 PM -0.04 31.928 0.311 8.18 7.05 13.59
12/22/2020 9:45:00 PM -0.04 31.928 0.311 8.18 7.02 13.59
12/22/2020 10:00:00 PM -0.05 31.91 0.311 8.18 7.31 13.6
12/22/2020 10:15:00 PM -0.05 31.91 0.311 8.18 7.47 13.59
12/22/2020 10:30:00 PM -0.05 31.91 0.311 8.18 7.61 13.61
12/22/2020 10:45:00 PM -0.05 31.91 0.311 8.18 7.06 13.61
12/22/2020 11:00:00 PM -0.05 31.91 0.312 8.18 6.49 13.62
12/22/2020 11:15:00 PM -0.05 31.91 0.312 8.18 6.71 13.62
12/22/2020 11:30:00 PM -0.05 31.91 0.312 8.18 7.11 13.61
12/22/2020 11:45:00 PM -0.05 31.91 0.312 8.18 6.49 13.63
12/23/2020 12:00:00 AM -0.05 31.91 0.312 8.18 6.37 13.63
12/23/2020 12:15:00 AM -0.05 31.91 0.312 8.18 6.38 13.64
12/23/2020 12:30:00 AM -0.05 31.91 0.312 8.18 6.59 13.63
12/23/2020 12:45:00 AM -0.05 31.91 0.312 8.18 8.38 13.63
12/23/2020 1:00:00 AM -0.05 31.91 0.312 8.18 6.65 13.63
12/23/2020 1:15:00 AM -0.05 31.91 0.312 8.18 6.54 13.64
12/23/2020 1:30:00 AM -0.05 31.91 0.312 8.18 6.43 13.64
12/23/2020 1:45:00 AM -0.05 31.91 0.312 8.18 8.32 13.64
12/23/2020 2:00:00 AM -0.04 31.928 0.312 8.18 6.24 13.65
12/23/2020 2:15:00 AM -0.04 31.928 0.312 8.18 6.55 13.65
12/23/2020 2:30:00 AM -0.04 31.928 0.312 8.18 6.75 13.65
12/23/2020 2:45:00 AM -0.04 31.928 0.312 8.17 7.49 13.64
12/23/2020 3:00:00 AM -0.04 31.928 0.312 8.17 6.59 13.64
12/23/2020 3:15:00 AM -0.04 31.928 0.312 8.17 6.39 13.65
12/23/2020 3:30:00 AM -0.04 31.928 0.312 8.17 6.27 13.65
12/23/2020 3:45:00 AM -0.05 31.91 0.313 8.17 7.59 13.67
12/23/2020 4:00:00 AM -0.05 31.91 0.312 8.17 7.22 13.67
12/23/2020 4:15:00 AM -0.05 31.91 0.313 8.17 6.95 13.67
12/23/2020 4:30:00 AM -0.05 31.91 0.313 8.17 6.32 13.67
12/23/2020 4:45:00 AM -0.05 31.91 0.313 8.17 6.21 13.67
12/23/2020 5:00:00 AM -0.05 31.91 0.313 8.17 6.47 13.66
12/23/2020 5:15:00 AM -0.05 31.91 0.313 8.17 5.94 13.67
12/23/2020 5:30:00 AM -0.05 31.91 0.313 8.17 6.01 13.66
12/23/2020 5:45:00 AM -0.05 31.91 0.313 8.17 6.13 13.67
12/23/2020 6:00:00 AM -0.05 31.91 0.313 8.17 6.2 13.67
12/23/2020 6:15:00 AM -0.05 31.91 0.313 8.16 6.15 13.67
12/23/2020 6:30:00 AM -0.05 31.91 0.313 8.16 6.23 13.68
12/23/2020 6:45:00 AM -0.05 31.91 0.313 8.17 6.43 13.68
12/23/2020 7:00:00 AM -0.05 31.91 0.313 8.16 6.43 13.68
12/23/2020 7:15:00 AM -0.05 31.91 0.313 8.16 6.11 13.69
12/23/2020 7:30:00 AM -0.06 31.892 0.313 8.16 5.86 13.7
12/23/2020 7:45:00 AM -0.06 31.892 0.313 8.16 5.68 13.7
12/23/2020 8:00:00 AM -0.06 31.892 0.313 8.17 5.99 13.72
12/23/2020 8:15:00 AM -0.06 31.892 0.313 8.17 6.08 13.75
12/23/2020 8:30:00 AM -0.06 31.892 0.313 8.17 6 13.78
12/23/2020 8:45:00 AM -0.05 31.91 0.313 8.17 6.8 13.82
12/23/2020 9:00:00 AM -0.05 31.91 0.313 8.18 6.42 13.85
12/23/2020 9:15:00 AM -0.04 31.928 0.313 8.18 6.54 13.89
12/23/2020 9:30:00 AM -0.04 31.928 0.313 8.19 6.24 13.93
12/23/2020 9:45:00 AM -0.03 31.946 0.313 8.2 6.32 13.97
12/23/2020 10:00:00 AM -0.02 31.964 0.313 8.2 6.2 14.01
12/23/2020 10:15:00 AM -0.02 31.964 0.313 8.21 7.07 14.06
12/23/2020 10:30:00 AM -0.01 31.982 0.313 8.22 6.29 14.1
12/23/2020 10:45:00 AM 0 32 0.312 8.23 6.51 14.15
12/23/2020 11:00:00 AM 0.01 32.018 0.312 8.24 6.28 14.2
12/23/2020 11:15:00 AM 0.02 32.036 0.312 8.25 7.62 14.24
12/23/2020 11:30:00 AM 0.02 32.036 0.311 8.25 7.33 14.29
12/23/2020 11:45:00 AM 0.04 32.072 0.311 8.25 8.24 14.31
12/23/2020 12:00:00 PM 0.07 32.126 0.31 8.27 7.4 14.35
12/23/2020 12:15:00 PM 0.07 32.126 0.31 8.28 7.27 14.36
12/23/2020 12:30:00 PM 0.07 32.126 0.31 8.28 7.17 14.39
12/23/2020 12:45:00 PM 0.07 32.126 0.31 8.29 6.89 14.43
12/23/2020 1:00:00 PM 0.06 32.108 0.31 8.3 7.34 14.44
12/23/2020 1:15:00 PM 0.06 32.108 0.311 8.3 8.73 14.45
12/23/2020 1:30:00 PM 0.05 32.09 0.321 8.31 9.28 14.46
12/23/2020 1:45:00 PM 0.05 32.09 0.333 8.31 8.29 14.49
12/23/2020 2:00:00 PM 0.04 32.072 0.339 8.32 10.49 14.48
12/23/2020 2:15:00 PM 0.04 32.072 0.339 8.33 11.27 14.5
12/23/2020 2:30:00 PM 0.04 32.072 0.337 8.33 7.24 14.48
12/23/2020 2:45:00 PM 0.04 32.072 0.333 8.33 7.73 14.48
12/23/2020 3:00:00 PM 0.03 32.054 0.329 8.34 9.53 14.48
12/23/2020 3:15:00 PM 0.03 32.054 0.324 8.34 11.03 14.47
12/23/2020 3:30:00 PM 0.02 32.036 0.32 8.34 12.09 14.45
12/23/2020 3:45:00 PM 0.02 32.036 0.317 8.34 9.48 14.42
12/23/2020 4:00:00 PM 0.01 32.018 0.315 8.34 8.54 14.38
12/23/2020 4:15:00 PM 0 32 0.313 8.33 8.8 14.33
12/23/2020 4:30:00 PM 0 32 0.312 8.33 12.63 14.28
12/23/2020 4:45:00 PM -0.01 31.982 0.311 8.32 10.19 14.23
12/23/2020 5:00:00 PM -0.02 31.964 0.311 8.31 8.09 14.19
12/23/2020 5:15:00 PM -0.02 31.964 0.31 8.3 9.34 14.13
12/23/2020 5:30:00 PM -0.01 31.982 0.31 8.29 7.61 14.08
12/23/2020 5:45:00 PM -0.01 31.982 0.31 8.29 7.44 14.05
12/23/2020 6:00:00 PM 0 32 0.31 8.28 9.05 14.01
12/23/2020 6:15:00 PM 0 32 0.31 8.28 19.33 13.99
12/23/2020 6:30:00 PM 0 32 0.31 8.27 8.7 13.95
12/23/2020 6:45:00 PM -0.01 31.982 0.31 8.27 9.28 13.94
12/23/2020 7:00:00 PM -0.01 31.982 0.31 8.26 8.02 13.92
12/23/2020 7:15:00 PM -0.01 31.982 0.31 8.26 10.14 13.9
12/23/2020 7:30:00 PM 0 32 0.31 8.26 7.54 13.89
12/23/2020 7:45:00 PM 0 32 0.31 8.26 9.85 13.89
12/23/2020 8:00:00 PM 0 32 0.31 8.25 18.86 13.86
12/23/2020 8:15:00 PM 0 32 0.31 8.25 22.34 13.84
12/23/2020 8:30:00 PM 0 32 0.31 8.23 30.73 13.85
12/23/2020 8:45:00 PM 0 32 0.309 8.24 11.46 13.83
12/23/2020 9:00:00 PM 0 32 0.309 8.24 11.18 13.82
12/23/2020 9:15:00 PM -0.01 31.982 0.31 8.24 11.3 13.82
12/23/2020 9:30:00 PM -0.01 31.982 0.309 8.23 7.31 13.8
12/23/2020 9:45:00 PM 0 32 0.309 8.23 11 13.8
12/23/2020 10:00:00 PM 0 32 0.309 8.23 8.84 13.8
12/23/2020 10:15:00 PM 0 32 0.309 8.23 8.47 13.8
12/23/2020 10:30:00 PM 0.01 32.018 0.309 8.22 8.69 13.78
12/23/2020 10:45:00 PM 0.01 32.018 0.309 8.22 11.97 13.79
12/23/2020 11:00:00 PM 0.01 32.018 0.309 8.22 6.65 13.78
12/23/2020 11:15:00 PM 0.01 32.018 0.309 8.22 6.74 13.77
12/23/2020 11:30:00 PM 0.01 32.018 0.309 8.22 13.14 13.78
12/23/2020 11:45:00 PM 0.01 32.018 0.308 8.21 9.15 13.78
12/24/2020 12:00:00 AM 0.01 32.018 0.309 8.22 7.79 13.76
12/24/2020 12:15:00 AM 0.02 32.036 0.308 8.22 13.4 13.75
12/24/2020 12:30:00 AM 0.02 32.036 0.308 8.22 19.76 13.75
12/24/2020 12:45:00 AM 0.02 32.036 0.308 8.22 6.48 13.75
12/24/2020 1:00:00 AM 0.02 32.036 0.308 8.21 12.31 13.74
12/24/2020 1:15:00 AM 0.02 32.036 0.308 8.22 9.72 13.74
12/24/2020 1:30:00 AM 0.02 32.036 0.308 8.21 13.01 13.73
12/24/2020 1:45:00 AM 0.02 32.036 0.308 8.2 10.07 13.73
12/24/2020 2:00:00 AM 0.02 32.036 0.308 8.21 9.64 13.73
12/24/2020 2:15:00 AM 0.02 32.036 0.308 8.22 11.37 13.73
12/24/2020 2:30:00 AM 0.02 32.036 0.308 8.21 11.36 13.73
12/24/2020 2:45:00 AM 0.02 32.036 0.308 8.21 8.74 13.71
12/24/2020 3:00:00 AM 0.02 32.036 0.308 8.21 7.61 13.71
12/24/2020 3:15:00 AM 0.02 32.036 0.308 8.21 7.77 13.72
12/24/2020 3:30:00 AM 0.03 32.054 0.308 8.21 10.4 13.7
12/24/2020 3:45:00 AM 0.03 32.054 0.308 8.21 9.6 13.71
12/24/2020 4:00:00 AM 0.03 32.054 0.308 8.21 11.58 13.69
12/24/2020 4:15:00 AM 0.04 32.072 0.308 8.21 7.8 13.69
12/24/2020 4:30:00 AM 0.03 32.054 0.308 8.2 7.68 13.68
12/24/2020 4:45:00 AM 0.04 32.072 0.308 8.21 8.77 13.68
12/24/2020 5:00:00 AM 0.05 32.09 0.308 8.2 10.82 13.67
12/24/2020 5:15:00 AM 0.05 32.09 0.308 8.21 9.64 13.68
12/24/2020 5:30:00 AM 0.06 32.108 0.308 8.21 9.13 13.67
12/24/2020 5:45:00 AM 0.07 32.126 0.308 8.2 11.24 13.67
12/24/2020 6:00:00 AM 0.07 32.126 0.308 8.2 9.67 13.67
12/24/2020 6:15:00 AM 0.08 32.144 0.308 8.2 8.7 13.66
12/24/2020 6:30:00 AM 0.08 32.144 0.308 8.2 13.21 13.64
12/24/2020 6:45:00 AM 0.09 32.162 0.308 8.21 8.67 13.63
12/24/2020 7:00:00 AM 0.09 32.162 0.308 8.21 8.41 13.64
12/24/2020 7:15:00 AM 0.09 32.162 0.311 8.21 7.44 13.64
12/24/2020 7:30:00 AM 0.1 32.18 0.326 8.21 7.49 13.62
12/24/2020 7:45:00 AM 0.1 32.18 0.341 8.21 7.48 13.63
12/24/2020 8:00:00 AM 0.11 32.198 0.342 8.21 8.06 13.63
12/24/2020 8:15:00 AM 0.11 32.198 0.334 8.21 7.46 13.64
12/24/2020 8:30:00 AM 0.12 32.216 0.325 8.21 7.23 13.64
12/24/2020 8:45:00 AM 0.13 32.234 0.319 8.22 6.6 13.67
12/24/2020 9:00:00 AM 0.14 32.252 0.315 8.23 7.5 13.67
12/24/2020 9:15:00 AM 0.15 32.27 0.312 8.23 7.16 13.71
12/24/2020 9:30:00 AM 0.15 32.27 0.31 8.24 7.02 13.73
12/24/2020 9:45:00 AM 0.16 32.288 0.309 8.24 6.91 13.75
12/24/2020 10:00:00 AM 0.17 32.306 0.308 8.25 7.31 13.78
12/24/2020 10:15:00 AM 0.17 32.306 0.307 8.25 7.86 13.79
12/24/2020 10:30:00 AM 0.19 32.342 0.307 8.25 9.27 13.81
12/24/2020 10:45:00 AM 0.21 32.378 0.306 8.26 8.22 13.86
12/24/2020 11:00:00 AM 0.22 32.396 0.305 8.27 8.3 13.87
12/24/2020 11:15:00 AM 0.24 32.432 0.305 8.28 9.04 13.9
12/24/2020 11:30:00 AM 0.25 32.45 0.304 8.28 9.31 13.92
12/24/2020 11:45:00 AM 0.28 32.504 0.304 8.29 8.57 13.96
12/24/2020 12:00:00 PM 0.29 32.522 0.303 8.3 8.79 13.96
12/24/2020 12:15:00 PM 0.3 32.54 0.304 8.3 13.45 13.98
12/24/2020 12:30:00 PM 0.31 32.558 0.321 8.31 9.88 13.99
12/24/2020 12:45:00 PM 0.31 32.558 0.329 8.31 9.65 14
12/24/2020 1:00:00 PM 0.32 32.576 0.325 8.32 10.16 14
12/24/2020 1:15:00 PM 0.33 32.594 0.318 8.32 9.98 13.99
12/24/2020 1:30:00 PM 0.34 32.612 0.312 8.32 9.3 13.96
12/24/2020 1:45:00 PM 0.34 32.612 0.307 8.32 10.55 13.94
12/24/2020 2:00:00 PM 0.35 32.63 0.303 8.32 10.68 13.93
12/24/2020 2:15:00 PM 0.35 32.63 0.301 8.32 10.49 13.9
12/24/2020 2:30:00 PM 0.35 32.63 0.299 8.32 11.1 13.86
12/24/2020 2:45:00 PM 0.36 32.648 0.298 8.31 12.03 13.84
12/24/2020 3:00:00 PM 0.36 32.648 0.296 8.3 11.46 13.8
12/24/2020 3:15:00 PM 0.37 32.666 0.295 8.3 16.9 13.77
12/24/2020 3:30:00 PM 0.39 32.702 0.294 8.29 23.78 13.74
12/24/2020 3:45:00 PM 0.38 32.684 0.292 8.28 14.15 13.68
12/24/2020 4:00:00 PM 0.38 32.684 0.291 8.27 11.8 13.65
12/24/2020 4:15:00 PM 0.4 32.72 0.29 8.26 13.78 13.62
12/24/2020 4:30:00 PM 0.4 32.72 0.289 8.25 16.2 13.58
12/24/2020 4:45:00 PM 0.38 32.684 0.289 8.24 15.49 13.55
12/24/2020 5:00:00 PM 0.37 32.666 0.289 8.23 20.42 13.51
12/24/2020 5:15:00 PM 0.36 32.648 0.289 8.21 32.05 13.48
12/24/2020 5:30:00 PM 0.34 32.612 0.289 8.2 24.98 13.46
12/24/2020 5:45:00 PM 0.33 32.594 0.288 8.19 48.27 13.45
12/24/2020 6:00:00 PM 0.32 32.576 0.286 8.17 55.68 13.44
12/24/2020 6:15:00 PM 0.32 32.576 0.282 8.17 58.6 13.42
12/24/2020 6:30:00 PM 0.31 32.558 0.278 8.15 95.68 13.39
12/24/2020 6:45:00 PM 0.3 32.54 0.274 8.14 41.69 13.38
12/24/2020 7:00:00 PM 0.3 32.54 0.27 8.13 65 13.39
12/24/2020 7:15:00 PM 0.28 32.504 0.266 8.12 61.23 13.38
12/24/2020 7:30:00 PM 0.3 32.54 0.259 8.1 81.87 13.38
12/24/2020 7:45:00 PM 0.28 32.504 0.253 8.09 74.73 13.36
12/24/2020 8:00:00 PM 0.29 32.522 0.246 8.08 81.28 13.37
12/24/2020 8:15:00 PM 0.29 32.522 0.24 8.06 183.99 13.34
12/24/2020 8:30:00 PM 0.28 32.504 0.234 8.04 143.58 13.33
12/24/2020 8:45:00 PM 0.31 32.558 0.225 8.02 142.78 13.34
12/24/2020 9:00:00 PM 0.31 32.558 0.218 8 170.02 13.34
12/24/2020 9:15:00 PM 0.32 32.576 0.211 7.98 186.1 13.32
12/24/2020 9:30:00 PM 0.33 32.594 0.205 7.96 141.57 13.3
12/24/2020 9:45:00 PM 0.33 32.594 0.2 7.93 175.96 13.29
12/24/2020 10:00:00 PM 0.33 32.594 0.193 7.93 154.94 13.31
12/24/2020 10:15:00 PM 0.34 32.612 0.186 7.9 201.83 13.29
12/24/2020 10:30:00 PM 0.36 32.648 0.18 7.89 193.91 13.3
12/24/2020 10:45:00 PM 0.37 32.666 0.174 7.87 203.97 13.3
12/24/2020 11:00:00 PM 0.37 32.666 0.159 7.85 203.89 13.3
12/24/2020 11:15:00 PM 0.39 32.702 0.155 7.85 205.32 13.3
12/24/2020 11:30:00 PM 0.4 32.72 0.153 7.83 209.19 13.29
12/24/2020 11:45:00 PM 0.43 32.774 0.148 7.83 218.55 13.3
12/25/2020 12:00:00 AM 0.46 32.828 0.147 7.83 221.56 13.28
12/25/2020 12:15:00 AM 0.47 32.846 0.144 7.83 223.72 13.27
12/25/2020 12:30:00 AM 0.51 32.918 0.142 7.82 241.69 13.25
12/25/2020 12:45:00 AM 0.55 32.99 0.14 7.81 208.57 13.24
12/25/2020 1:00:00 AM 0.58 33.044 0.136 7.79 214.04 13.23
12/25/2020 1:15:00 AM 0.61 33.098 0.134 7.78 209.08 13.21
12/25/2020 1:30:00 AM 0.64 33.152 0.131 7.78 193.77 13.19
12/25/2020 1:45:00 AM 0.68 33.224 0.129 7.77 199.04 13.18
12/25/2020 2:00:00 AM 0.72 33.296 0.127 7.78 191.67 13.17
12/25/2020 2:15:00 AM 0.77 33.386 0.125 7.76 186.66 13.16
12/25/2020 2:30:00 AM 0.81 33.458 0.123 7.8 198.23 13.14
12/25/2020 2:45:00 AM 0.86 33.548 0.121 7.78 182.57 13.12
12/25/2020 3:00:00 AM 0.93 33.674 0.12 7.74 180.1 13.1
12/25/2020 3:15:00 AM 1.01 33.818 0.119 7.74 158.57 13.08
12/25/2020 3:30:00 AM 1.11 33.998 0.118 7.76 152.88 13.06
12/25/2020 3:45:00 AM 1.28 34.304 0.116 7.76 141.87 13.02
12/25/2020 4:00:00 AM 1.38 34.484 0.116 7.77 138.44 12.98
12/25/2020 4:15:00 AM 1.49 34.682 0.115 7.75 128.09 12.96
12/25/2020 4:30:00 AM 1.59 34.862 0.115 7.76 123.83 12.93
12/25/2020 4:45:00 AM 1.68 35.024 0.114 7.75 124.35 12.9
12/25/2020 5:00:00 AM 1.76 35.168 0.113 7.75 124.34 12.87
12/25/2020 5:15:00 AM 1.83 35.294 0.112 7.74 119.67 12.85
12/25/2020 5:30:00 AM 1.9 35.42 0.112 7.75 115.23 12.83
12/25/2020 5:45:00 AM 1.97 35.546 0.111 7.74 116.62 12.8
12/25/2020 6:00:00 AM 2.03 35.654 0.112 7.74 97.04 12.79
12/25/2020 6:15:00 AM 2.09 35.762 0.112 7.73 115.98 12.77
12/25/2020 6:30:00 AM 2.15 35.87 0.112 7.73 101.55 12.75
12/25/2020 6:45:00 AM 2.23 36.014 0.112 7.73 88.16 12.72
12/25/2020 7:00:00 AM 2.3 36.14 0.112 7.72 83.12 12.7
12/25/2020 7:15:00 AM 2.34 36.212 0.112 7.72 100.4 12.68
12/25/2020 7:30:00 AM 2.4 36.32 0.112 7.72 88.14 12.66
12/25/2020 7:45:00 AM 2.45 36.41 0.112 7.72 93.46 12.64
12/25/2020 8:00:00 AM 2.5 36.5 0.113 7.71 86.48 12.63
12/25/2020 8:15:00 AM 2.53 36.554 0.113 7.71 87.32 12.61
12/25/2020 8:30:00 AM 2.57 36.626 0.113 7.71 93.23 12.6
12/25/2020 8:45:00 AM 2.62 36.716 0.112 7.71 85.83 12.59
12/25/2020 9:00:00 AM 2.66 36.788 0.112 7.7 85.47 12.57
12/25/2020 9:15:00 AM 2.7 36.86 0.111 7.69 85.86 12.55
12/25/2020 9:30:00 AM 2.72 36.896 0.111 7.69 79.52 12.55
12/25/2020 9:45:00 AM 2.74 36.932 0.11 7.71 91.01 12.54
12/25/2020 10:00:00 AM 2.74 36.932 0.11 7.7 80.56 12.54
12/25/2020 10:15:00 AM 2.73 36.914 0.11 7.68 78.72 12.54
12/25/2020 10:30:00 AM 2.73 36.914 0.11 7.62 73.54 12.53
12/25/2020 10:45:00 AM 2.73 36.914 0.11 7.65 68.73 12.52
12/25/2020 11:00:00 AM 2.73 36.914 0.11 7.65 107.6 12.52
12/25/2020 11:15:00 AM 2.72 36.896 0.11 7.64 75.6 12.52
12/25/2020 11:30:00 AM 2.71 36.878 0.11 7.67 64.54 12.51
12/25/2020 11:45:00 AM 2.7 36.86 0.11 7.62 700.39 12.51
12/25/2020 12:00:00 PM 2.69 36.842 0.111 7.63 163.07 12.51
12/25/2020 12:15:00 PM 2.66 36.788 0.111 7.62 107.74 12.5
12/25/2020 12:30:00 PM 2.63 36.734 0.112 7.64 53.32 12.51
12/25/2020 12:45:00 PM 2.58 36.644 0.111 7.65 50.77 12.5
12/25/2020 1:00:00 PM 2.53 36.554 0.112 7.63 62.24 12.5
12/25/2020 1:15:00 PM 2.5 36.5 0.113 7.66 48.57 12.51
12/25/2020 1:30:00 PM 2.45 36.41 0.113 7.64 53.63 12.52
12/25/2020 1:45:00 PM 2.4 36.32 0.113 7.64 50.41 12.53
12/25/2020 2:00:00 PM 2.35 36.23 0.114 7.64 48.18 12.53
12/25/2020 2:15:00 PM 2.3 36.14 0.114 7.64 45.15 12.55
12/25/2020 2:30:00 PM 2.26 36.068 0.115 7.63 51.75 12.56
12/25/2020 2:45:00 PM 2.21 35.978 0.115 7.62 60.11 12.57
12/25/2020 3:00:00 PM 2.16 35.888 0.115 7.62 118.71 12.58
12/25/2020 3:15:00 PM 2.12 35.816 0.115 7.62 67.83 12.59
12/25/2020 3:30:00 PM 2.07 35.726 0.114 7.62 68.36 12.6
12/25/2020 3:45:00 PM 2.01 35.618 0.116 7.62 66.55 12.61
12/25/2020 4:00:00 PM 1.96 35.528 0.116 7.58 64.2 12.62
12/25/2020 4:15:00 PM 1.91 35.438 0.117 7.61 43.48 12.62
12/25/2020 4:30:00 PM 1.86 35.348 0.116 7.6 46.61 12.64
12/25/2020 4:45:00 PM 1.8 35.24 0.117 7.61 35.67 12.64
12/25/2020 5:00:00 PM 1.75 35.15 0.116 7.6 43.06 12.65
12/25/2020 5:15:00 PM 1.69 35.042 0.117 7.6 50.48 12.67
12/25/2020 5:30:00 PM 1.64 34.952 0.117 7.6 63.35 12.68
12/25/2020 5:45:00 PM 1.58 34.844 0.117 7.59 46.9 12.69
12/25/2020 6:00:00 PM 1.53 34.754 0.117 7.59 39.72 12.71
12/25/2020 6:15:00 PM 1.48 34.664 0.116 7.59 43.73 12.71
12/25/2020 6:30:00 PM 1.43 34.574 0.116 7.58 41.35 12.72
12/25/2020 6:45:00 PM 1.38 34.484 0.116 7.58 47.06 12.74
12/25/2020 7:00:00 PM 1.33 34.394 0.116 7.57 50.93 12.74
12/25/2020 7:15:00 PM 1.29 34.322 0.116 7.57 47.72 12.76
12/25/2020 7:30:00 PM 1.25 34.25 0.115 7.56 46.97 12.76
12/25/2020 7:45:00 PM 1.21 34.178 0.115 7.56 46.36 12.77
12/25/2020 8:00:00 PM 1.17 34.106 0.115 7.57 49.26 12.78
12/25/2020 8:15:00 PM 1.14 34.052 0.115 7.56 52.17 12.78
12/25/2020 8:30:00 PM 1.11 33.998 0.114 7.57 44.01 12.8
12/25/2020 8:45:00 PM 1.08 33.944 0.114 7.56 53.04 12.8
12/25/2020 9:00:00 PM 1.05 33.89 0.114 7.57 45.61 12.81
12/25/2020 9:15:00 PM 1 33.8 0.114 7.56 38.77 12.81
12/25/2020 9:30:00 PM 0.96 33.728 0.114 7.56 43.09 12.82
12/25/2020 9:45:00 PM 0.93 33.674 0.114 7.55 55.99 12.82
12/25/2020 10:00:00 PM 0.9 33.62 0.113 7.54 46.27 12.83
12/25/2020 10:15:00 PM 0.87 33.566 0.114 7.53 47.67 12.84
12/25/2020 10:30:00 PM 0.83 33.494 0.114 7.52 49.01 12.85
12/25/2020 10:45:00 PM 0.79 33.422 0.114 7.51 42.99 12.86
12/25/2020 11:00:00 PM 0.76 33.368 0.114 7.51 44.09 12.86
12/25/2020 11:15:00 PM 0.73 33.314 0.114 7.54 45.41 12.87
12/25/2020 11:30:00 PM 0.7 33.26 0.114 7.51 94.82 12.88
12/25/2020 11:45:00 PM 0.67 33.206 0.114 7.52 79.26 12.88
12/26/2020 12:00:00 AM 0.65 33.17 0.114 7.5 92.29 12.89
12/26/2020 12:15:00 AM 0.63 33.134 0.114 7.49 102.3 12.9
12/26/2020 12:30:00 AM 0.61 33.098 0.114 7.5 101.21 12.9
12/26/2020 12:45:00 AM 0.59 33.062 0.114 7.49 61.16 12.9
12/26/2020 1:00:00 AM 0.58 33.044 0.114 7.5 53.44 12.9
12/26/2020 1:15:00 AM 0.56 33.008 0.114 7.5 62.21 12.9
12/26/2020 1:30:00 AM 0.54 32.972 0.115 7.49 50.52 12.91
12/26/2020 1:45:00 AM 0.52 32.936 0.115 7.49 40.15 12.91
12/26/2020 2:00:00 AM 0.5 32.9 0.115 7.51 48.97 12.91
12/26/2020 2:15:00 AM 0.48 32.864 0.115 7.49 47.26 12.91
12/26/2020 2:30:00 AM 0.45 32.81 0.115 7.48 55.73 12.92
12/26/2020 2:45:00 AM 0.43 32.774 0.115 7.47 47.89 12.91
12/26/2020 3:00:00 AM 0.41 32.738 0.116 7.48 50.16 12.92
12/26/2020 3:15:00 AM 0.39 32.702 0.116 7.48 53.04 12.92
12/26/2020 3:30:00 AM 0.37 32.666 0.116 7.49 52.28 12.93
12/26/2020 3:45:00 AM 0.35 32.63 0.116 7.51 45.45 12.93
12/26/2020 4:00:00 AM 0.33 32.594 0.116 7.5 57.74 12.93
12/26/2020 4:15:00 AM 0.32 32.576 0.116 7.47 118.25 12.92
12/26/2020 4:30:00 AM 0.3 32.54 0.116 7.42 53.21 12.93
12/26/2020 4:45:00 AM 0.29 32.522 0.116 7.47 48.32 12.93
12/26/2020 5:00:00 AM 0.28 32.504 0.116 7.45 60.59 12.93
12/26/2020 5:15:00 AM 0.27 32.486 0.117 7.46 566.17 12.92
12/26/2020 5:30:00 AM 0.26 32.468 0.116 7.44 59.41 12.93
12/26/2020 5:45:00 AM 0.26 32.468 0.117 7.46 53.84 12.93
12/26/2020 6:00:00 AM 0.25 32.45 0.117 7.47 53.74 12.94
12/26/2020 6:15:00 AM 0.25 32.45 0.117 7.48 46.25 12.94
12/26/2020 6:30:00 AM 0.25 32.45 0.117 7.47 49.91 12.93
12/26/2020 6:45:00 AM 0.24 32.432 0.117 7.46 44.81 12.93
12/26/2020 7:00:00 AM 0.24 32.432 0.117 7.47 47.82 12.94
12/26/2020 7:15:00 AM 0.24 32.432 0.117 7.47 44.51 12.94
12/26/2020 7:30:00 AM 0.23 32.414 0.117 7.46 44.49 12.94
12/26/2020 7:45:00 AM 0.23 32.414 0.117 7.48 41.39 12.93
12/26/2020 8:00:00 AM 0.23 32.414 0.117 7.48 39.08 12.94
12/26/2020 8:15:00 AM 0.23 32.414 0.117 7.46 39.4 12.93
12/26/2020 8:30:00 AM 0.23 32.414 0.117 7.46 44.47 12.94
12/26/2020 8:45:00 AM 0.23 32.414 0.117 7.47 39.97 12.93
12/26/2020 9:00:00 AM 0.23 32.414 0.117 7.48 41.09 12.93
12/26/2020 9:15:00 AM 0.23 32.414 0.117 7.46 47.72 12.94
12/26/2020 9:30:00 AM 0.24 32.432 0.117 7.47 39.32 12.94
12/26/2020 9:45:00 AM 0.25 32.45 0.117 7.48 43.07 12.93
12/26/2020 10:00:00 AM 0.27 32.486 0.117 7.48 40.41 12.94
12/26/2020 10:15:00 AM 0.28 32.504 0.117 7.48 35.97 12.94
12/26/2020 10:30:00 AM 0.3 32.54 0.117 7.47 38.92 12.94
12/26/2020 10:45:00 AM 0.31 32.558 0.117 7.48 36.42 12.94
12/26/2020 11:00:00 AM 0.35 32.63 0.117 7.47 38.72 12.92
12/26/2020 11:15:00 AM 0.4 32.72 0.117 7.47 37.25 12.92
12/26/2020 11:30:00 AM 0.44 32.792 0.118 7.47 37.8 12.92
12/26/2020 11:45:00 AM 0.47 32.846 0.118 7.49 32.19 12.91
12/26/2020 12:00:00 PM 0.49 32.882 0.118 7.49 33.91 12.9
12/26/2020 12:15:00 PM 0.51 32.918 0.118 7.5 33.67 12.9
12/26/2020 12:30:00 PM 0.54 32.972 0.118 7.5 32.77 12.9
12/26/2020 12:45:00 PM 0.58 33.044 0.118 7.5 32.18 12.89
12/26/2020 1:00:00 PM 0.6 33.08 0.118 7.49 32.76 12.89
12/26/2020 1:15:00 PM 0.63 33.134 0.118 7.48 31.54 12.88
12/26/2020 1:30:00 PM 0.65 33.17 0.119 7.49 32.27 12.87
12/26/2020 1:45:00 PM 0.67 33.206 0.118 7.47 31.02 12.87
12/26/2020 2:00:00 PM 0.68 33.224 0.119 7.49 29.38 12.86
12/26/2020 2:15:00 PM 0.69 33.242 0.119 7.49 31.44 12.86
12/26/2020 2:30:00 PM 0.69 33.242 0.119 7.49 28.95 12.86
12/26/2020 2:45:00 PM 0.69 33.242 0.119 7.49 30.35 12.85
12/26/2020 3:00:00 PM 0.68 33.224 0.119 7.48 30.17 12.85
12/26/2020 3:15:00 PM 0.67 33.206 0.119 7.49 31.04 12.85
12/26/2020 3:30:00 PM 0.67 33.206 0.119 7.49 28.39 12.84
12/26/2020 3:45:00 PM 0.67 33.206 0.119 7.49 28.91 12.84
12/26/2020 4:00:00 PM 0.66 33.188 0.12 7.49 27.69 12.84
12/26/2020 4:15:00 PM 0.65 33.17 0.12 7.49 30.72 12.84
12/26/2020 4:30:00 PM 0.64 33.152 0.12 7.49 26.91 12.84
12/26/2020 4:45:00 PM 0.62 33.116 0.12 7.48 25.68 12.84
12/26/2020 5:00:00 PM 0.6 33.08 0.12 7.48 27.07 12.84
12/26/2020 5:15:00 PM 0.58 33.044 0.121 7.49 33.36 12.85
12/26/2020 5:30:00 PM 0.56 33.008 0.121 7.48 28.3 12.85
12/26/2020 5:45:00 PM 0.54 32.972 0.121 7.48 30 12.85
12/26/2020 6:00:00 PM 0.52 32.936 0.121 7.48 27.52 12.86
12/26/2020 6:15:00 PM 0.49 32.882 0.121 7.48 27.25 12.86
12/26/2020 6:30:00 PM 0.47 32.846 0.121 7.48 26.55 12.87
12/26/2020 6:45:00 PM 0.45 32.81 0.122 7.48 25.98 12.88
12/26/2020 7:00:00 PM 0.43 32.774 0.122 7.48 28.17 12.88
12/26/2020 7:15:00 PM 0.4 32.72 0.122 7.47 26.15 12.89
12/26/2020 7:30:00 PM 0.38 32.684 0.122 7.48 28.66 12.89
12/26/2020 7:45:00 PM 0.36 32.648 0.122 7.49 25.61 12.9
12/26/2020 8:00:00 PM 0.34 32.612 0.123 7.48 23.47 12.9
12/26/2020 8:15:00 PM 0.33 32.594 0.123 7.48 25.23 12.91
12/26/2020 8:30:00 PM 0.31 32.558 0.123 7.48 25.59 12.92
12/26/2020 8:45:00 PM 0.29 32.522 0.123 7.48 26.99 12.94
12/26/2020 9:00:00 PM 0.28 32.504 0.124 7.49 30.8 12.93
12/26/2020 9:15:00 PM 0.26 32.468 0.124 7.49 25.59 12.93
12/26/2020 9:30:00 PM 0.25 32.45 0.124 7.49 24.53 12.94
12/26/2020 9:45:00 PM 0.23 32.414 0.124 7.47 33.55 12.94
12/26/2020 10:00:00 PM 0.22 32.396 0.125 7.49 23.75 12.96
12/26/2020 10:15:00 PM 0.2 32.36 0.125 7.48 23.7 12.96
12/26/2020 10:30:00 PM 0.19 32.342 0.125 7.49 21.66 12.98
12/26/2020 10:45:00 PM 0.17 32.306 0.125 7.49 23.81 12.98
12/26/2020 11:00:00 PM 0.16 32.288 0.125 7.48 25.24 12.99
12/26/2020 11:15:00 PM 0.15 32.27 0.126 7.48 28.16 12.98
12/26/2020 11:30:00 PM 0.13 32.234 0.126 7.47 25.76 12.98
12/26/2020 11:45:00 PM 0.12 32.216 0.126 7.47 23.19 13
12/27/2020 12:00:00 AM 0.11 32.198 0.126 7.48 24.69 13
12/27/2020 12:15:00 AM 0.1 32.18 0.127 7.47 23.49 13
12/27/2020 12:30:00 AM 0.09 32.162 0.127 7.46 26.1 13.01
12/27/2020 12:45:00 AM 0.08 32.144 0.127 7.48 22.09 13.01
12/27/2020 1:00:00 AM 0.07 32.126 0.127 7.48 37.82 13.02
12/27/2020 1:15:00 AM 0.06 32.108 0.128 7.48 32.92 13.04
12/27/2020 1:30:00 AM 0.05 32.09 0.128 7.47 22.18 13.03
12/27/2020 1:45:00 AM 0.04 32.072 0.128 7.48 163.6 13.05
12/27/2020 2:00:00 AM 0.04 32.072 0.129 7.48 25.64 13.03
12/27/2020 2:15:00 AM 0.03 32.054 0.129 7.47 41.9 13.05
12/27/2020 2:30:00 AM 0.03 32.054 0.129 7.48 26.3 13.04
12/27/2020 2:45:00 AM 0.02 32.036 0.129 7.48 21.99 13.06
12/27/2020 3:00:00 AM 0.02 32.036 0.13 7.47 23.86 13.05
12/27/2020 3:15:00 AM 0.01 32.018 0.13 7.47 142.61 13.05
12/27/2020 3:30:00 AM 0.01 32.018 0.13 7.47 21.18 13.06
12/27/2020 3:45:00 AM 0.01 32.018 0.131 7.47 21.9 13.06
12/27/2020 4:00:00 AM 0.01 32.018 0.131 7.47 23.14 13.07
12/27/2020 4:15:00 AM 0.01 32.018 0.131 7.48 22.85 13.07
12/27/2020 4:30:00 AM 0 32 0.131 7.48 22.22 13.07
12/27/2020 4:45:00 AM 0 32 0.132 7.48 24.47 13.06
12/27/2020 5:00:00 AM 0 32 0.132 7.48 27.62 13.07
12/27/2020 5:15:00 AM -0.01 31.982 0.132 7.48 24.05 13.08
12/27/2020 5:30:00 AM -0.01 31.982 0.132 7.48 23.68 13.07
12/27/2020 5:45:00 AM -0.01 31.982 0.133 7.48 35.22 13.08
12/27/2020 6:00:00 AM -0.01 31.982 0.133 7.49 28.25 13.07
12/27/2020 6:15:00 AM -0.01 31.982 0.133 7.49 22.55 13.09
12/27/2020 6:30:00 AM -0.02 31.964 0.134 7.48 24.26 13.09
12/27/2020 6:45:00 AM -0.02 31.964 0.134 7.48 60.25 13.08
12/27/2020 7:00:00 AM -0.02 31.964 0.135 7.49 18.83 13.09
12/27/2020 7:15:00 AM -0.03 31.946 0.134 7.48 54.6 13.08
12/27/2020 7:30:00 AM -0.03 31.946 0.135 7.48 21.06 13.09
12/27/2020 7:45:00 AM -0.03 31.946 0.135 7.48 20.92 13.1
12/27/2020 8:00:00 AM -0.03 31.946 0.136 7.47 20.83 13.1
12/27/2020 8:15:00 AM -0.03 31.946 0.135 7.47 21.12 13.1
12/27/2020 8:30:00 AM -0.02 31.964 0.136 7.48 22.29 13.11
12/27/2020 8:45:00 AM -0.02 31.964 0.136 7.48 20.32 13.1
12/27/2020 9:00:00 AM -0.01 31.982 0.136 7.46 20.2 13.11
12/27/2020 9:15:00 AM 0 32 0.137 7.46 19.47 13.11
12/27/2020 9:30:00 AM 0.01 32.018 0.137 7.46 19.18 13.11
12/27/2020 9:45:00 AM 0.03 32.054 0.137 7.48 19.44 13.11
12/27/2020 10:00:00 AM 0.05 32.09 0.138 7.48 19.18 13.12
12/27/2020 10:15:00 AM 0.07 32.126 0.138 7.47 19.41 13.11
12/27/2020 10:30:00 AM 0.1 32.18 0.138 7.48 107.97 13.11
12/27/2020 10:45:00 AM 0.13 32.234 0.139 7.48 51.28 13.11
12/27/2020 11:00:00 AM 0.16 32.288 0.139 7.47 18.05 13.11
12/27/2020 11:15:00 AM 0.19 32.342 0.139 7.49 21.89 13.11
12/27/2020 11:30:00 AM 0.23 32.414 0.139 7.48 19.18 13.11
12/27/2020 11:45:00 AM 0.27 32.486 0.14 7.49 18.15 13.11
12/27/2020 12:00:00 PM 0.31 32.558 0.14 7.5 18.55 13.11
12/27/2020 12:15:00 PM 0.32 32.576 0.14 7.49 18.59 13.09
12/27/2020 12:30:00 PM 0.33 32.594 0.141 7.49 18.59 13.1
12/27/2020 12:45:00 PM 0.35 32.63 0.141 7.49 17.79 13.09
12/27/2020 1:00:00 PM 0.38 32.684 0.141 7.48 18.28 13.08
12/27/2020 1:15:00 PM 0.42 32.756 0.142 7.49 18.3 13.08
12/27/2020 1:30:00 PM 0.46 32.828 0.142 7.49 18.07 13.07
12/27/2020 1:45:00 PM 0.49 32.882 0.142 7.49 18.17 13.06
12/27/2020 2:00:00 PM 0.52 32.936 0.143 7.48 17.52 13.06
12/27/2020 2:15:00 PM 0.53 32.954 0.143 7.5 17.46 13.05
12/27/2020 2:30:00 PM 0.54 32.972 0.143 7.49 19.08 13.05
12/27/2020 2:45:00 PM 0.54 32.972 0.144 7.49 17.03 13.05
12/27/2020 3:00:00 PM 0.54 32.972 0.144 7.49 16.39 13.04
12/27/2020 3:15:00 PM 0.54 32.972 0.145 7.49 17.66 13.04
12/27/2020 3:30:00 PM 0.54 32.972 0.144 7.5 15.92 13.04
12/27/2020 3:45:00 PM 0.53 32.954 0.145 7.5 17.12 13.04
12/27/2020 4:00:00 PM 0.53 32.954 0.146 7.5 17.47 13.03
12/27/2020 4:15:00 PM 0.51 32.918 0.146 7.51 18.16 13.03
12/27/2020 4:30:00 PM 0.5 32.9 0.146 7.5 19.5 13.03
12/27/2020 4:45:00 PM 0.48 32.864 0.146 7.51 17.19 13.03
12/27/2020 5:00:00 PM 0.47 32.846 0.147 7.51 16.79 13.03
12/27/2020 5:15:00 PM 0.45 32.81 0.148 7.5 16.68 13.03
12/27/2020 5:30:00 PM 0.44 32.792 0.147 7.51 16.41 13.03
12/27/2020 5:45:00 PM 0.43 32.774 0.148 7.5 16.74 13.03
12/27/2020 6:00:00 PM 0.42 32.756 0.148 7.43 18.96 13.03
12/27/2020 6:15:00 PM 0.41 32.738 0.149 7.52 16.07 13.04
12/27/2020 6:30:00 PM 0.39 32.702 0.149 7.51 15.87 13.03
12/27/2020 6:45:00 PM 0.38 32.684 0.149 7.51 16.42 13.04
12/27/2020 7:00:00 PM 0.36 32.648 0.149 7.51 16.25 13.03
12/27/2020 7:15:00 PM 0.34 32.612 0.15 7.52 15.65 13.05
12/27/2020 7:30:00 PM 0.33 32.594 0.15 7.52 15.91 13.04
12/27/2020 7:45:00 PM 0.32 32.576 0.15 7.52 16.24 13.04
12/27/2020 8:00:00 PM 0.3 32.54 0.151 7.51 14.12 13.05
12/27/2020 8:15:00 PM 0.29 32.522 0.151 7.51 15.02 13.06
12/27/2020 8:30:00 PM 0.28 32.504 0.151 7.52 14.39 13.06
12/27/2020 8:45:00 PM 0.27 32.486 0.152 7.5 15.56 13.06
12/27/2020 9:00:00 PM 0.25 32.45 0.152 7.52 16.21 13.06
12/27/2020 9:15:00 PM 0.24 32.432 0.153 7.51 15.33 13.05
12/27/2020 9:30:00 PM 0.22 32.396 0.153 7.52 15.48 13.07
12/27/2020 9:45:00 PM 0.21 32.378 0.154 7.53 15.08 13.07
12/27/2020 10:00:00 PM 0.2 32.36 0.154 7.53 18.11 13.07
12/27/2020 10:15:00 PM 0.2 32.36 0.154 7.51 16.15 13.06
12/27/2020 10:30:00 PM 0.19 32.342 0.155 7.54 15.2 13.07
12/27/2020 10:45:00 PM 0.18 32.324 0.155 7.54 14.91 13.07
12/27/2020 11:00:00 PM 0.17 32.306 0.156 7.52 15.41 13.08
12/27/2020 11:15:00 PM 0.16 32.288 0.156 7.53 14.63 13.07
12/27/2020 11:30:00 PM 0.15 32.27 0.156 7.54 14.78 13.07
12/27/2020 11:45:00 PM 0.14 32.252 0.157 7.53 15.81 13.09
12/28/2020 12:00:00 AM 0.12 32.216 0.157 7.54 14.47 13.09
12/28/2020 12:15:00 AM 0.11 32.198 0.158 7.54 14.45 13.07
12/28/2020 12:30:00 AM 0.1 32.18 0.158 7.54 14.4 13.09
12/28/2020 12:45:00 AM 0.1 32.18 0.158 7.54 14.37 13.09
12/28/2020 1:00:00 AM 0.09 32.162 0.159 7.54 14.22 13.08
12/28/2020 1:15:00 AM 0.09 32.162 0.159 7.54 14.27 13.09
12/28/2020 1:30:00 AM 0.09 32.162 0.16 7.52 14.34 13.09
12/28/2020 1:45:00 AM 0.09 32.162 0.161 7.53 13.96 13.08
12/28/2020 2:00:00 AM 0.08 32.144 0.161 7.53 14.38 13.09
12/28/2020 2:15:00 AM 0.08 32.144 0.161 7.56 14.04 13.09
12/28/2020 2:30:00 AM 0.08 32.144 0.161 7.55 13.85 13.09
12/28/2020 2:45:00 AM 0.08 32.144 0.162 7.56 14.82 13.08
12/28/2020 3:00:00 AM 0.08 32.144 0.162 7.55 13.98 13.07
12/28/2020 3:15:00 AM 0.08 32.144 0.163 7.55 14.17 13.09
12/28/2020 3:30:00 AM 0.08 32.144 0.163 7.56 14.17 13.08
12/28/2020 3:45:00 AM 0.08 32.144 0.174 7.54 13.75 13.08
12/28/2020 4:00:00 AM 0.08 32.144 0.174 7.56 14.08 13.08
12/28/2020 4:15:00 AM 0.08 32.144 0.165 7.54 14.47 13.07
12/28/2020 4:30:00 AM 0.08 32.144 0.175 7.54 13.43 13.07
12/28/2020 4:45:00 AM 0.08 32.144 0.176 7.58 14.07 13.07
12/28/2020 5:00:00 AM 0.08 32.144 0.176 7.57 13.63 13.06
12/28/2020 5:15:00 AM 0.09 32.162 0.167 7.55 13.28 13.06
12/28/2020 5:30:00 AM 0.09 32.162 0.177 7.56 13.56 13.06
12/28/2020 5:45:00 AM 0.1 32.18 0.177 7.55 13.07 13.07
12/28/2020 6:00:00 AM 0.1 32.18 0.178 7.55 13.15 13.06
12/28/2020 6:15:00 AM 0.11 32.198 0.178 7.55 13.01 13.06
12/28/2020 6:30:00 AM 0.11 32.198 0.179 7.57 13.06 13.05
12/28/2020 6:45:00 AM 0.12 32.216 0.179 7.56 13.14 13.06
12/28/2020 7:00:00 AM 0.12 32.216 0.18 7.58 12.85 13.06
12/28/2020 7:15:00 AM 0.07 32.126 0.18 7.58 12.8 13.05
12/28/2020 7:30:00 AM 0.03 32.054 0.18 7.58 12.85 13.05
12/28/2020 7:45:00 AM 0.03 32.054 0.181 7.58 12.65 13.05
12/28/2020 8:00:00 AM 0.05 32.09 0.181 7.59 13.11 13.04
12/28/2020 8:15:00 AM 0.06 32.108 0.182 7.59 12.41 13.06
12/28/2020 8:30:00 AM 0.08 32.144 0.182 7.6 12.56 13.06
12/28/2020 8:45:00 AM 0.1